Home > Products > Valid Products > OSO

000
SXUS55 KMSO 302343
OSOMSO
MONTANA AWOS SUMMARY
NATIONAL WEATHER SERVICE MISSOULA MT
543 PM MDT TUE JUN 30 2015

Montana AWOS Reports

LAUREL      |K6S8 302335Z AUTO 29013G20KT 40SM 34/08 A2994 RMK AO1 T03390083
TWIN BRIDGES|K7S1 302335Z AUTO 28010KT 40SM 33/06 A3003 RMK AO1 T03330056
ROUNDUP     |KRPX 302335Z AUTO 31014G24KT 40SM 33/06 A2985 RMK AO1 T03330056






000
SXUS55 KMSO 302333
OSOMSO
MONTANA AWOS SUMMARY
NATIONAL WEATHER SERVICE MISSOULA MT
533 PM MDT TUE JUN 30 2015

Montana AWOS Reports

ROUNDUP     |KRPX 302315Z AUTO 31018G24KT 40SM 34/06 A2985 RMK AO1 T03390056






000
SXUS55 KMSO 302323
OSOMSO
MONTANA AWOS SUMMARY
NATIONAL WEATHER SERVICE MISSOULA MT
523 PM MDT TUE JUN 30 2015

Montana AWOS Reports

LAUREL      |K6S8 302315Z AUTO 30011G19KT 40SM 34/09 A2994 RMK AO1 T03390094
TWIN BRIDGES|K7S1 302315Z AUTO 27009G16KT 40SM 34/06 A3003 RMK AO1 T03390056
MALTA       |KM75 302315Z AUTO 28014G21KT 40SM 32/12 A2981 RMK AO1 T03170122






000
SXUS55 KMSO 302303
OSOMSO
MONTANA AWOS SUMMARY
NATIONAL WEATHER SERVICE MISSOULA MT
502 PM MDT TUE JUN 30 2015

Montana AWOS Reports

MALTA       |KM75 302255Z AUTO 29013G19KT 40SM 32/12 A2981 RMK AO1 T03170122
SCOBEY      |K9S2 302255Z AUTO 07012G18KT 7SM 23/12 A2987 RMK AO1 T02330122
EKALAKA     |K97M 302255Z AUTO 28007KT 40SM 30/12 A2988 RMK AO1 T03000122
PLAINS      |KS34 302255Z AUTO 27014G18KT 2SM HZ 34/07 A2997 RMK AO1 T03390072
LAUREL      |K6S8 302255Z AUTO 28015G21KT 40SM 34/09 A2994 RMK AO1 T03440089
ROUNDUP     |KRPX 302255Z AUTO 31019G25KT 40SM 34/06 A2985 RMK AO1 T03390061
TWIN BRIDGES|K7S1 302255Z AUTO 28008KT 40SM 34/07 A3004 RMK AO1 T03390072






000
SXUS55 KMSO 302303
OSOMSO
MONTANA AWOS SUMMARY
NATIONAL WEATHER SERVICE MISSOULA MT
502 PM MDT TUE JUN 30 2015

Montana AWOS Reports

MALTA       |KM75 302255Z AUTO 29013G19KT 40SM 32/12 A2981 RMK AO1 T03170122
SCOBEY      |K9S2 302255Z AUTO 07012G18KT 7SM 23/12 A2987 RMK AO1 T02330122
EKALAKA     |K97M 302255Z AUTO 28007KT 40SM 30/12 A2988 RMK AO1 T03000122
PLAINS      |KS34 302255Z AUTO 27014G18KT 2SM HZ 34/07 A2997 RMK AO1 T03390072
LAUREL      |K6S8 302255Z AUTO 28015G21KT 40SM 34/09 A2994 RMK AO1 T03440089
ROUNDUP     |KRPX 302255Z AUTO 31019G25KT 40SM 34/06 A2985 RMK AO1 T03390061
TWIN BRIDGES|K7S1 302255Z AUTO 28008KT 40SM 34/07 A3004 RMK AO1 T03390072






000
SXUS55 KMSO 302243
OSOMSO
MONTANA AWOS SUMMARY
NATIONAL WEATHER SERVICE MISSOULA MT
443 PM MDT TUE JUN 30 2015

Montana AWOS Reports

LAUREL      |K6S8 302235Z AUTO 31017G24KT 40SM 34/09 A2994 RMK AO1 T03440089
TWIN BRIDGES|K7S1 302235Z AUTO 33006KT 40SM 33/07 A3004 RMK AO1 T03330072
ROUNDUP     |KRPX 302235Z AUTO 30015G19KT 40SM 34/07 A2985 RMK AO1 T03390072






000
SXUS55 KMSO 302223
OSOMSO
MONTANA AWOS SUMMARY
NATIONAL WEATHER SERVICE MISSOULA MT
423 PM MDT TUE JUN 30 2015

Montana AWOS Reports

LAUREL      |K6S8 302215Z AUTO 32015G20KT 40SM 34/09 A2994 RMK AO1 T03440089
TWIN BRIDGES|K7S1 302215Z AUTO 00000KT 40SM 33/08 A3004 RMK AO1 T03280078
ROUNDUP     |KRPX 302215Z AUTO 30018G24KT 40SM 33/07 A2985 RMK AO1 T03330072






000
SXUS55 KMSO 302203
OSOMSO
MONTANA AWOS SUMMARY
NATIONAL WEATHER SERVICE MISSOULA MT
403 PM MDT TUE JUN 30 2015

Montana AWOS Reports

LAUREL      |K6S8 302155Z AUTO 29013G22KT 40SM 34/09 A2994 RMK AO1 T03440089
TWIN BRIDGES|K7S1 302155Z AUTO 18005KT 40SM 33/09 A3005 RMK AO1 T03280089
MALTA       |KM75 302155Z AUTO 29015G22KT 40SM 32/11 A2980 RMK AO1 T03220111
SCOBEY      |K9S2 302155Z AUTO 07012G17KT 5SM HZ 26/13 A2987 RMK AO1 T02560128
EKALAKA     |K97M 302155Z AUTO 32006KT 40SM 31/13 A2989 RMK AO1 T03060133
PLAINS      |KS34 302155Z AUTO 30008KT 2 1/2SM HZ 33/07 A2998 RMK AO1 T03330072
ROUNDUP     |KRPX 302155Z AUTO 31015G26KT 40SM 33/07 A2985 RMK AO1 T03330067






000
SXUS55 KMSO 302143
OSOMSO
MONTANA AWOS SUMMARY
NATIONAL WEATHER SERVICE MISSOULA MT
342 PM MDT TUE JUN 30 2015

Montana AWOS Reports

LAUREL      |K6S8 302135Z AUTO 29014G19KT 40SM 34/09 A2994 RMK AO1 T03440094
TWIN BRIDGES|K7S1 302135Z AUTO 20004KT 40SM 32/08 A3005 RMK AO1 T03220083
ROUNDUP     |KRPX 302135Z AUTO 32013G17KT 40SM 34/07 A2986 RMK AO1 T03390072






000
SXUS55 KMSO 302133
OSOMSO
MONTANA AWOS SUMMARY
NATIONAL WEATHER SERVICE MISSOULA MT
333 PM MDT TUE JUN 30 2015

Montana AWOS Reports

ROUNDUP     |KRPX 302115Z AUTO 32014G20KT 40SM 33/07 A2986 RMK AO1 T03330067






000
SXUS55 KMSO 302123
OSOMSO
MONTANA AWOS SUMMARY
NATIONAL WEATHER SERVICE MISSOULA MT
323 PM MDT TUE JUN 30 2015

Montana AWOS Reports

MALTA       |KM75 302115Z AUTO 25016G20KT 40SM 34/09 A2979 RMK AO1 T03440089
LAUREL      |K6S8 302115Z AUTO 32006KT 40SM 34/10 A2995 RMK AO1 T03390100
TWIN BRIDGES|K7S1 302115Z AUTO 18004KT 40SM 32/09 A3006 RMK AO1 T03220089






000
SXUS55 KMSO 302103
OSOMSO
MONTANA AWOS SUMMARY
NATIONAL WEATHER SERVICE MISSOULA MT
303 PM MDT TUE JUN 30 2015

Montana AWOS Reports

LAUREL      |K6S8 302055Z AUTO 32014KT 40SM 34/09 A2995 RMK AO1 T03440094
TWIN BRIDGES|K7S1 302055Z AUTO VRB05KT 40SM 32/09 A3006 RMK AO1 T03170089
ROUNDUP     |KRPX 302055Z AUTO 29017G24KT 40SM 34/06 A2986 RMK AO1 T03390061






000
SXUS55 KMSO 302043
OSOMSO
MONTANA AWOS SUMMARY
NATIONAL WEATHER SERVICE MISSOULA MT
243 PM MDT TUE JUN 30 2015

Montana AWOS Reports

LAUREL      |K6S8 302035Z AUTO 30016G23KT 40SM 34/09 A2995 RMK AO1 T03440089
TWIN BRIDGES|K7S1 302035Z AUTO 20005KT 40SM 32/09 A3007 RMK AO1 T03170089
MALTA       |KM75 302035Z AUTO 29011G16KT 25SM 33/09 A2980 RMK AO1 T03280094
ROUNDUP     |KRPX 302035Z AUTO 31016G21KT 40SM 32/06 A2986 RMK AO1 T03220056






000
SXUS55 KMSO 302033
OSOMSO
MONTANA AWOS SUMMARY
NATIONAL WEATHER SERVICE MISSOULA MT
232 PM MDT TUE JUN 30 2015

Montana AWOS Reports

LAUREL      |K6S8 302015Z AUTO 31005KT 40SM 34/11 A2996 RMK AO1 T03440111
ROUNDUP     |KRPX 302015Z AUTO 29013G23KT 40SM 33/07 A2986 RMK AO1 T03330067






000
SXUS55 KMSO 302023
OSOMSO
MONTANA AWOS SUMMARY
NATIONAL WEATHER SERVICE MISSOULA MT
222 PM MDT TUE JUN 30 2015

Montana AWOS Reports

TWIN BRIDGES|K7S1 302015Z AUTO VRB06KT 40SM 32/09 A3008 RMK AO1 T03170089
MALTA       |KM75 302015Z AUTO 28014G28KT 25SM 33/09 A2981 RMK AO1 T03280094






000
SXUS55 KMSO 302023
OSOMSO
MONTANA AWOS SUMMARY
NATIONAL WEATHER SERVICE MISSOULA MT
222 PM MDT TUE JUN 30 2015

Montana AWOS Reports

TWIN BRIDGES|K7S1 302015Z AUTO VRB06KT 40SM 32/09 A3008 RMK AO1 T03170089
MALTA       |KM75 302015Z AUTO 28014G28KT 25SM 33/09 A2981 RMK AO1 T03280094






000
SXUS55 KMSO 302003
OSOMSO
MONTANA AWOS SUMMARY
NATIONAL WEATHER SERVICE MISSOULA MT
203 PM MDT TUE JUN 30 2015

Montana AWOS Reports

TWIN BRIDGES|K7S1 301955Z AUTO 19006KT 40SM 31/10 A3009 RMK AO1 T03110100
MALTA       |KM75 301955Z AUTO 26010G19KT 25SM 33/10 A2981 RMK AO1 T03330100
LAUREL      |K6S8 301955Z AUTO 29008KT 40SM 34/11 A2996 RMK AO1 T03390106
ROUNDUP     |KRPX 301955Z AUTO 29020G28KT 40SM 34/07 A2986 RMK AO1 T03390072
EKALAKA     |K97M 301955Z AUTO 30004KT 40SM 28/14 A2992 RMK AO1 T02830144
PLAINS      |KS34 301955Z AUTO 28009G13KT 4SM HZ 32/11 A3000 RMK AO1 T03170106
SCOBEY      |K9S2 301955Z AUTO 09017G23KT 5SM HZ 26/11 A2988 RMK AO1 T02610111






000
SXUS55 KMSO 302003
OSOMSO
MONTANA AWOS SUMMARY
NATIONAL WEATHER SERVICE MISSOULA MT
203 PM MDT TUE JUN 30 2015

Montana AWOS Reports

TWIN BRIDGES|K7S1 301955Z AUTO 19006KT 40SM 31/10 A3009 RMK AO1 T03110100
MALTA       |KM75 301955Z AUTO 26010G19KT 25SM 33/10 A2981 RMK AO1 T03330100
LAUREL      |K6S8 301955Z AUTO 29008KT 40SM 34/11 A2996 RMK AO1 T03390106
ROUNDUP     |KRPX 301955Z AUTO 29020G28KT 40SM 34/07 A2986 RMK AO1 T03390072
EKALAKA     |K97M 301955Z AUTO 30004KT 40SM 28/14 A2992 RMK AO1 T02830144
PLAINS      |KS34 301955Z AUTO 28009G13KT 4SM HZ 32/11 A3000 RMK AO1 T03170106
SCOBEY      |K9S2 301955Z AUTO 09017G23KT 5SM HZ 26/11 A2988 RMK AO1 T02610111






000
SXUS55 KMSO 301943
OSOMSO
MONTANA AWOS SUMMARY
NATIONAL WEATHER SERVICE MISSOULA MT
142 PM MDT TUE JUN 30 2015

Montana AWOS Reports

LAUREL      |K6S8 301935Z AUTO 28005KT 40SM 33/09 A2997 RMK AO1 T03280089
TWIN BRIDGES|K7S1 301935Z AUTO 14006KT 40SM 30/08 A3009 RMK AO1 T03000078
ROUNDUP     |KRPX 301935Z AUTO 31013G27KT 40SM 33/06 A2987 RMK AO1 T03330056






000
SXUS55 KMSO 301933
OSOMSO
MONTANA AWOS SUMMARY
NATIONAL WEATHER SERVICE MISSOULA MT
133 PM MDT TUE JUN 30 2015

Montana AWOS Reports

ROUNDUP     |KRPX 301915Z AUTO 29017G23KT 40SM 33/07 A2987 RMK AO1 T03330067






000
SXUS55 KMSO 301923
OSOMSO
MONTANA AWOS SUMMARY
NATIONAL WEATHER SERVICE MISSOULA MT
123 PM MDT TUE JUN 30 2015

Montana AWOS Reports

LAUREL      |K6S8 301915Z AUTO 31011G16KT 40SM 33/09 A2997 RMK AO1 T03330094
TWIN BRIDGES|K7S1 301915Z AUTO 14006KT 40SM 30/07 A3010 RMK AO1 T03000072
MALTA       |KM75 301915Z AUTO 24015G21KT 15SM 33/12 A2981 RMK AO1 T03280122






000
SXUS55 KMSO 301923
OSOMSO
MONTANA AWOS SUMMARY
NATIONAL WEATHER SERVICE MISSOULA MT
123 PM MDT TUE JUN 30 2015

Montana AWOS Reports

LAUREL      |K6S8 301915Z AUTO 31011G16KT 40SM 33/09 A2997 RMK AO1 T03330094
TWIN BRIDGES|K7S1 301915Z AUTO 14006KT 40SM 30/07 A3010 RMK AO1 T03000072
MALTA       |KM75 301915Z AUTO 24015G21KT 15SM 33/12 A2981 RMK AO1 T03280122






000
SXUS55 KMSO 301913
OSOMSO
MONTANA AWOS SUMMARY
NATIONAL WEATHER SERVICE MISSOULA MT
113 PM MDT TUE JUN 30 2015

Montana AWOS Reports

SCOBEY      |K9S2 301855Z AUTO 07014G20KT 3SM HZ 24/12 A2990 RMK AO1 T02390117






000
SXUS55 KMSO 301904
OSOMSO
MONTANA AWOS SUMMARY
NATIONAL WEATHER SERVICE MISSOULA MT
103 PM MDT TUE JUN 30 2015

Montana AWOS Reports

LAUREL      |K6S8 301855Z AUTO 30013KT 40SM 33/08 A2998 RMK AO1 T03330083
TWIN BRIDGES|K7S1 301855Z AUTO 17005KT 40SM 29/09 A3011 RMK AO1 T02890094
ROUNDUP     |KRPX 301855Z AUTO 28014G20KT 40SM 33/06 A2987 RMK AO1 T03330056






000
SXUS55 KMSO 301904
OSOMSO
MONTANA AWOS SUMMARY
NATIONAL WEATHER SERVICE MISSOULA MT
103 PM MDT TUE JUN 30 2015

Montana AWOS Reports

LAUREL      |K6S8 301855Z AUTO 30013KT 40SM 33/08 A2998 RMK AO1 T03330083
TWIN BRIDGES|K7S1 301855Z AUTO 17005KT 40SM 29/09 A3011 RMK AO1 T02890094
ROUNDUP     |KRPX 301855Z AUTO 28014G20KT 40SM 33/06 A2987 RMK AO1 T03330056






000
SXUS55 KMSO 301843
OSOMSO
MONTANA AWOS SUMMARY
NATIONAL WEATHER SERVICE MISSOULA MT
1243 PM MDT TUE JUN 30 2015

Montana AWOS Reports

LAUREL      |K6S8 301835Z AUTO 28012G16KT 40SM 33/10 A2998 RMK AO1 T03280100
TWIN BRIDGES|K7S1 301835Z AUTO 16005KT 40SM 28/09 A3011 RMK AO1 T02830094
MALTA       |KM75 301835Z AUTO 30009G14KT 10SM 32/11 A2982 RMK AO1 T03220111
ROUNDUP     |KRPX 301835Z AUTO 31015G21KT 40SM 34/06 A2987 RMK AO1 T03390056






000
SXUS55 KMSO 301843
OSOMSO
MONTANA AWOS SUMMARY
NATIONAL WEATHER SERVICE MISSOULA MT
1243 PM MDT TUE JUN 30 2015

Montana AWOS Reports

LAUREL      |K6S8 301835Z AUTO 28012G16KT 40SM 33/10 A2998 RMK AO1 T03280100
TWIN BRIDGES|K7S1 301835Z AUTO 16005KT 40SM 28/09 A3011 RMK AO1 T02830094
MALTA       |KM75 301835Z AUTO 30009G14KT 10SM 32/11 A2982 RMK AO1 T03220111
ROUNDUP     |KRPX 301835Z AUTO 31015G21KT 40SM 34/06 A2987 RMK AO1 T03390056






000
SXUS55 KMSO 301823
OSOMSO
MONTANA AWOS SUMMARY
NATIONAL WEATHER SERVICE MISSOULA MT
1223 PM MDT TUE JUN 30 2015

Montana AWOS Reports

MALTA       |KM75 301815Z AUTO 29010G15KT 7SM 32/12 A2982 RMK AO1 T03220117
LAUREL      |K6S8 301815Z AUTO 28016G21KT 40SM 33/11 A2998 RMK AO1 T03280111
TWIN BRIDGES|K7S1 301815Z AUTO 20005KT 40SM 28/11 A3012 RMK AO1 T02780111
ROUNDUP     |KRPX 301815Z AUTO 29015G27KT 40SM 33/07 A2987 RMK AO1 T03330067






000
SXUS55 KMSO 301823
OSOMSO
MONTANA AWOS SUMMARY
NATIONAL WEATHER SERVICE MISSOULA MT
1223 PM MDT TUE JUN 30 2015

Montana AWOS Reports

MALTA       |KM75 301815Z AUTO 29010G15KT 7SM 32/12 A2982 RMK AO1 T03220117
LAUREL      |K6S8 301815Z AUTO 28016G21KT 40SM 33/11 A2998 RMK AO1 T03280111
TWIN BRIDGES|K7S1 301815Z AUTO 20005KT 40SM 28/11 A3012 RMK AO1 T02780111
ROUNDUP     |KRPX 301815Z AUTO 29015G27KT 40SM 33/07 A2987 RMK AO1 T03330067






000
SXUS55 KMSO 301813
OSOMSO
MONTANA AWOS SUMMARY
NATIONAL WEATHER SERVICE MISSOULA MT
1212 PM MDT TUE JUN 30 2015

Montana AWOS Reports

LAUREL      |K6S8 301755Z AUTO 29013G20KT 40SM 32/10 A2998 RMK AO1 T03220100
ROUNDUP     |KRPX 301755Z AUTO 00000KT 40SM 33/09 A2988 RMK AO1 T03280094
EKALAKA     |K97M 301755Z AUTO 31006KT 40SM 27/14 A2993 RMK AO1 T02720144






000
SXUS55 KMSO 301803
OSOMSO
MONTANA AWOS SUMMARY
NATIONAL WEATHER SERVICE MISSOULA MT
1203 PM MDT TUE JUN 30 2015

Montana AWOS Reports

TWIN BRIDGES|K7S1 301755Z AUTO 16005KT 40SM 27/13 A3012 RMK AO1 T02720133
MALTA       |KM75 301755Z AUTO 25005KT 10SM 31/10 A2982 RMK AO1 T03110100
SCOBEY      |K9S2 301755Z AUTO 05012G16KT 2SM HZ 22/11 A2992 RMK AO1 T02220111
PLAINS      |KS34 301755Z AUTO 28007KT 3 1/2SM HZ 31/12 A3001 RMK AO1 T03060122






000
SXUS55 KMSO 301743
OSOMSO
MONTANA AWOS SUMMARY
NATIONAL WEATHER SERVICE MISSOULA MT
1143 AM MDT TUE JUN 30 2015

Montana AWOS Reports

LAUREL      |K6S8 301735Z AUTO 28015G20KT 40SM 32/08 A2998 RMK AO1 T03220083
TWIN BRIDGES|K7S1 301735Z AUTO VRB04KT 40SM 26/13 A3012 RMK AO1 T02610133
ROUNDUP     |KRPX 301735Z AUTO 29004KT 40SM 32/11 A2988 RMK AO1 T03170106






000
SXUS55 KMSO 301733
OSOMSO
MONTANA AWOS SUMMARY
NATIONAL WEATHER SERVICE MISSOULA MT
1133 AM MDT TUE JUN 30 2015

Montana AWOS Reports

ROUNDUP     |KRPX 301715Z AUTO 15004KT 40SM 31/13 A2988 RMK AO1 T03110128






000
SXUS55 KMSO 301733
OSOMSO
MONTANA AWOS SUMMARY
NATIONAL WEATHER SERVICE MISSOULA MT
1133 AM MDT TUE JUN 30 2015

Montana AWOS Reports

ROUNDUP     |KRPX 301715Z AUTO 15004KT 40SM 31/13 A2988 RMK AO1 T03110128






000
SXUS55 KMSO 301723
OSOMSO
MONTANA AWOS SUMMARY
NATIONAL WEATHER SERVICE MISSOULA MT
1123 AM MDT TUE JUN 30 2015

Montana AWOS Reports

MALTA       |KM75 301715Z AUTO 26010G16KT 10SM 31/14 A2982 RMK AO1 T03060139
LAUREL      |K6S8 301715Z AUTO 28010G16KT 40SM 32/11 A2999 RMK AO1 T03170106
TWIN BRIDGES|K7S1 301715Z AUTO 19007KT 40SM 26/13 A3013 RMK AO1 T02560133






000
SXUS55 KMSO 301703
OSOMSO
MONTANA AWOS SUMMARY
NATIONAL WEATHER SERVICE MISSOULA MT
1103 AM MDT TUE JUN 30 2015

Montana AWOS Reports

LAUREL      |K6S8 301655Z AUTO 00000KT 40SM 29/14 A2999 RMK AO1 T02940139
TWIN BRIDGES|K7S1 301655Z AUTO 14006KT 40SM 25/13 A3013 RMK AO1 T02500133
ROUNDUP     |KRPX 301655Z AUTO 00000KT 40SM 31/13 A2989 RMK AO1 T03110128
EKALAKA     |K97M 301655Z AUTO 27006KT 40SM 28/14 A2993 RMK AO1 T02780144






000
SXUS55 KMSO 301703
OSOMSO
MONTANA AWOS SUMMARY
NATIONAL WEATHER SERVICE MISSOULA MT
1103 AM MDT TUE JUN 30 2015

Montana AWOS Reports

LAUREL      |K6S8 301655Z AUTO 00000KT 40SM 29/14 A2999 RMK AO1 T02940139
TWIN BRIDGES|K7S1 301655Z AUTO 14006KT 40SM 25/13 A3013 RMK AO1 T02500133
ROUNDUP     |KRPX 301655Z AUTO 00000KT 40SM 31/13 A2989 RMK AO1 T03110128
EKALAKA     |K97M 301655Z AUTO 27006KT 40SM 28/14 A2993 RMK AO1 T02780144






000
SXUS55 KMSO 301644
OSOMSO
MONTANA AWOS SUMMARY
NATIONAL WEATHER SERVICE MISSOULA MT
1043 AM MDT TUE JUN 30 2015

Montana AWOS Reports

MALTA       |KM75 301635Z AUTO 25010KT 5SM HZ 29/13 A2983 RMK AO1 T02890133
LAUREL      |K6S8 301635Z AUTO 17004KT 25SM 27/15 A3000 RMK AO1 T02720150
TWIN BRIDGES|K7S1 301635Z AUTO 18005KT 40SM 24/14 A3014 RMK AO1 T02440144
ROUNDUP     |KRPX 301635Z AUTO 21004KT 40SM 30/12 A2989 RMK AO1 T03000122






000
SXUS55 KMSO 301623
OSOMSO
MONTANA AWOS SUMMARY
NATIONAL WEATHER SERVICE MISSOULA MT
1023 AM MDT TUE JUN 30 2015

Montana AWOS Reports

SCOBEY      |K9S2 301555Z AUTO 01009KT 1 3/4SM HZ 19/12 A2993 RMK AO1 T01890117
TWIN BRIDGES|K7S1 301615Z AUTO 14006KT 40SM 24/14 A3014 RMK AO1 T02390139
MALTA       |KM75 301615Z AUTO 00000KT 2 1/2SM HZ 28/11 A2984 RMK AO1 T02780111
LAUREL      |K6S8 301615Z AUTO 18006KT 40SM 26/14 A3000 RMK AO1 T02560144
ROUNDUP     |KRPX 301615Z AUTO 20008KT 40SM 29/12 A2989 RMK AO1 T02890122
PLAINS      |KS34 301555Z AUTO 00000KT 4SM HZ 26/16 A3003 RMK AO1 T02560161






000
SXUS55 KMSO 301603
OSOMSO
MONTANA AWOS SUMMARY
NATIONAL WEATHER SERVICE MISSOULA MT
1002 AM MDT TUE JUN 30 2015

Montana AWOS Reports

LAUREL      |K6S8 301555Z AUTO 19008KT 40SM 24/14 A3000 RMK AO1 T02440144
TWIN BRIDGES|K7S1 301555Z AUTO 11006KT 40SM 23/13 A3014 RMK AO1 T02280133
ROUNDUP     |KRPX 301555Z AUTO 22008KT 40SM 27/13 A2990 RMK AO1 T02720133
EKALAKA     |K97M 301555Z AUTO 00000KT 40SM 27/14 A2993 RMK AO1 T02670144






000
SXUS55 KMSO 301543
OSOMSO
MONTANA AWOS SUMMARY
NATIONAL WEATHER SERVICE MISSOULA MT
943 AM MDT TUE JUN 30 2015

Montana AWOS Reports

LAUREL      |K6S8 301535Z AUTO 18005KT 40SM 24/14 A3000 RMK AO1 T02390144
TWIN BRIDGES|K7S1 301535Z AUTO 18006KT 40SM 22/13 A3015 RMK AO1 T02220128
MALTA       |KM75 301535Z AUTO 00000KT 2 1/2SM HZ 26/11 A2985 RMK AO1 T02610106
ROUNDUP     |KRPX 301535Z AUTO 22007KT 40SM 26/13 A2990 RMK AO1 T02610133






000
SXUS55 KMSO 301543
OSOMSO
MONTANA AWOS SUMMARY
NATIONAL WEATHER SERVICE MISSOULA MT
943 AM MDT TUE JUN 30 2015

Montana AWOS Reports

LAUREL      |K6S8 301535Z AUTO 18005KT 40SM 24/14 A3000 RMK AO1 T02390144
TWIN BRIDGES|K7S1 301535Z AUTO 18006KT 40SM 22/13 A3015 RMK AO1 T02220128
MALTA       |KM75 301535Z AUTO 00000KT 2 1/2SM HZ 26/11 A2985 RMK AO1 T02610106
ROUNDUP     |KRPX 301535Z AUTO 22007KT 40SM 26/13 A2990 RMK AO1 T02610133






000
SXUS55 KMSO 301523
OSOMSO
MONTANA AWOS SUMMARY
NATIONAL WEATHER SERVICE MISSOULA MT
923 AM MDT TUE JUN 30 2015

Montana AWOS Reports

LAUREL      |K6S8 301515Z AUTO 00000KT 40SM 22/14 A3001 RMK AO1 T02170139
TWIN BRIDGES|K7S1 301515Z AUTO 15005KT 40SM 22/13 A3015 RMK AO1 T02170133
ROUNDUP     |KRPX 301515Z AUTO 22006KT 40SM 24/14 A2991 RMK AO1 T02440139






000
SXUS55 KMSO 301503
OSOMSO
MONTANA AWOS SUMMARY
NATIONAL WEATHER SERVICE MISSOULA MT
903 AM MDT TUE JUN 30 2015

Montana AWOS Reports

TWIN BRIDGES|K7S1 301455Z AUTO 13007KT 40SM 21/13 A3014 RMK AO1 T02110133
MALTA       |KM75 301455Z AUTO 00000KT 2 1/2SM HZ 24/10 A2986 RMK AO1 T02440100
SCOBEY      |K9S2 301455Z AUTO 08004KT 3SM HZ 21/12 A2994 RMK AO1 T02110122
EKALAKA     |K97M 301455Z AUTO 00000KT 25SM 23/14 A2993 RMK AO1 T02330139
PLAINS      |KS34 301455Z AUTO 00000KT 4SM HZ 23/16 A3004 RMK AO1 T02280156
LAUREL      |K6S8 301455Z AUTO 18005KT 40SM 21/13 A3001 RMK AO1 T02110133
ROUNDUP     |KRPX 301455Z AUTO 22005KT 40SM 24/14 A2990 RMK AO1 T02390139






000
SXUS55 KMSO 301443
OSOMSO
MONTANA AWOS SUMMARY
NATIONAL WEATHER SERVICE MISSOULA MT
843 AM MDT TUE JUN 30 2015

Montana AWOS Reports

LAUREL      |K6S8 301435Z AUTO 00000KT 40SM 21/13 A3000 RMK AO1 T02060133
TWIN BRIDGES|K7S1 301435Z AUTO 09007KT 40SM 20/13 A3015 RMK AO1 T02000133
ROUNDUP     |KRPX 301435Z AUTO 00000KT 40SM 22/14 A2990 RMK AO1 T02220144






000
SXUS55 KMSO 301433
OSOMSO
MONTANA AWOS SUMMARY
NATIONAL WEATHER SERVICE MISSOULA MT
832 AM MDT TUE JUN 30 2015

Montana AWOS Reports

ROUNDUP     |KRPX 301415Z AUTO 00000KT 40SM 22/14 A2990 RMK AO1 T02170144






000
SXUS55 KMSO 301433
OSOMSO
MONTANA AWOS SUMMARY
NATIONAL WEATHER SERVICE MISSOULA MT
832 AM MDT TUE JUN 30 2015

Montana AWOS Reports

ROUNDUP     |KRPX 301415Z AUTO 00000KT 40SM 22/14 A2990 RMK AO1 T02170144






000
SXUS55 KMSO 301423
OSOMSO
MONTANA AWOS SUMMARY
NATIONAL WEATHER SERVICE MISSOULA MT
822 AM MDT TUE JUN 30 2015

Montana AWOS Reports

MALTA       |KM75 301415Z AUTO 00000KT 2 1/2SM HZ 23/10 A2986 RMK AO1 T02280100
LAUREL      |K6S8 301415Z AUTO 00000KT 25SM 21/13 A3001 RMK AO1 T02060128
TWIN BRIDGES|K7S1 301415Z AUTO 10006KT 40SM 19/14 A3016 RMK AO1 T01890139






000
SXUS55 KMSO 301423
OSOMSO
MONTANA AWOS SUMMARY
NATIONAL WEATHER SERVICE MISSOULA MT
822 AM MDT TUE JUN 30 2015

Montana AWOS Reports

MALTA       |KM75 301415Z AUTO 00000KT 2 1/2SM HZ 23/10 A2986 RMK AO1 T02280100
LAUREL      |K6S8 301415Z AUTO 00000KT 25SM 21/13 A3001 RMK AO1 T02060128
TWIN BRIDGES|K7S1 301415Z AUTO 10006KT 40SM 19/14 A3016 RMK AO1 T01890139






000
SXUS55 KMSO 301413
OSOMSO
MONTANA AWOS SUMMARY
NATIONAL WEATHER SERVICE MISSOULA MT
813 AM MDT TUE JUN 30 2015

Montana AWOS Reports

PLAINS      |KS34 301355Z AUTO 00000KT 3 1/2SM HZ 19/14 A3004 RMK AO1 T01940144
SCOBEY      |K9S2 301355Z AUTO 07007KT 2SM HZ 21/12 A2994 RMK AO1 T02060117
EKALAKA     |K97M 301355Z AUTO 00000KT 40SM 22/14 A2993 RMK AO1 T02220139






000
SXUS55 KMSO 301403
OSOMSO
MONTANA AWOS SUMMARY
NATIONAL WEATHER SERVICE MISSOULA MT
802 AM MDT TUE JUN 30 2015

Montana AWOS Reports

MALTA       |KM75 301355Z AUTO 00000KT 2 1/2SM HZ 22/09 A2987 RMK AO1 T02220089
LAUREL      |K6S8 301355Z AUTO 19007KT 40SM 21/14 A3001 RMK AO1 T02110139
TWIN BRIDGES|K7S1 301355Z AUTO 13004KT 25SM 18/14 A3016 RMK AO1 T01830139
ROUNDUP     |KRPX 301355Z AUTO 00000KT 40SM 22/14 A2991 RMK AO1 T02170144






000
SXUS55 KMSO 301343
OSOMSO
MONTANA AWOS SUMMARY
NATIONAL WEATHER SERVICE MISSOULA MT
743 AM MDT TUE JUN 30 2015

Montana AWOS Reports

TWIN BRIDGES|K7S1 301335Z AUTO 14004KT 40SM 17/13 A3015 RMK AO1 T01720133
MALTA       |KM75 301335Z AUTO 00000KT 2 1/2SM HZ 21/09 A2988 RMK AO1 T02110089
LAUREL      |K6S8 301335Z AUTO 18004KT 40SM 22/13 A3001 RMK AO1 T02170128
ROUNDUP     |KRPX 301335Z AUTO 21005KT 40SM 21/15 A2991 RMK AO1 T02110150






000
SXUS55 KMSO 301323
OSOMSO
MONTANA AWOS SUMMARY
NATIONAL WEATHER SERVICE MISSOULA MT
723 AM MDT TUE JUN 30 2015

Montana AWOS Reports

MALTA       |KM75 301315Z AUTO 00000KT 2 1/2SM HZ 21/09 A2988 RMK AO1 T02060089
LAUREL      |K6S8 301315Z AUTO 20007KT 40SM 22/13 A3002 RMK AO1 T02220128
TWIN BRIDGES|K7S1 301315Z AUTO 12006KT 40SM 16/13 A3015 RMK AO1 T01610128
ROUNDUP     |KRPX 301315Z AUTO 22007KT 40SM 21/14 A2992 RMK AO1 T02060144






000
SXUS55 KMSO 301313
OSOMSO
MONTANA AWOS SUMMARY
NATIONAL WEATHER SERVICE MISSOULA MT
713 AM MDT TUE JUN 30 2015

Montana AWOS Reports

SCOBEY      |K9S2 301255Z AUTO 06006KT 1 3/4SM HZ 17/10 A2995 RMK AO1 T01720100
EKALAKA     |K97M 301255Z AUTO 13008KT 40SM 21/13 A2993 RMK AO1 T02110133






000
SXUS55 KMSO 301313
OSOMSO
MONTANA AWOS SUMMARY
NATIONAL WEATHER SERVICE MISSOULA MT
713 AM MDT TUE JUN 30 2015

Montana AWOS Reports

SCOBEY      |K9S2 301255Z AUTO 06006KT 1 3/4SM HZ 17/10 A2995 RMK AO1 T01720100
EKALAKA     |K97M 301255Z AUTO 13008KT 40SM 21/13 A2993 RMK AO1 T02110133






000
SXUS55 KMSO 301303
OSOMSO
MONTANA AWOS SUMMARY
NATIONAL WEATHER SERVICE MISSOULA MT
703 AM MDT TUE JUN 30 2015

Montana AWOS Reports

TWIN BRIDGES|K7S1 301255Z AUTO 07007KT 25SM 16/12 A3014 RMK AO1 T01560122
MALTA       |KM75 301255Z AUTO 00000KT 2 1/2SM HZ 19/09 A2988 RMK AO1 T01940094
LAUREL      |K6S8 301255Z AUTO 21004KT 40SM 21/12 A3002 RMK AO1 T02110122
ROUNDUP     |KRPX 301255Z AUTO 21011G16KT 40SM 20/14 A2991 RMK AO1 T02000144
PLAINS      |KS34 301255Z AUTO 00000KT 3SM HZ 17/13 A3003 RMK AO1 T01670128






000
SXUS55 KMSO 301303
OSOMSO
MONTANA AWOS SUMMARY
NATIONAL WEATHER SERVICE MISSOULA MT
703 AM MDT TUE JUN 30 2015

Montana AWOS Reports

TWIN BRIDGES|K7S1 301255Z AUTO 07007KT 25SM 16/12 A3014 RMK AO1 T01560122
MALTA       |KM75 301255Z AUTO 00000KT 2 1/2SM HZ 19/09 A2988 RMK AO1 T01940094
LAUREL      |K6S8 301255Z AUTO 21004KT 40SM 21/12 A3002 RMK AO1 T02110122
ROUNDUP     |KRPX 301255Z AUTO 21011G16KT 40SM 20/14 A2991 RMK AO1 T02000144
PLAINS      |KS34 301255Z AUTO 00000KT 3SM HZ 17/13 A3003 RMK AO1 T01670128






000
SXUS55 KMSO 301244
OSOMSO
MONTANA AWOS SUMMARY
NATIONAL WEATHER SERVICE MISSOULA MT
643 AM MDT TUE JUN 30 2015

Montana AWOS Reports

LAUREL      |K6S8 301235Z AUTO 00000KT 40SM 19/13 A3002 RMK AO1 T01890128
TWIN BRIDGES|K7S1 301235Z AUTO 12007KT 25SM 15/12 A3015 RMK AO1 T01500122
ROUNDUP     |KRPX 301235Z AUTO 19007KT 40SM 20/14 A2991 RMK AO1 T02000139






000
SXUS55 KMSO 301223
OSOMSO
MONTANA AWOS SUMMARY
NATIONAL WEATHER SERVICE MISSOULA MT
623 AM MDT TUE JUN 30 2015

Montana AWOS Reports

LAUREL      |K6S8 301215Z AUTO 00000KT 40SM 17/12 A3001 RMK AO1 T01720122
TWIN BRIDGES|K7S1 301215Z AUTO 12006KT 25SM 15/12 A3014 RMK AO1 T01500117
ROUNDUP     |KRPX 301215Z AUTO 19006KT 40SM 19/14 A2990 RMK AO1 T01940139






000
SXUS55 KMSO 301203
OSOMSO
MONTANA AWOS SUMMARY
NATIONAL WEATHER SERVICE MISSOULA MT
603 AM MDT TUE JUN 30 2015

Montana AWOS Reports

LAUREL      |K6S8 301155Z AUTO 00000KT 40SM 17/12 A3000 RMK AO1 T01670117
TWIN BRIDGES|K7S1 301155Z AUTO 00000KT 25SM 15/12 A3014 RMK AO1 T01500122
EKALAKA     |K97M 301155Z AUTO 13004KT 40SM 22/11 A2994 RMK AO1 T02220111
ROUNDUP     |KRPX 301155Z AUTO 19005KT 40SM 19/13 A2991 RMK AO1 T01940133






000
SXUS55 KMSO 301203
OSOMSO
MONTANA AWOS SUMMARY
NATIONAL WEATHER SERVICE MISSOULA MT
603 AM MDT TUE JUN 30 2015

Montana AWOS Reports

LAUREL      |K6S8 301155Z AUTO 00000KT 40SM 17/12 A3000 RMK AO1 T01670117
TWIN BRIDGES|K7S1 301155Z AUTO 00000KT 25SM 15/12 A3014 RMK AO1 T01500122
EKALAKA     |K97M 301155Z AUTO 13004KT 40SM 22/11 A2994 RMK AO1 T02220111
ROUNDUP     |KRPX 301155Z AUTO 19005KT 40SM 19/13 A2991 RMK AO1 T01940133






000
SXUS55 KMSO 301143
OSOMSO
MONTANA AWOS SUMMARY
NATIONAL WEATHER SERVICE MISSOULA MT
543 AM MDT TUE JUN 30 2015

Montana AWOS Reports

LAUREL      |K6S8 301135Z AUTO 00000KT 40SM 17/12 A3000 RMK AO1 T01720122
TWIN BRIDGES|K7S1 301135Z AUTO 00000KT 25SM 14/12 A3014 RMK AO1 T01440122
MALTA       |KM75 301135Z AUTO 00000KT 2 1/2SM HZ 18/07 A2989 RMK AO1 T01780072
ROUNDUP     |KRPX 301135Z AUTO 21005KT 40SM 19/14 A2991 RMK AO1 T01940139






000
SXUS55 KMSO 301123
OSOMSO
MONTANA AWOS SUMMARY
NATIONAL WEATHER SERVICE MISSOULA MT
522 AM MDT TUE JUN 30 2015

Montana AWOS Reports

TWIN BRIDGES|K7S1 301115Z AUTO 00000KT 25SM 15/12 A3014 RMK AO1 T01500122
MALTA       |KM75 301115Z AUTO 00000KT 3SM HZ 18/07 A2989 RMK AO1 T01830072
LAUREL      |K6S8 301115Z AUTO 00000KT 40SM 17/12 A3000 RMK AO1 T01720122
ROUNDUP     |KRPX 301115Z AUTO 00000KT 40SM 19/13 A2990 RMK AO1 T01890133






000
SXUS55 KMSO 301123
OSOMSO
MONTANA AWOS SUMMARY
NATIONAL WEATHER SERVICE MISSOULA MT
522 AM MDT TUE JUN 30 2015

Montana AWOS Reports

TWIN BRIDGES|K7S1 301115Z AUTO 00000KT 25SM 15/12 A3014 RMK AO1 T01500122
MALTA       |KM75 301115Z AUTO 00000KT 3SM HZ 18/07 A2989 RMK AO1 T01830072
LAUREL      |K6S8 301115Z AUTO 00000KT 40SM 17/12 A3000 RMK AO1 T01720122
ROUNDUP     |KRPX 301115Z AUTO 00000KT 40SM 19/13 A2990 RMK AO1 T01890133






000
SXUS55 KMSO 301103
OSOMSO
MONTANA AWOS SUMMARY
NATIONAL WEATHER SERVICE MISSOULA MT
503 AM MDT TUE JUN 30 2015

Montana AWOS Reports

LAUREL      |K6S8 301055Z AUTO 00000KT 40SM 17/12 A3000 RMK AO1 T01670117
TWIN BRIDGES|K7S1 301055Z AUTO 00000KT 25SM 15/12 A3013 RMK AO1 T01500117
MALTA       |KM75 301055Z AUTO 00000KT 3SM HZ 19/07 A2989 RMK AO1 T01890072
SCOBEY      |K9S2 301055Z AUTO 05004KT 2SM HZ 16/10 A2995 RMK AO1 T01560100
EKALAKA     |K97M 301055Z AUTO 00000KT 40SM 21/14 A2996 RMK AO1 T02110139
PLAINS      |KS34 301055Z AUTO 00000KT 4SM HZ 17/12 A3002 RMK AO1 T01670122
ROUNDUP     |KRPX 301055Z AUTO 00000KT 40SM 19/13 A2991 RMK AO1 T01940133






000
SXUS55 KMSO 301103
OSOMSO
MONTANA AWOS SUMMARY
NATIONAL WEATHER SERVICE MISSOULA MT
503 AM MDT TUE JUN 30 2015

Montana AWOS Reports

LAUREL      |K6S8 301055Z AUTO 00000KT 40SM 17/12 A3000 RMK AO1 T01670117
TWIN BRIDGES|K7S1 301055Z AUTO 00000KT 25SM 15/12 A3013 RMK AO1 T01500117
MALTA       |KM75 301055Z AUTO 00000KT 3SM HZ 19/07 A2989 RMK AO1 T01890072
SCOBEY      |K9S2 301055Z AUTO 05004KT 2SM HZ 16/10 A2995 RMK AO1 T01560100
EKALAKA     |K97M 301055Z AUTO 00000KT 40SM 21/14 A2996 RMK AO1 T02110139
PLAINS      |KS34 301055Z AUTO 00000KT 4SM HZ 17/12 A3002 RMK AO1 T01670122
ROUNDUP     |KRPX 301055Z AUTO 00000KT 40SM 19/13 A2991 RMK AO1 T01940133






000
SXUS55 KMSO 301043
OSOMSO
MONTANA AWOS SUMMARY
NATIONAL WEATHER SERVICE MISSOULA MT
443 AM MDT TUE JUN 30 2015

Montana AWOS Reports

MALTA       |KM75 301035Z AUTO 00000KT 3SM HZ 19/07 A2989 RMK AO1 T01940072
LAUREL      |K6S8 301035Z AUTO 00000KT 25SM 18/12 A3000 RMK AO1 T01780122
TWIN BRIDGES|K7S1 301035Z AUTO 00000KT 25SM 16/12 A3014 RMK AO1 T01560122
ROUNDUP     |KRPX 301035Z AUTO 20004KT 40SM 20/14 A2990 RMK AO1 T02000139






000
SXUS55 KMSO 301033
OSOMSO
MONTANA AWOS SUMMARY
NATIONAL WEATHER SERVICE MISSOULA MT
433 AM MDT TUE JUN 30 2015

Montana AWOS Reports

ROUNDUP     |KRPX 301015Z AUTO 20006KT 40SM 21/14 A2991 RMK AO1 T02060139






000
SXUS55 KMSO 301023
OSOMSO
MONTANA AWOS SUMMARY
NATIONAL WEATHER SERVICE MISSOULA MT
423 AM MDT TUE JUN 30 2015

Montana AWOS Reports

MALTA       |KM75 301015Z AUTO 00000KT 3SM HZ 20/07 A2990 RMK AO1 T02000072
LAUREL      |K6S8 301015Z AUTO 00000KT 40SM 18/13 A3000 RMK AO1 T01830128
TWIN BRIDGES|K7S1 301015Z AUTO 26008KT 25SM 18/13 A3013 RMK AO1 T01830133






000
SXUS55 KMSO 301003
OSOMSO
MONTANA AWOS SUMMARY
NATIONAL WEATHER SERVICE MISSOULA MT
403 AM MDT TUE JUN 30 2015

Montana AWOS Reports

LAUREL      |K6S8 300955Z AUTO 00000KT 40SM 19/13 A3000 RMK AO1 T01940128
TWIN BRIDGES|K7S1 300955Z AUTO 03005KT 25SM 18/13 A3015 RMK AO1 T01780128
SCOBEY      |K9S2 300955Z AUTO 00000KT 2SM HZ 17/10 A2996 RMK AO1 T01670100
EKALAKA     |K97M 300955Z AUTO 00000KT 40SM 19/12 A2997 RMK AO1 T01890122
PLAINS      |KS34 300955Z AUTO 00000KT 4SM HZ 17/13 A3001 RMK AO1 T01720128
ROUNDUP     |KRPX 300955Z AUTO 00000KT 40SM 21/14 A2992 RMK AO1 T02110139






000
SXUS55 KMSO 300943
OSOMSO
MONTANA AWOS SUMMARY
NATIONAL WEATHER SERVICE MISSOULA MT
343 AM MDT TUE JUN 30 2015

Montana AWOS Reports

LAUREL      |K6S8 300935Z AUTO 00000KT 40SM 19/13 A3000 RMK AO1 T01940128
TWIN BRIDGES|K7S1 300935Z AUTO 00000KT 25SM 16/12 A3015 RMK AO1 T01610117
MALTA       |KM75 300935Z AUTO 00000KT 3SM HZ 21/07 A2990 RMK AO1 T02060072
ROUNDUP     |KRPX 300935Z AUTO 20008KT 40SM 22/13 A2992 RMK AO1 T02170133






000
SXUS55 KMSO 300933
OSOMSO
MONTANA AWOS SUMMARY
NATIONAL WEATHER SERVICE MISSOULA MT
332 AM MDT TUE JUN 30 2015

Montana AWOS Reports

LAUREL      |K6S8 300915Z AUTO 00000KT 40SM 19/13 A3000 RMK AO1 T01940133
ROUNDUP     |KRPX 300915Z AUTO 00000KT 40SM 22/13 A2992 RMK AO1 T02170128






000
SXUS55 KMSO 300923
OSOMSO
MONTANA AWOS SUMMARY
NATIONAL WEATHER SERVICE MISSOULA MT
322 AM MDT TUE JUN 30 2015

Montana AWOS Reports

TWIN BRIDGES|K7S1 300915Z AUTO 28004KT 40SM 17/12 A3013 RMK AO1 T01720122
MALTA       |KM75 300915Z AUTO 00000KT 3SM HZ 21/07 A2991 RMK AO1 T02110067






000
SXUS55 KMSO 300903
OSOMSO
MONTANA AWOS SUMMARY
NATIONAL WEATHER SERVICE MISSOULA MT
302 AM MDT TUE JUN 30 2015

Montana AWOS Reports

TWIN BRIDGES|K7S1 300855Z AUTO 00000KT 40SM 16/12 A3013 RMK AO1 T01610117
MALTA       |KM75 300855Z AUTO 00000KT 3SM HZ 21/07 A2991 RMK AO1 T02060067
SCOBEY      |K9S2 300855Z AUTO 00000KT 2 1/2SM HZ 18/08 A2997 RMK AO1 T01830078
PLAINS      |KS34 300855Z AUTO 00000KT 4SM HZ 18/13 A3000 RMK AO1 T01830133
LAUREL      |K6S8 300855Z AUTO 00000KT 40SM 19/13 A3000 RMK AO1 T01890128
ROUNDUP     |KRPX 300855Z AUTO 00000KT 40SM 22/13 A2991 RMK AO1 T02170128
EKALAKA     |K97M 300855Z AUTO 00000KT 40SM 19/13 A2998 RMK AO1 T01940128






000
SXUS55 KMSO 300843
OSOMSO
MONTANA AWOS SUMMARY
NATIONAL WEATHER SERVICE MISSOULA MT
243 AM MDT TUE JUN 30 2015

Montana AWOS Reports

LAUREL      |K6S8 300835Z AUTO 00000KT 40SM 19/13 A3001 RMK AO1 T01940133
TWIN BRIDGES|K7S1 300835Z AUTO 00000KT 40SM 16/11 A3012 RMK AO1 T01560111
ROUNDUP     |KRPX 300835Z AUTO 00000KT 40SM 22/13 A2991 RMK AO1 T02170128






000
SXUS55 KMSO 300833
OSOMSO
MONTANA AWOS SUMMARY
NATIONAL WEATHER SERVICE MISSOULA MT
233 AM MDT TUE JUN 30 2015

Montana AWOS Reports

ROUNDUP     |KRPX 300815Z AUTO 00000KT 40SM 22/13 A2991 RMK AO1 T02220128






000
SXUS55 KMSO 300833
OSOMSO
MONTANA AWOS SUMMARY
NATIONAL WEATHER SERVICE MISSOULA MT
233 AM MDT TUE JUN 30 2015

Montana AWOS Reports

ROUNDUP     |KRPX 300815Z AUTO 00000KT 40SM 22/13 A2991 RMK AO1 T02220128






000
SXUS55 KMSO 300823
OSOMSO
MONTANA AWOS SUMMARY
NATIONAL WEATHER SERVICE MISSOULA MT
223 AM MDT TUE JUN 30 2015

Montana AWOS Reports

MALTA       |KM75 300815Z AUTO 00000KT 2 1/2SM HZ 22/07 A2993 RMK AO1 T02170072
LAUREL      |K6S8 300815Z AUTO 00000KT 40SM 21/14 A3002 RMK AO1 T02110139
TWIN BRIDGES|K7S1 300815Z AUTO 09004KT 40SM 16/11 A3012 RMK AO1 T01560111






000
SXUS55 KMSO 300813
OSOMSO
MONTANA AWOS SUMMARY
NATIONAL WEATHER SERVICE MISSOULA MT
213 AM MDT TUE JUN 30 2015

Montana AWOS Reports

EKALAKA     |K97M 300755Z AUTO 14004KT 40SM 24/11 A2998 RMK AO1 T02390111
PLAINS      |KS34 300755Z AUTO 00000KT 4SM HZ 20/13 A2999 RMK AO1 T02000133






000
SXUS55 KMSO 300803
OSOMSO
MONTANA AWOS SUMMARY
NATIONAL WEATHER SERVICE MISSOULA MT
203 AM MDT TUE JUN 30 2015

Montana AWOS Reports

MALTA       |KM75 300755Z AUTO 00000KT 2 1/2SM HZ 22/06 A2994 RMK AO1 T02170061
LAUREL      |K6S8 300755Z AUTO 00000KT 40SM 21/13 A3003 RMK AO1 T02110128
TWIN BRIDGES|K7S1 300755Z AUTO 00000KT 40SM 17/12 A3011 RMK AO1 T01670117
ROUNDUP     |KRPX 300755Z AUTO 00000KT 40SM 23/13 A2993 RMK AO1 T02330128
SCOBEY      |K9S2 300755Z AUTO 00000KT 2 1/2SM HZ 19/07 A2999 RMK AO1 T01940072






000
SXUS55 KMSO 300743
OSOMSO
MONTANA AWOS SUMMARY
NATIONAL WEATHER SERVICE MISSOULA MT
143 AM MDT TUE JUN 30 2015

Montana AWOS Reports

MALTA       |KM75 300735Z AUTO 00000KT 2 1/2SM HZ 22/07 A2993 RMK AO1 T02170067
LAUREL      |K6S8 300735Z AUTO 00000KT 40SM 21/13 A3004 RMK AO1 T02110133
TWIN BRIDGES|K7S1 300735Z AUTO 00000KT 40SM 17/11 A3011 RMK AO1 T01720111
ROUNDUP     |KRPX 300735Z AUTO 00000KT 40SM 23/13 A2994 RMK AO1 T02280128






000
SXUS55 KMSO 300733
OSOMSO
MONTANA AWOS SUMMARY
NATIONAL WEATHER SERVICE MISSOULA MT
133 AM MDT TUE JUN 30 2015

Montana AWOS Reports

ROUNDUP     |KRPX 300715Z AUTO 00000KT 40SM 24/13 A2995 RMK AO1 T02390128






000
SXUS55 KMSO 300723
OSOMSO
MONTANA AWOS SUMMARY
NATIONAL WEATHER SERVICE MISSOULA MT
123 AM MDT TUE JUN 30 2015

Montana AWOS Reports

MALTA       |KM75 300715Z AUTO 00000KT 2 1/2SM HZ 22/07 A2996 RMK AO1 T02170072
LAUREL      |K6S8 300715Z AUTO 00000KT 40SM 21/13 A3003 RMK AO1 T02110133
TWIN BRIDGES|K7S1 300715Z AUTO VRB04KT 40SM 17/11 A3011 RMK AO1 T01670111






000
SXUS55 KMSO 300723
OSOMSO
MONTANA AWOS SUMMARY
NATIONAL WEATHER SERVICE MISSOULA MT
123 AM MDT TUE JUN 30 2015

Montana AWOS Reports

MALTA       |KM75 300715Z AUTO 00000KT 2 1/2SM HZ 22/07 A2996 RMK AO1 T02170072
LAUREL      |K6S8 300715Z AUTO 00000KT 40SM 21/13 A3003 RMK AO1 T02110133
TWIN BRIDGES|K7S1 300715Z AUTO VRB04KT 40SM 17/11 A3011 RMK AO1 T01670111






000
SXUS55 KMSO 300714
OSOMSO
MONTANA AWOS SUMMARY
NATIONAL WEATHER SERVICE MISSOULA MT
113 AM MDT TUE JUN 30 2015

Montana AWOS Reports

PLAINS      |KS34 300655Z AUTO 00000KT 5SM HZ 22/13 A2999 RMK AO1 T02220133
EKALAKA     |K97M 300655Z AUTO 12005KT 40SM 23/10 A2999 RMK AO1 T02280100






000
SXUS55 KMSO 300703
OSOMSO
MONTANA AWOS SUMMARY
NATIONAL WEATHER SERVICE MISSOULA MT
103 AM MDT TUE JUN 30 2015

Montana AWOS Reports

LAUREL      |K6S8 300655Z AUTO 00000KT 40SM 21/13 A3004 RMK AO1 T02060128
ROUNDUP     |KRPX 300655Z AUTO 00000KT 40SM 23/12 A2995 RMK AO1 T02330122
MALTA       |KM75 300655Z AUTO 00000KT 3SM HZ 22/08 A2995 RMK AO1 T02220078
SCOBEY      |K9S2 300655Z AUTO 00000KT 2SM HZ 19/07 A2999 RMK AO1 T01890072
TWIN BRIDGES|K7S1 300655Z AUTO 00000KT 40SM 18/12 A3011 RMK AO1 T01830122






000
SXUS55 KMSO 300644
OSOMSO
MONTANA AWOS SUMMARY
NATIONAL WEATHER SERVICE MISSOULA MT
1243 AM MDT TUE JUN 30 2015

Montana AWOS Reports

LAUREL      |K6S8 300635Z AUTO 00000KT 40SM 21/13 A3004 RMK AO1 T02060128
TWIN BRIDGES|K7S1 300635Z AUTO 00000KT 40SM 19/11 A3012 RMK AO1 T01890111
ROUNDUP     |KRPX 300635Z AUTO 00000KT 40SM 23/12 A2994 RMK AO1 T02330122
MALTA       |KM75 300635Z AUTO 00000KT 3SM HZ 22/08 A2995 RMK AO1 T02220078






000
SXUS55 KMSO 300644
OSOMSO
MONTANA AWOS SUMMARY
NATIONAL WEATHER SERVICE MISSOULA MT
1243 AM MDT TUE JUN 30 2015

Montana AWOS Reports

LAUREL      |K6S8 300635Z AUTO 00000KT 40SM 21/13 A3004 RMK AO1 T02060128
TWIN BRIDGES|K7S1 300635Z AUTO 00000KT 40SM 19/11 A3012 RMK AO1 T01890111
ROUNDUP     |KRPX 300635Z AUTO 00000KT 40SM 23/12 A2994 RMK AO1 T02330122
MALTA       |KM75 300635Z AUTO 00000KT 3SM HZ 22/08 A2995 RMK AO1 T02220078






000
SXUS55 KMSO 300623
OSOMSO
MONTANA AWOS SUMMARY
NATIONAL WEATHER SERVICE MISSOULA MT
1222 AM MDT TUE JUN 30 2015

Montana AWOS Reports

LAUREL      |K6S8 300615Z AUTO 00000KT 40SM 21/13 A3006 RMK AO1 T02110133
ROUNDUP     |KRPX 300615Z AUTO 00000KT 40SM 23/12 A2993 RMK AO1 T02330122
TWIN BRIDGES|K7S1 300615Z AUTO 00000KT 40SM 21/12 A3012 RMK AO1 T02060117
MALTA       |KM75 300615Z AUTO 00000KT 3SM HZ 22/08 A2996 RMK AO1 T02220083






000
SXUS55 KMSO 300623
OSOMSO
MONTANA AWOS SUMMARY
NATIONAL WEATHER SERVICE MISSOULA MT
1222 AM MDT TUE JUN 30 2015

Montana AWOS Reports

LAUREL      |K6S8 300615Z AUTO 00000KT 40SM 21/13 A3006 RMK AO1 T02110133
ROUNDUP     |KRPX 300615Z AUTO 00000KT 40SM 23/12 A2993 RMK AO1 T02330122
TWIN BRIDGES|K7S1 300615Z AUTO 00000KT 40SM 21/12 A3012 RMK AO1 T02060117
MALTA       |KM75 300615Z AUTO 00000KT 3SM HZ 22/08 A2996 RMK AO1 T02220083






000
SXUS55 KMSO 300613
OSOMSO
MONTANA AWOS SUMMARY
NATIONAL WEATHER SERVICE MISSOULA MT
1213 AM MDT TUE JUN 30 2015

Montana AWOS Reports

PLAINS      |KS34 300555Z AUTO 00000KT 4SM HZ 25/15 A2998 RMK AO1 T02500150
SCOBEY      |K9S2 300555Z AUTO 04005KT 2SM HZ 19/07 A3000 RMK AO1 T01940072
EKALAKA     |K97M 300555Z AUTO 00000KT 40SM 23/08 A3000 RMK AO1 T02280078






000
SXUS55 KMSO 300613
OSOMSO
MONTANA AWOS SUMMARY
NATIONAL WEATHER SERVICE MISSOULA MT
1213 AM MDT TUE JUN 30 2015

Montana AWOS Reports

PLAINS      |KS34 300555Z AUTO 00000KT 4SM HZ 25/15 A2998 RMK AO1 T02500150
SCOBEY      |K9S2 300555Z AUTO 04005KT 2SM HZ 19/07 A3000 RMK AO1 T01940072
EKALAKA     |K97M 300555Z AUTO 00000KT 40SM 23/08 A3000 RMK AO1 T02280078






000
SXUS55 KMSO 300604
OSOMSO
MONTANA AWOS SUMMARY
NATIONAL WEATHER SERVICE MISSOULA MT
1203 AM MDT TUE JUN 30 2015

Montana AWOS Reports

LAUREL      |K6S8 300555Z AUTO 00000KT 40SM 21/13 A3006 RMK AO1 T02110128
TWIN BRIDGES|K7S1 300555Z AUTO 07006KT 40SM 20/12 A3013 RMK AO1 T02000122
ROUNDUP     |KRPX 300555Z AUTO 28011KT 40SM 24/13 A2993 RMK AO1 T02440128






000
SXUS55 KMSO 300543
OSOMSO
MONTANA AWOS SUMMARY
NATIONAL WEATHER SERVICE MISSOULA MT
1143 PM MDT MON JUN 29 2015

Montana AWOS Reports

TWIN BRIDGES|K7S1 300535Z AUTO 06004KT 40SM 19/12 A3014 RMK AO1 T01940122
ROUNDUP     |KRPX 300535Z AUTO 30006KT 40SM 24/11 A2993 RMK AO1 T02440111
LAUREL      |K6S8 300535Z AUTO 00000KT 40SM 21/13 A3006 RMK AO1 T02110128






000
SXUS55 KMSO 300533
OSOMSO
MONTANA AWOS SUMMARY
NATIONAL WEATHER SERVICE MISSOULA MT
1133 PM MDT MON JUN 29 2015

Montana AWOS Reports

LAUREL      |K6S8 300515Z AUTO 21007KT 40SM 22/14 A3006 RMK AO1 T02220139






000
SXUS55 KMSO 300533
OSOMSO
MONTANA AWOS SUMMARY
NATIONAL WEATHER SERVICE MISSOULA MT
1133 PM MDT MON JUN 29 2015

Montana AWOS Reports

LAUREL      |K6S8 300515Z AUTO 21007KT 40SM 22/14 A3006 RMK AO1 T02220139






000
SXUS55 KMSO 300523
OSOMSO
MONTANA AWOS SUMMARY
NATIONAL WEATHER SERVICE MISSOULA MT
1123 PM MDT MON JUN 29 2015

Montana AWOS Reports

TWIN BRIDGES|K7S1 300515Z AUTO 13006KT 40SM 21/12 A3012 RMK AO1 T02060117
ROUNDUP     |KRPX 300515Z AUTO 00000KT 40SM 27/10 A2992 RMK AO1 T02670100
MALTA       |KM75 300515Z AUTO 00000KT 3SM HZ 23/07 A2995 RMK AO1 T02280072






000
SXUS55 KMSO 300523
OSOMSO
MONTANA AWOS SUMMARY
NATIONAL WEATHER SERVICE MISSOULA MT
1123 PM MDT MON JUN 29 2015

Montana AWOS Reports

TWIN BRIDGES|K7S1 300515Z AUTO 13006KT 40SM 21/12 A3012 RMK AO1 T02060117
ROUNDUP     |KRPX 300515Z AUTO 00000KT 40SM 27/10 A2992 RMK AO1 T02670100
MALTA       |KM75 300515Z AUTO 00000KT 3SM HZ 23/07 A2995 RMK AO1 T02280072






000
SXUS55 KMSO 300514
OSOMSO
MONTANA AWOS SUMMARY
NATIONAL WEATHER SERVICE MISSOULA MT
1113 PM MDT MON JUN 29 2015

Montana AWOS Reports

PLAINS      |KS34 300455Z AUTO 00000KT 3 1/2SM HZ 27/15 A2995 RMK AO1 T02670150
SCOBEY      |K9S2 300455Z AUTO 05008KT 2SM HZ 20/07 A3001 RMK AO1 T02000072
EKALAKA     |K97M 300455Z AUTO 00000KT 40SM 23/09 A3001 RMK AO1 T02330089






000
SXUS55 KMSO 300503
OSOMSO
MONTANA AWOS SUMMARY
NATIONAL WEATHER SERVICE MISSOULA MT
1103 PM MDT MON JUN 29 2015

Montana AWOS Reports

TWIN BRIDGES|K7S1 300455Z AUTO 00000KT 40SM 21/12 A3011 RMK AO1 T02060122
ROUNDUP     |KRPX 300455Z AUTO 00000KT 40SM 26/12 A2993 RMK AO1 T02610117
MALTA       |KM75 300455Z AUTO 00000KT 2 1/2SM HZ 23/09 A2995 RMK AO1 T02330089
LAUREL      |K6S8 300455Z AUTO 00000KT 40SM 22/13 A3004 RMK AO1 T02220128






000
SXUS55 KMSO 300443
OSOMSO
MONTANA AWOS SUMMARY
NATIONAL WEATHER SERVICE MISSOULA MT
1043 PM MDT MON JUN 29 2015

Montana AWOS Reports

MALTA       |KM75 300435Z AUTO 05004KT 2 1/2SM HZ 24/09 A2995 RMK AO1 T02390094
LAUREL      |K6S8 300435Z AUTO 00000KT 40SM 23/13 A3007 RMK AO1 T02280128
TWIN BRIDGES|K7S1 300435Z AUTO 07008KT 40SM 20/12 A3013 RMK AO1 T02000122
ROUNDUP     |KRPX 300435Z AUTO 13011G16KT 40SM 23/13 A2993 RMK AO1 T02330133






000
SXUS55 KMSO 300443
OSOMSO
MONTANA AWOS SUMMARY
NATIONAL WEATHER SERVICE MISSOULA MT
1043 PM MDT MON JUN 29 2015

Montana AWOS Reports

MALTA       |KM75 300435Z AUTO 05004KT 2 1/2SM HZ 24/09 A2995 RMK AO1 T02390094
LAUREL      |K6S8 300435Z AUTO 00000KT 40SM 23/13 A3007 RMK AO1 T02280128
TWIN BRIDGES|K7S1 300435Z AUTO 07008KT 40SM 20/12 A3013 RMK AO1 T02000122
ROUNDUP     |KRPX 300435Z AUTO 13011G16KT 40SM 23/13 A2993 RMK AO1 T02330133






000
SXUS55 KMSO 300423
OSOMSO
MONTANA AWOS SUMMARY
NATIONAL WEATHER SERVICE MISSOULA MT
1023 PM MDT MON JUN 29 2015

Montana AWOS Reports

TWIN BRIDGES|K7S1 300415Z AUTO 26007KT 40SM 20/13 A3015 RMK AO1 T02000128
ROUNDUP     |KRPX 300415Z AUTO 19010G17KT 40SM 24/13 A2998 RMK AO1 T02440128
MALTA       |KM75 300415Z AUTO 05007KT 2 1/2SM HZ 24/08 A2995 RMK AO1 T02440078
LAUREL      |K6S8 300415Z AUTO 00000KT 40SM 23/12 A3009 RMK AO1 T02330122






000
SXUS55 KMSO 300403
OSOMSO
MONTANA AWOS SUMMARY
NATIONAL WEATHER SERVICE MISSOULA MT
1003 PM MDT MON JUN 29 2015

Montana AWOS Reports

TWIN BRIDGES|K7S1 300355Z AUTO 06005KT 40SM 21/12 A3012 RMK AO1 T02110122
ROUNDUP     |KRPX 300355Z AUTO 25007KT 40SM 23/15 A3000 RMK AO1 T02330150
PLAINS      |KS34 300355Z AUTO 00000KT 4SM HZ 29/16 A2993 RMK AO1 T02940156
LAUREL      |K6S8 300355Z AUTO 29011G21KT 40SM 23/12 A3008 RMK AO1 T02280117
SCOBEY      |K9S2 300355Z AUTO 01006KT 2SM HZ 19/07 A3003 RMK AO1 T01940072
EKALAKA     |K97M 300355Z AUTO 00000KT 40SM 22/08 A3002 RMK AO1 T02220083






000
SXUS55 KMSO 300403
OSOMSO
MONTANA AWOS SUMMARY
NATIONAL WEATHER SERVICE MISSOULA MT
1003 PM MDT MON JUN 29 2015

Montana AWOS Reports

TWIN BRIDGES|K7S1 300355Z AUTO 06005KT 40SM 21/12 A3012 RMK AO1 T02110122
ROUNDUP     |KRPX 300355Z AUTO 25007KT 40SM 23/15 A3000 RMK AO1 T02330150
PLAINS      |KS34 300355Z AUTO 00000KT 4SM HZ 29/16 A2993 RMK AO1 T02940156
LAUREL      |K6S8 300355Z AUTO 29011G21KT 40SM 23/12 A3008 RMK AO1 T02280117
SCOBEY      |K9S2 300355Z AUTO 01006KT 2SM HZ 19/07 A3003 RMK AO1 T01940072
EKALAKA     |K97M 300355Z AUTO 00000KT 40SM 22/08 A3002 RMK AO1 T02220083






000
SXUS55 KMSO 300353
OSOMSO
MONTANA AWOS SUMMARY
NATIONAL WEATHER SERVICE MISSOULA MT
953 PM MDT MON JUN 29 2015

Montana AWOS Reports

LAUREL      |K6S8 300335Z AUTO 28019G25KT 40SM 23/12 A3008 RMK AO1 T02280122






000
SXUS55 KMSO 300343
OSOMSO
MONTANA AWOS SUMMARY
NATIONAL WEATHER SERVICE MISSOULA MT
942 PM MDT MON JUN 29 2015

Montana AWOS Reports

TWIN BRIDGES|K7S1 300335Z AUTO 09008KT 25SM 21/12 A3012 RMK AO1 T02110122
ROUNDUP     |KRPX 300335Z AUTO 26012G19KT 40SM 23/16 A3002 RMK AO1 T02330156
MALTA       |KM75 300335Z AUTO 04010G16KT 3SM HZ 26/09 A2994 RMK AO1 T02610089






000
SXUS55 KMSO 300323
OSOMSO
MONTANA AWOS SUMMARY
NATIONAL WEATHER SERVICE MISSOULA MT
923 PM MDT MON JUN 29 2015

Montana AWOS Reports

MALTA       |KM75 300315Z AUTO 04012G17KT 3SM HZ 27/09 A2992 RMK AO1 T02720094
LAUREL      |K6S8 300315Z AUTO 28023G31KT 40SM 24/13 A3007 RMK AO1 T02390133
TWIN BRIDGES|K7S1 300315Z AUTO 11007KT 40SM 23/12 A3013 RMK AO1 T02280122
ROUNDUP     |KRPX 300315Z AUTO 25017G29KT 40SM 23/15 A3001 RMK AO1 T02330150






000
SXUS55 KMSO 300313
OSOMSO
MONTANA AWOS SUMMARY
NATIONAL WEATHER SERVICE MISSOULA MT
913 PM MDT MON JUN 29 2015

Montana AWOS Reports

EKALAKA     |K97M 300255Z AUTO 00000KT 40SM 24/09 A3001 RMK AO1 T02390089
PLAINS      |KS34 300255Z AUTO 00000KT 3SM HZ 31/14 A2993 RMK AO1 T03110144






000
SXUS55 KMSO 300303
OSOMSO
MONTANA AWOS SUMMARY
NATIONAL WEATHER SERVICE MISSOULA MT
902 PM MDT MON JUN 29 2015

Montana AWOS Reports

MALTA       |KM75 300255Z AUTO 04010G18KT 3 1/2SM HZ 28/09 A2992 RMK AO1 T02780089






000
SXUS55 KMSO 300303
OSOMSO
MONTANA AWOS SUMMARY
NATIONAL WEATHER SERVICE MISSOULA MT
902 PM MDT MON JUN 29 2015

Montana AWOS Reports

MALTA       |KM75 300255Z AUTO 04010G18KT 3 1/2SM HZ 28/09 A2992 RMK AO1 T02780089






000
SXUS55 KMSO 300243
OSOMSO
MONTANA AWOS SUMMARY
NATIONAL WEATHER SERVICE MISSOULA MT
843 PM MDT MON JUN 29 2015

Montana AWOS Reports

TWIN BRIDGES|K7S1 300235Z AUTO 00000KT 40SM 22/12 A3014 RMK AO1 T02220117
ROUNDUP     |KRPX 300235Z AUTO 26037G47KT 25SM 31/16 A2997 RMK AO1 T03060161
MALTA       |KM75 300235Z AUTO 04012G20KT 10SM 29/11 A2993 RMK AO1 T02890111
LAUREL      |K6S8 300235Z AUTO 28021G34KT 25SM 25/13 A3008 RMK AO1 T02500128






000
SXUS55 KMSO 300243
OSOMSO
MONTANA AWOS SUMMARY
NATIONAL WEATHER SERVICE MISSOULA MT
843 PM MDT MON JUN 29 2015

Montana AWOS Reports

TWIN BRIDGES|K7S1 300235Z AUTO 00000KT 40SM 22/12 A3014 RMK AO1 T02220117
ROUNDUP     |KRPX 300235Z AUTO 26037G47KT 25SM 31/16 A2997 RMK AO1 T03060161
MALTA       |KM75 300235Z AUTO 04012G20KT 10SM 29/11 A2993 RMK AO1 T02890111
LAUREL      |K6S8 300235Z AUTO 28021G34KT 25SM 25/13 A3008 RMK AO1 T02500128






000
SXUS55 KMSO 300233
OSOMSO
MONTANA AWOS SUMMARY
NATIONAL WEATHER SERVICE MISSOULA MT
832 PM MDT MON JUN 29 2015

Montana AWOS Reports

LAUREL      |K6S8 300215Z AUTO 28032G46KT 10SM 28/14 A3005 RMK AO1 T02830144






000
SXUS55 KMSO 300223
OSOMSO
MONTANA AWOS SUMMARY
NATIONAL WEATHER SERVICE MISSOULA MT
822 PM MDT MON JUN 29 2015

Montana AWOS Reports

SCOBEY      |K9S2 300155Z AUTO 01008KT 1 1/4SM HZ 24/07 A3001 RMK AO1 T02390067
EKALAKA     |K97M 300155Z AUTO 00000KT 40SM 28/11 A3000 RMK AO1 T02780106
MALTA       |KM75 300215Z AUTO 04007KT 40SM 30/12 A2992 RMK AO1 T03000122
TWIN BRIDGES|K7S1 300215Z AUTO 10012G17KT 40SM 22/12 A3012 RMK AO1 T02220117
ROUNDUP     |KRPX 300215Z AUTO 00000KT 40SM 33/09 A2994 RMK AO1 T03280089






000
SXUS55 KMSO 300223
OSOMSO
MONTANA AWOS SUMMARY
NATIONAL WEATHER SERVICE MISSOULA MT
822 PM MDT MON JUN 29 2015

Montana AWOS Reports

SCOBEY      |K9S2 300155Z AUTO 01008KT 1 1/4SM HZ 24/07 A3001 RMK AO1 T02390067
EKALAKA     |K97M 300155Z AUTO 00000KT 40SM 28/11 A3000 RMK AO1 T02780106
MALTA       |KM75 300215Z AUTO 04007KT 40SM 30/12 A2992 RMK AO1 T03000122
TWIN BRIDGES|K7S1 300215Z AUTO 10012G17KT 40SM 22/12 A3012 RMK AO1 T02220117
ROUNDUP     |KRPX 300215Z AUTO 00000KT 40SM 33/09 A2994 RMK AO1 T03280089






000
SXUS55 KMSO 300203
OSOMSO
MONTANA AWOS SUMMARY
NATIONAL WEATHER SERVICE MISSOULA MT
803 PM MDT MON JUN 29 2015

Montana AWOS Reports

LAUREL      |K6S8 300155Z AUTO 00000KT 40SM 31/09 A3001 RMK AO1 T03060094
ROUNDUP     |KRPX 300155Z AUTO 00000KT 40SM 33/06 A2993 RMK AO1 T03280061
MALTA       |KM75 300155Z AUTO 04011G17KT 40SM 31/12 A2992 RMK AO1 T03110122
PLAINS      |KS34 300155Z AUTO 27007KT 3SM HZ 33/13 A2993 RMK AO1 T03280133
TWIN BRIDGES|K7S1 300155Z AUTO 10014G18KT 40SM 22/12 A3011 RMK AO1 T02220117






000
SXUS55 KMSO 300203
OSOMSO
MONTANA AWOS SUMMARY
NATIONAL WEATHER SERVICE MISSOULA MT
803 PM MDT MON JUN 29 2015

Montana AWOS Reports

LAUREL      |K6S8 300155Z AUTO 00000KT 40SM 31/09 A3001 RMK AO1 T03060094
ROUNDUP     |KRPX 300155Z AUTO 00000KT 40SM 33/06 A2993 RMK AO1 T03280061
MALTA       |KM75 300155Z AUTO 04011G17KT 40SM 31/12 A2992 RMK AO1 T03110122
PLAINS      |KS34 300155Z AUTO 27007KT 3SM HZ 33/13 A2993 RMK AO1 T03280133
TWIN BRIDGES|K7S1 300155Z AUTO 10014G18KT 40SM 22/12 A3011 RMK AO1 T02220117






000
SXUS55 KMSO 300153
OSOMSO
MONTANA AWOS SUMMARY
NATIONAL WEATHER SERVICE MISSOULA MT
753 PM MDT MON JUN 29 2015

Montana AWOS Reports

SCOBEY      |K9S2 300055Z AUTO 01012G18KT 1 1/4SM HZ 26/08 A3000 RMK AO1 T02610078
EKALAKA     |K97M 300055Z AUTO 00000KT 2SM HZ 29/11 A3000 RMK AO1 T02940111






000
SXUS55 KMSO 300144
OSOMSO
MONTANA AWOS SUMMARY
NATIONAL WEATHER SERVICE MISSOULA MT
743 PM MDT MON JUN 29 2015

Montana AWOS Reports

TWIN BRIDGES|K7S1 300135Z AUTO 10010G17KT 40SM 23/13 A3010 RMK AO1 T02330128
ROUNDUP     |KRPX 300135Z AUTO 00000KT 40SM 33/07 A2992 RMK AO1 T03280072
MALTA       |KM75 300135Z AUTO 04007KT 40SM 32/11 A2992 RMK AO1 T03170111
LAUREL      |K6S8 300135Z AUTO 00000KT 40SM 32/11 A3000 RMK AO1 T03170111






000
SXUS55 KMSO 300133
OSOMSO
MONTANA AWOS SUMMARY
NATIONAL WEATHER SERVICE MISSOULA MT
732 PM MDT MON JUN 29 2015

Montana AWOS Reports

LAUREL      |K6S8 300115Z AUTO 07004KT 40SM 32/11 A2999 RMK AO1 T03220111






000
SXUS55 KMSO 300123
OSOMSO
MONTANA AWOS SUMMARY
NATIONAL WEATHER SERVICE MISSOULA MT
722 PM MDT MON JUN 29 2015

Montana AWOS Reports

TWIN BRIDGES|K7S1 300115Z AUTO 11014G19KT 40SM 24/12 A3010 RMK AO1 T02390117
ROUNDUP     |KRPX 300115Z AUTO 00000KT 40SM 33/07 A2991 RMK AO1 T03330067
MALTA       |KM75 300115Z AUTO 04008KT 40SM 33/11 A2992 RMK AO1 T03280111






000
SXUS55 KMSO 300123
OSOMSO
MONTANA AWOS SUMMARY
NATIONAL WEATHER SERVICE MISSOULA MT
722 PM MDT MON JUN 29 2015

Montana AWOS Reports

TWIN BRIDGES|K7S1 300115Z AUTO 11014G19KT 40SM 24/12 A3010 RMK AO1 T02390117
ROUNDUP     |KRPX 300115Z AUTO 00000KT 40SM 33/07 A2991 RMK AO1 T03330067
MALTA       |KM75 300115Z AUTO 04008KT 40SM 33/11 A2992 RMK AO1 T03280111






000
SXUS55 KMSO 300103
OSOMSO
MONTANA AWOS SUMMARY
NATIONAL WEATHER SERVICE MISSOULA MT
702 PM MDT MON JUN 29 2015

Montana AWOS Reports

TWIN BRIDGES|K7S1 300055Z AUTO 10011G20KT 40SM 26/09 A3010 RMK AO1 T02610089
ROUNDUP     |KRPX 300055Z AUTO 00000KT 40SM 34/07 A2991 RMK AO1 T03440067
MALTA       |KM75 300055Z AUTO 03010G15KT 40SM 33/11 A2992 RMK AO1 T03280106
PLAINS      |KS34 300055Z AUTO 28010G17KT 3 1/2SM HZ 34/13 A2993 RMK AO1 T03440133
LAUREL      |K6S8 300055Z AUTO 00000KT 40SM 33/10 A2998 RMK AO1 T03280100






000
SXUS55 KMSO 300103
OSOMSO
MONTANA AWOS SUMMARY
NATIONAL WEATHER SERVICE MISSOULA MT
702 PM MDT MON JUN 29 2015

Montana AWOS Reports

TWIN BRIDGES|K7S1 300055Z AUTO 10011G20KT 40SM 26/09 A3010 RMK AO1 T02610089
ROUNDUP     |KRPX 300055Z AUTO 00000KT 40SM 34/07 A2991 RMK AO1 T03440067
MALTA       |KM75 300055Z AUTO 03010G15KT 40SM 33/11 A2992 RMK AO1 T03280106
PLAINS      |KS34 300055Z AUTO 28010G17KT 3 1/2SM HZ 34/13 A2993 RMK AO1 T03440133
LAUREL      |K6S8 300055Z AUTO 00000KT 40SM 33/10 A2998 RMK AO1 T03280100






000
SXUS55 KMSO 300043
OSOMSO
MONTANA AWOS SUMMARY
NATIONAL WEATHER SERVICE MISSOULA MT
643 PM MDT MON JUN 29 2015

Montana AWOS Reports

TWIN BRIDGES|K7S1 300035Z AUTO 09017G30KT 40SM 26/08 A3010 RMK AO1 T02610083
ROUNDUP     |KRPX 300035Z AUTO 12004KT 40SM 35/07 A2991 RMK AO1 T03500072
MALTA       |KM75 300035Z AUTO 05009KT 40SM 33/12 A2992 RMK AO1 T03330117
LAUREL      |K6S8 300035Z AUTO 00000KT 40SM 34/10 A2998 RMK AO1 T03390100






000
SXUS55 KMSO 300043
OSOMSO
MONTANA AWOS SUMMARY
NATIONAL WEATHER SERVICE MISSOULA MT
643 PM MDT MON JUN 29 2015

Montana AWOS Reports

TWIN BRIDGES|K7S1 300035Z AUTO 09017G30KT 40SM 26/08 A3010 RMK AO1 T02610083
ROUNDUP     |KRPX 300035Z AUTO 12004KT 40SM 35/07 A2991 RMK AO1 T03500072
MALTA       |KM75 300035Z AUTO 05009KT 40SM 33/12 A2992 RMK AO1 T03330117
LAUREL      |K6S8 300035Z AUTO 00000KT 40SM 34/10 A2998 RMK AO1 T03390100






000
SXUS55 KMSO 300024
OSOMSO
MONTANA AWOS SUMMARY
NATIONAL WEATHER SERVICE MISSOULA MT
623 PM MDT MON JUN 29 2015

Montana AWOS Reports

MALTA       |KM75 300015Z AUTO 00000KT 40SM 33/11 A2992 RMK AO1 T03330106
TWIN BRIDGES|K7S1 300015Z AUTO 09024G30KT 40SM 26/10 A3013 RMK AO1 T02560100
ROUNDUP     |KRPX 300015Z AUTO 12005KT 40SM 36/07 A2991 RMK AO1 T03560067
LAUREL      |K6S8 300015Z AUTO 09006KT 40SM 34/09 A2998 RMK AO1 T03440089






000
SXUS55 KMSO 300013
OSOMSO
MONTANA AWOS SUMMARY
NATIONAL WEATHER SERVICE MISSOULA MT
612 PM MDT MON JUN 29 2015

Montana AWOS Reports

LAUREL      |K6S8 292355Z AUTO 09004KT 40SM 35/09 A2999 RMK AO1 T03500089
SCOBEY      |K9S2 292355Z AUTO 36011G17KT 5SM HZ 29/11 A2999 RMK AO1 T02940111
PLAINS      |KS34 292355Z AUTO 00000KT 4SM HZ 34/13 A2995 RMK AO1 T03440128
EKALAKA     |K97M 292355Z AUTO 25005KT 40SM 32/11 A3000 RMK AO1 T03170111






000
SXUS55 KMSO 300004
OSOMSO
MONTANA AWOS SUMMARY
NATIONAL WEATHER SERVICE MISSOULA MT
603 PM MDT MON JUN 29 2015

Montana AWOS Reports

TWIN BRIDGES|K7S1 292355Z AUTO 08017G24KT 40SM 25/10 A3013 RMK AO1 T02500100
ROUNDUP     |KRPX 292355Z AUTO 00000KT 40SM 34/08 A2991 RMK AO1 T03440078
MALTA       |KM75 292355Z AUTO 00000KT 40SM 35/10 A2992 RMK AO1 T03500100






000
SXUS55 KMSO 300004
OSOMSO
MONTANA AWOS SUMMARY
NATIONAL WEATHER SERVICE MISSOULA MT
603 PM MDT MON JUN 29 2015

Montana AWOS Reports

TWIN BRIDGES|K7S1 292355Z AUTO 08017G24KT 40SM 25/10 A3013 RMK AO1 T02500100
ROUNDUP     |KRPX 292355Z AUTO 00000KT 40SM 34/08 A2991 RMK AO1 T03440078
MALTA       |KM75 292355Z AUTO 00000KT 40SM 35/10 A2992 RMK AO1 T03500100






000
SXUS55 KMSO 292343
OSOMSO
MONTANA AWOS SUMMARY
NATIONAL WEATHER SERVICE MISSOULA MT
542 PM MDT MON JUN 29 2015

Montana AWOS Reports

TWIN BRIDGES|K7S1 292335Z AUTO 08015G23KT 40SM 24/11 A3015 RMK AO1 T02440111
ROUNDUP     |KRPX 292335Z AUTO 00000KT 40SM 35/07 A2992 RMK AO1 T03500072
MALTA       |KM75 292335Z AUTO 05005KT 40SM 36/11 A2992 RMK AO1 T03610111
LAUREL      |K6S8 292335Z AUTO 07005KT 40SM 36/08 A3000 RMK AO1 T03560083






000
SXUS55 KMSO 292343
OSOMSO
MONTANA AWOS SUMMARY
NATIONAL WEATHER SERVICE MISSOULA MT
542 PM MDT MON JUN 29 2015

Montana AWOS Reports

TWIN BRIDGES|K7S1 292335Z AUTO 08015G23KT 40SM 24/11 A3015 RMK AO1 T02440111
ROUNDUP     |KRPX 292335Z AUTO 00000KT 40SM 35/07 A2992 RMK AO1 T03500072
MALTA       |KM75 292335Z AUTO 05005KT 40SM 36/11 A2992 RMK AO1 T03610111
LAUREL      |K6S8 292335Z AUTO 07005KT 40SM 36/08 A3000 RMK AO1 T03560083






000
SXUS55 KMSO 292323
OSOMSO
MONTANA AWOS SUMMARY
NATIONAL WEATHER SERVICE MISSOULA MT
523 PM MDT MON JUN 29 2015

Montana AWOS Reports

LAUREL      |K6S8 292315Z AUTO 06006KT 40SM 36/08 A3000 RMK AO1 T03610083
TWIN BRIDGES|K7S1 292315Z AUTO 09011G16KT 40SM 24/13 A3015 RMK AO1 T02390133






000
SXUS55 KMSO 292303
OSOMSO
MONTANA AWOS SUMMARY
NATIONAL WEATHER SERVICE MISSOULA MT
503 PM MDT MON JUN 29 2015

Montana AWOS Reports

TWIN BRIDGES|K7S1 292255Z AUTO 08016G22KT 40SM 23/12 A3014 RMK AO1 T02280122
ROUNDUP     |KRPX 292255Z AUTO 00000KT 40SM 36/07 A2992 RMK AO1 T03610072
MALTA       |KM75 292255Z AUTO 07006KT 40SM 36/10 A2992 RMK AO1 T03560100
SCOBEY      |K9S2 292255Z AUTO 34008KT 25SM 31/11 A2998 RMK AO1 T03060111
PLAINS      |KS34 292255Z AUTO 00000KT 3 1/2SM HZ 33/14 A2996 RMK AO1 T03330144
LAUREL      |K6S8 292255Z AUTO 05004KT 40SM 36/08 A3000 RMK AO1 T03560083
EKALAKA     |K97M 292255Z AUTO 28009KT 3 1/2SM HZ 33/11 A3002 RMK AO1 T03280106






000
SXUS55 KMSO 292243
OSOMSO
MONTANA AWOS SUMMARY
NATIONAL WEATHER SERVICE MISSOULA MT
443 PM MDT MON JUN 29 2015

Montana AWOS Reports

MALTA       |KM75 292235Z AUTO 00000KT 40SM 36/11 A2992 RMK AO1 T03610106
LAUREL      |K6S8 292235Z AUTO 08007KT 40SM 36/08 A3000 RMK AO1 T03560083
TWIN BRIDGES|K7S1 292235Z AUTO 10013G25KT 7SM 22/14 A3014 RMK AO1 T02170139
ROUNDUP     |KRPX 292235Z AUTO 00000KT 40SM 36/07 A2992 RMK AO1 T03610072






000
SXUS55 KMSO 292223
OSOMSO
MONTANA AWOS SUMMARY
NATIONAL WEATHER SERVICE MISSOULA MT
423 PM MDT MON JUN 29 2015

Montana AWOS Reports

TWIN BRIDGES|K7S1 292215Z AUTO 15017G23KT 25SM 23/13 A3015 RMK AO1 T02330128
ROUNDUP     |KRPX 292215Z AUTO 12005KT 40SM 37/07 A2993 RMK AO1 T03670067
MALTA       |KM75 292215Z AUTO VRB05KT 40SM 37/11 A2992 RMK AO1 T03670111
LAUREL      |K6S8 292215Z AUTO 09006KT 40SM 36/08 A3001 RMK AO1 T03610083






000
SXUS55 KMSO 292203
OSOMSO
MONTANA AWOS SUMMARY
NATIONAL WEATHER SERVICE MISSOULA MT
403 PM MDT MON JUN 29 2015

Montana AWOS Reports

TWIN BRIDGES|K7S1 292155Z AUTO 18024G36KT 25SM 28/13 A3014 RMK AO1 T02830133
ROUNDUP     |KRPX 292155Z AUTO 00000KT 40SM 36/06 A2994 RMK AO1 T03560061
SCOBEY      |K9S2 292155Z AUTO 35011G16KT 25SM 32/11 A2998 RMK AO1 T03220111
EKALAKA     |K97M 292155Z AUTO 26007KT 40SM 32/12 A3003 RMK AO1 T03220117
PLAINS      |KS34 292155Z AUTO 00000KT 3 1/2SM HZ 31/13 A2998 RMK AO1 T03110128
LAUREL      |K6S8 292155Z AUTO 06004KT 40SM 36/09 A3002 RMK AO1 T03610089






000
SXUS55 KMSO 292153
OSOMSO
MONTANA AWOS SUMMARY
NATIONAL WEATHER SERVICE MISSOULA MT
353 PM MDT MON JUN 29 2015

Montana AWOS Reports

LAUREL      |K6S8 292135Z AUTO 05005KT 40SM 36/08 A3003 RMK AO1 T03560083






000
SXUS55 KMSO 292143
OSOMSO
MONTANA AWOS SUMMARY
NATIONAL WEATHER SERVICE MISSOULA MT
342 PM MDT MON JUN 29 2015

Montana AWOS Reports

TWIN BRIDGES|K7S1 292135Z AUTO 33007KT 40SM 32/08 A3008 RMK AO1 T03220083
ROUNDUP     |KRPX 292135Z AUTO 23004KT 40SM 36/06 A2996 RMK AO1 T03610061
MALTA       |KM75 292135Z AUTO 04006KT 40SM 37/10 A2994 RMK AO1 T03670100






000
SXUS55 KMSO 292143
OSOMSO
MONTANA AWOS SUMMARY
NATIONAL WEATHER SERVICE MISSOULA MT
342 PM MDT MON JUN 29 2015

Montana AWOS Reports

TWIN BRIDGES|K7S1 292135Z AUTO 33007KT 40SM 32/08 A3008 RMK AO1 T03220083
ROUNDUP     |KRPX 292135Z AUTO 23004KT 40SM 36/06 A2996 RMK AO1 T03610061
MALTA       |KM75 292135Z AUTO 04006KT 40SM 37/10 A2994 RMK AO1 T03670100






000
SXUS55 KMSO 292123
OSOMSO
MONTANA AWOS SUMMARY
NATIONAL WEATHER SERVICE MISSOULA MT
323 PM MDT MON JUN 29 2015

Montana AWOS Reports

LAUREL      |K6S8 292115Z AUTO 07007KT 40SM 36/08 A3004 RMK AO1 T03560078
TWIN BRIDGES|K7S1 292115Z AUTO 29011KT 40SM 33/09 A3008 RMK AO1 T03330094
ROUNDUP     |KRPX 292115Z AUTO 00000KT 40SM 36/05 A2996 RMK AO1 T03560050






000
SXUS55 KMSO 292103
OSOMSO
MONTANA AWOS SUMMARY
NATIONAL WEATHER SERVICE MISSOULA MT
303 PM MDT MON JUN 29 2015

Montana AWOS Reports

LAUREL      |K6S8 292055Z AUTO 06006KT 40SM 36/08 A3005 RMK AO1 T03560083
TWIN BRIDGES|K7S1 292055Z AUTO 30010KT 40SM 35/08 A3007 RMK AO1 T03500078
ROUNDUP     |KRPX 292055Z AUTO 00000KT 40SM 36/06 A2997 RMK AO1 T03610056
PLAINS      |KS34 292055Z AUTO 00000KT 5SM HZ 28/16 A3001 RMK AO1 T02780156
SCOBEY      |K9S2 292055Z AUTO 32008KT 40SM 32/13 A2998 RMK AO1 T03220128
EKALAKA     |K97M 292055Z AUTO 26010G15KT 40SM 32/11 A3005 RMK AO1 T03220111






000
SXUS55 KMSO 292043
OSOMSO
MONTANA AWOS SUMMARY
NATIONAL WEATHER SERVICE MISSOULA MT
242 PM MDT MON JUN 29 2015

Montana AWOS Reports

MALTA       |KM75 292035Z AUTO 01004KT 40SM 37/10 A2996 RMK AO1 T03670100
TWIN BRIDGES|K7S1 292035Z AUTO 28008KT 40SM 34/08 A3007 RMK AO1 T03390083
ROUNDUP     |KRPX 292035Z AUTO 00000KT 40SM 36/06 A2998 RMK AO1 T03610056
LAUREL      |K6S8 292035Z AUTO 00000KT 40SM 35/09 A3006 RMK AO1 T03500089






000
SXUS55 KMSO 292033
OSOMSO
MONTANA AWOS SUMMARY
NATIONAL WEATHER SERVICE MISSOULA MT
233 PM MDT MON JUN 29 2015

Montana AWOS Reports

LAUREL      |K6S8 292015Z AUTO 06006KT 40SM 34/11 A3006 RMK AO1 T03440106






000
SXUS55 KMSO 292023
OSOMSO
MONTANA AWOS SUMMARY
NATIONAL WEATHER SERVICE MISSOULA MT
223 PM MDT MON JUN 29 2015

Montana AWOS Reports

TWIN BRIDGES|K7S1 292015Z AUTO 19004KT 40SM 34/09 A3007 RMK AO1 T03440089
ROUNDUP     |KRPX 292015Z AUTO 00000KT 40SM 36/05 A2998 RMK AO1 T03560050
MALTA       |KM75 292015Z AUTO 00000KT 40SM 36/11 A2996 RMK AO1 T03560111






000
SXUS55 KMSO 292004
OSOMSO
MONTANA AWOS SUMMARY
NATIONAL WEATHER SERVICE MISSOULA MT
203 PM MDT MON JUN 29 2015

Montana AWOS Reports

TWIN BRIDGES|K7S1 291955Z AUTO VRB05KT 40SM 33/09 A3008 RMK AO1 T03280094
ROUNDUP     |KRPX 291955Z AUTO 23005KT 40SM 36/05 A2999 RMK AO1 T03560050
MALTA       |KM75 291955Z AUTO 00000KT 40SM 35/09 A2996 RMK AO1 T03500094
SCOBEY      |K9S2 291955Z AUTO 33008KT 40SM 32/13 A2999 RMK AO1 T03220133
EKALAKA     |K97M 291955Z AUTO 25006KT 40SM 32/11 A3006 RMK AO1 T03170111
PLAINS      |KS34 291955Z AUTO 00000KT 3 1/2SM HZ 28/16 A3005 RMK AO1 T02780156
LAUREL      |K6S8 291955Z AUTO 05004KT 40SM 34/11 A3007 RMK AO1 T03440106






000
SXUS55 KMSO 291953
OSOMSO
MONTANA AWOS SUMMARY
NATIONAL WEATHER SERVICE MISSOULA MT
153 PM MDT MON JUN 29 2015

Montana AWOS Reports

LAUREL      |K6S8 291935Z AUTO 00000KT 40SM 34/11 A3007 RMK AO1 T03390106
TWIN BRIDGES|K7S1 291935Z AUTO 20005KT 40SM 31/14 A3010 RMK AO1 T03110139






000
SXUS55 KMSO 291943
OSOMSO
MONTANA AWOS SUMMARY
NATIONAL WEATHER SERVICE MISSOULA MT
143 PM MDT MON JUN 29 2015

Montana AWOS Reports

ROUNDUP     |KRPX 291935Z AUTO 00000KT 40SM 35/06 A2999 RMK AO1 T03500061
MALTA       |KM75 291935Z AUTO 34005KT 40SM 35/09 A2997 RMK AO1 T03500094






000
SXUS55 KMSO 291924
OSOMSO
MONTANA AWOS SUMMARY
NATIONAL WEATHER SERVICE MISSOULA MT
123 PM MDT MON JUN 29 2015

Montana AWOS Reports

LAUREL      |K6S8 291915Z AUTO 04005KT 40SM 33/12 A3008 RMK AO1 T03330117
TWIN BRIDGES|K7S1 291915Z AUTO 00000KT 40SM 30/12 A3011 RMK AO1 T03000122
ROUNDUP     |KRPX 291915Z AUTO 19004KT 40SM 35/06 A3000 RMK AO1 T03500061






000
SXUS55 KMSO 291904
OSOMSO
MONTANA AWOS SUMMARY
NATIONAL WEATHER SERVICE MISSOULA MT
103 PM MDT MON JUN 29 2015

Montana AWOS Reports

LAUREL      |K6S8 291855Z AUTO 04004KT 40SM 33/12 A3008 RMK AO1 T03280117
TWIN BRIDGES|K7S1 291855Z AUTO 22005KT 40SM 29/13 A3011 RMK AO1 T02890133
ROUNDUP     |KRPX 291855Z AUTO 00000KT 40SM 34/06 A3000 RMK AO1 T03440061
SCOBEY      |K9S2 291855Z AUTO 33008KT 40SM 31/14 A3000 RMK AO1 T03060144
PLAINS      |KS34 291855Z AUTO 00000KT 4SM HZ 28/11 A3003 RMK AO1 T02780111
EKALAKA     |K97M 291855Z AUTO 00000KT 40SM 31/13 A3007 RMK AO1 T03110133






000
SXUS55 KMSO 291843
OSOMSO
MONTANA AWOS SUMMARY
NATIONAL WEATHER SERVICE MISSOULA MT
1243 PM MDT MON JUN 29 2015

Montana AWOS Reports

MALTA       |KM75 291835Z AUTO 00000KT 40SM 34/11 A2998 RMK AO1 T03390106
LAUREL      |K6S8 291835Z AUTO 05005KT 40SM 32/11 A3009 RMK AO1 T03220111
TWIN BRIDGES|K7S1 291835Z AUTO 20004KT 40SM 29/12 A3012 RMK AO1 T02940117
ROUNDUP     |KRPX 291835Z AUTO 18005KT 40SM 34/06 A3000 RMK AO1 T03440061






000
SXUS55 KMSO 291833
OSOMSO
MONTANA AWOS SUMMARY
NATIONAL WEATHER SERVICE MISSOULA MT
1233 PM MDT MON JUN 29 2015

Montana AWOS Reports

LAUREL      |K6S8 291815Z AUTO 00000KT 25SM 32/13 A3009 RMK AO1 T03220128






000
SXUS55 KMSO 291833
OSOMSO
MONTANA AWOS SUMMARY
NATIONAL WEATHER SERVICE MISSOULA MT
1233 PM MDT MON JUN 29 2015

Montana AWOS Reports

LAUREL      |K6S8 291815Z AUTO 00000KT 25SM 32/13 A3009 RMK AO1 T03220128






000
SXUS55 KMSO 291823
OSOMSO
MONTANA AWOS SUMMARY
NATIONAL WEATHER SERVICE MISSOULA MT
1223 PM MDT MON JUN 29 2015

Montana AWOS Reports

TWIN BRIDGES|K7S1 291815Z AUTO 20005KT 40SM 29/11 A3012 RMK AO1 T02940106
ROUNDUP     |KRPX 291815Z AUTO 00000KT 40SM 34/06 A3001 RMK AO1 T03390061
MALTA       |KM75 291815Z AUTO 00000KT 40SM 34/11 A2999 RMK AO1 T03390111






000
SXUS55 KMSO 291823
OSOMSO
MONTANA AWOS SUMMARY
NATIONAL WEATHER SERVICE MISSOULA MT
1223 PM MDT MON JUN 29 2015

Montana AWOS Reports

TWIN BRIDGES|K7S1 291815Z AUTO 20005KT 40SM 29/11 A3012 RMK AO1 T02940106
ROUNDUP     |KRPX 291815Z AUTO 00000KT 40SM 34/06 A3001 RMK AO1 T03390061
MALTA       |KM75 291815Z AUTO 00000KT 40SM 34/11 A2999 RMK AO1 T03390111






000
SXUS55 KMSO 291813
OSOMSO
MONTANA AWOS SUMMARY
NATIONAL WEATHER SERVICE MISSOULA MT
1212 PM MDT MON JUN 29 2015

Montana AWOS Reports

EKALAKA     |K97M 291755Z AUTO 24011KT 40SM 29/15 A3008 RMK AO1 T02940150






000
SXUS55 KMSO 291813
OSOMSO
MONTANA AWOS SUMMARY
NATIONAL WEATHER SERVICE MISSOULA MT
1212 PM MDT MON JUN 29 2015

Montana AWOS Reports

EKALAKA     |K97M 291755Z AUTO 24011KT 40SM 29/15 A3008 RMK AO1 T02940150






000
SXUS55 KMSO 291803
OSOMSO
MONTANA AWOS SUMMARY
NATIONAL WEATHER SERVICE MISSOULA MT
1203 PM MDT MON JUN 29 2015

Montana AWOS Reports

TWIN BRIDGES|K7S1 291755Z AUTO 15005KT 40SM 29/08 A3013 RMK AO1 T02940083
ROUNDUP     |KRPX 291755Z AUTO 00000KT 40SM 33/06 A3001 RMK AO1 T03330056
LAUREL      |K6S8 291755Z AUTO 00000KT 40SM 32/12 A3009 RMK AO1 T03220122
SCOBEY      |K9S2 291755Z AUTO 31007KT 40SM 29/17 A3000 RMK AO1 T02940167
PLAINS      |KS34 291755Z AUTO 00000KT 4SM HZ 26/12 A3003 RMK AO1 T02560122






000
SXUS55 KMSO 291743
OSOMSO
MONTANA AWOS SUMMARY
NATIONAL WEATHER SERVICE MISSOULA MT
1143 AM MDT MON JUN 29 2015

Montana AWOS Reports

TWIN BRIDGES|K7S1 291735Z AUTO 00000KT 40SM 28/09 A3014 RMK AO1 T02780094
ROUNDUP     |KRPX 291735Z AUTO 00000KT 40SM 33/07 A3002 RMK AO1 T03330067
MALTA       |KM75 291735Z AUTO 35006KT 40SM 32/11 A3000 RMK AO1 T03220111
LAUREL      |K6S8 291735Z AUTO 00000KT 40SM 32/12 A3010 RMK AO1 T03170122






000
SXUS55 KMSO 291743
OSOMSO
MONTANA AWOS SUMMARY
NATIONAL WEATHER SERVICE MISSOULA MT
1143 AM MDT MON JUN 29 2015

Montana AWOS Reports

TWIN BRIDGES|K7S1 291735Z AUTO 00000KT 40SM 28/09 A3014 RMK AO1 T02780094
ROUNDUP     |KRPX 291735Z AUTO 00000KT 40SM 33/07 A3002 RMK AO1 T03330067
MALTA       |KM75 291735Z AUTO 35006KT 40SM 32/11 A3000 RMK AO1 T03220111
LAUREL      |K6S8 291735Z AUTO 00000KT 40SM 32/12 A3010 RMK AO1 T03170122






000
SXUS55 KMSO 291723
OSOMSO
MONTANA AWOS SUMMARY
NATIONAL WEATHER SERVICE MISSOULA MT
1123 AM MDT MON JUN 29 2015

Montana AWOS Reports

TWIN BRIDGES|K7S1 291715Z AUTO 22004KT 40SM 27/09 A3014 RMK AO1 T02720094
ROUNDUP     |KRPX 291715Z AUTO 00000KT 40SM 33/08 A3002 RMK AO1 T03280078
MALTA       |KM75 291715Z AUTO 04006KT 40SM 32/12 A3000 RMK AO1 T03220122
LAUREL      |K6S8 291715Z AUTO 00000KT 40SM 31/11 A3010 RMK AO1 T03110106






000
SXUS55 KMSO 291713
OSOMSO
MONTANA AWOS SUMMARY
NATIONAL WEATHER SERVICE MISSOULA MT
1112 AM MDT MON JUN 29 2015

Montana AWOS Reports

EKALAKA     |K97M 291655Z AUTO 23007KT 40SM 28/16 A3008 RMK AO1 T02830156
SCOBEY      |K9S2 291655Z AUTO 34008KT 25SM 28/15 A3000 RMK AO1 T02780150
PLAINS      |KS34 291655Z AUTO 00000KT 4SM HZ 24/11 A3004 RMK AO1 T02440111






000
SXUS55 KMSO 291703
OSOMSO
MONTANA AWOS SUMMARY
NATIONAL WEATHER SERVICE MISSOULA MT
1103 AM MDT MON JUN 29 2015

Montana AWOS Reports

TWIN BRIDGES|K7S1 291655Z AUTO 21004KT 40SM 27/11 A3015 RMK AO1 T02670106
ROUNDUP     |KRPX 291655Z AUTO 00000KT 25SM 32/08 A3002 RMK AO1 T03170078
MALTA       |KM75 291655Z AUTO 35004KT 40SM 32/11 A3000 RMK AO1 T03170111
LAUREL      |K6S8 291655Z AUTO 00000KT 40SM 31/11 A3010 RMK AO1 T03060106






000
SXUS55 KMSO 291703
OSOMSO
MONTANA AWOS SUMMARY
NATIONAL WEATHER SERVICE MISSOULA MT
1103 AM MDT MON JUN 29 2015

Montana AWOS Reports

TWIN BRIDGES|K7S1 291655Z AUTO 21004KT 40SM 27/11 A3015 RMK AO1 T02670106
ROUNDUP     |KRPX 291655Z AUTO 00000KT 25SM 32/08 A3002 RMK AO1 T03170078
MALTA       |KM75 291655Z AUTO 35004KT 40SM 32/11 A3000 RMK AO1 T03170111
LAUREL      |K6S8 291655Z AUTO 00000KT 40SM 31/11 A3010 RMK AO1 T03060106






000
SXUS55 KMSO 291653
OSOMSO
MONTANA AWOS SUMMARY
NATIONAL WEATHER SERVICE MISSOULA MT
1052 AM MDT MON JUN 29 2015

Montana AWOS Reports

LAUREL      |K6S8 291635Z AUTO 00000KT 40SM 29/11 A3010 RMK AO1 T02940106






000
SXUS55 KMSO 291643
OSOMSO
MONTANA AWOS SUMMARY
NATIONAL WEATHER SERVICE MISSOULA MT
1043 AM MDT MON JUN 29 2015

Montana AWOS Reports

ROUNDUP     |KRPX 291635Z AUTO 00000KT 40SM 31/09 A3002 RMK AO1 T03110094
MALTA       |KM75 291635Z AUTO 03005KT 40SM 32/11 A3000 RMK AO1 T03170111
TWIN BRIDGES|K7S1 291635Z AUTO 00000KT 40SM 26/10 A3015 RMK AO1 T02560100






000
SXUS55 KMSO 291624
OSOMSO
MONTANA AWOS SUMMARY
NATIONAL WEATHER SERVICE MISSOULA MT
1023 AM MDT MON JUN 29 2015

Montana AWOS Reports

LAUREL      |K6S8 291615Z AUTO 00000KT 40SM 28/12 A3011 RMK AO1 T02780122
TWIN BRIDGES|K7S1 291615Z AUTO 00000KT 40SM 25/11 A3016 RMK AO1 T02500106
ROUNDUP     |KRPX 291615Z AUTO 00000KT 40SM 30/09 A3003 RMK AO1 T03000089






000
SXUS55 KMSO 291624
OSOMSO
MONTANA AWOS SUMMARY
NATIONAL WEATHER SERVICE MISSOULA MT
1023 AM MDT MON JUN 29 2015

Montana AWOS Reports

LAUREL      |K6S8 291615Z AUTO 00000KT 40SM 28/12 A3011 RMK AO1 T02780122
TWIN BRIDGES|K7S1 291615Z AUTO 00000KT 40SM 25/11 A3016 RMK AO1 T02500106
ROUNDUP     |KRPX 291615Z AUTO 00000KT 40SM 30/09 A3003 RMK AO1 T03000089






000
SXUS55 KMSO 291614
OSOMSO
MONTANA AWOS SUMMARY
NATIONAL WEATHER SERVICE MISSOULA MT
1013 AM MDT MON JUN 29 2015

Montana AWOS Reports

EKALAKA     |K97M 291555Z AUTO 24008KT 40SM 28/14 A3008 RMK AO1 T02780139






000
SXUS55 KMSO 291603
OSOMSO
MONTANA AWOS SUMMARY
NATIONAL WEATHER SERVICE MISSOULA MT
1003 AM MDT MON JUN 29 2015

Montana AWOS Reports

MALTA       |KM75 291555Z AUTO 36006KT 40SM 31/12 A3000 RMK AO1 T03060117






000
SXUS55 KMSO 291543
OSOMSO
MONTANA AWOS SUMMARY
NATIONAL WEATHER SERVICE MISSOULA MT
943 AM MDT MON JUN 29 2015

Montana AWOS Reports

LAUREL      |K6S8 291535Z AUTO 00000KT 40SM 26/13 A3011 RMK AO1 T02560128
TWIN BRIDGES|K7S1 291535Z AUTO 00000KT 40SM 23/11 A3017 RMK AO1 T02330106
ROUNDUP     |KRPX 291535Z AUTO 00000KT 40SM 27/11 A3003 RMK AO1 T02670106






000
SXUS55 KMSO 291523
OSOMSO
MONTANA AWOS SUMMARY
NATIONAL WEATHER SERVICE MISSOULA MT
923 AM MDT MON JUN 29 2015

Montana AWOS Reports

TWIN BRIDGES|K7S1 291515Z AUTO 18004KT 40SM 22/09 A3017 RMK AO1 T02220094
ROUNDUP     |KRPX 291515Z AUTO 00000KT 40SM 25/11 A3003 RMK AO1 T02500106
MALTA       |KM75 291515Z AUTO 01006KT 40SM 29/13 A3001 RMK AO1 T02940128
LAUREL      |K6S8 291515Z AUTO 00000KT 40SM 24/12 A3011 RMK AO1 T02440122






000
SXUS55 KMSO 291513
OSOMSO
MONTANA AWOS SUMMARY
NATIONAL WEATHER SERVICE MISSOULA MT
912 AM MDT MON JUN 29 2015

Montana AWOS Reports

PLAINS      |KS34 291455Z AUTO 00000KT 5SM HZ 23/12 A3002 RMK AO1 T02330122
SCOBEY      |K9S2 291455Z AUTO 30006KT 40SM 25/14 A3000 RMK AO1 T02500139
EKALAKA     |K97M 291455Z AUTO 00000KT 40SM 27/13 A3008 RMK AO1 T02720133






000
SXUS55 KMSO 291513
OSOMSO
MONTANA AWOS SUMMARY
NATIONAL WEATHER SERVICE MISSOULA MT
912 AM MDT MON JUN 29 2015

Montana AWOS Reports

PLAINS      |KS34 291455Z AUTO 00000KT 5SM HZ 23/12 A3002 RMK AO1 T02330122
SCOBEY      |K9S2 291455Z AUTO 30006KT 40SM 25/14 A3000 RMK AO1 T02500139
EKALAKA     |K97M 291455Z AUTO 00000KT 40SM 27/13 A3008 RMK AO1 T02720133






000
SXUS55 KMSO 291503
OSOMSO
MONTANA AWOS SUMMARY
NATIONAL WEATHER SERVICE MISSOULA MT
903 AM MDT MON JUN 29 2015

Montana AWOS Reports

TWIN BRIDGES|K7S1 291455Z AUTO 17004KT 40SM 22/09 A3017 RMK AO1 T02170094
ROUNDUP     |KRPX 291455Z AUTO 00000KT 40SM 24/11 A3003 RMK AO1 T02390111
LAUREL      |K6S8 291455Z AUTO 00000KT 40SM 23/12 A3011 RMK AO1 T02330117






000
SXUS55 KMSO 291503
OSOMSO
MONTANA AWOS SUMMARY
NATIONAL WEATHER SERVICE MISSOULA MT
903 AM MDT MON JUN 29 2015

Montana AWOS Reports

TWIN BRIDGES|K7S1 291455Z AUTO 17004KT 40SM 22/09 A3017 RMK AO1 T02170094
ROUNDUP     |KRPX 291455Z AUTO 00000KT 40SM 24/11 A3003 RMK AO1 T02390111
LAUREL      |K6S8 291455Z AUTO 00000KT 40SM 23/12 A3011 RMK AO1 T02330117






000
SXUS55 KMSO 291443
OSOMSO
MONTANA AWOS SUMMARY
NATIONAL WEATHER SERVICE MISSOULA MT
842 AM MDT MON JUN 29 2015

Montana AWOS Reports

TWIN BRIDGES|K7S1 291435Z AUTO 13005KT 40SM 21/07 A3017 RMK AO1 T02060072
ROUNDUP     |KRPX 291435Z AUTO 00000KT 40SM 22/11 A3003 RMK AO1 T02220106
MALTA       |KM75 291435Z AUTO 00000KT 40SM 28/13 A3001 RMK AO1 T02780133
LAUREL      |K6S8 291435Z AUTO 19005KT 40SM 22/12 A3011 RMK AO1 T02220117






000
SXUS55 KMSO 291423
OSOMSO
MONTANA AWOS SUMMARY
NATIONAL WEATHER SERVICE MISSOULA MT
823 AM MDT MON JUN 29 2015

Montana AWOS Reports

TWIN BRIDGES|K7S1 291415Z AUTO 16004KT 40SM 19/07 A3018 RMK AO1 T01940072
ROUNDUP     |KRPX 291415Z AUTO 19004KT 40SM 21/11 A3003 RMK AO1 T02110111
MALTA       |KM75 291415Z AUTO 00000KT 40SM 26/14 A3001 RMK AO1 T02610139
LAUREL      |K6S8 291415Z AUTO 20004KT 40SM 21/12 A3011 RMK AO1 T02110117






000
SXUS55 KMSO 291423
OSOMSO
MONTANA AWOS SUMMARY
NATIONAL WEATHER SERVICE MISSOULA MT
823 AM MDT MON JUN 29 2015

Montana AWOS Reports

TWIN BRIDGES|K7S1 291415Z AUTO 16004KT 40SM 19/07 A3018 RMK AO1 T01940072
ROUNDUP     |KRPX 291415Z AUTO 19004KT 40SM 21/11 A3003 RMK AO1 T02110111
MALTA       |KM75 291415Z AUTO 00000KT 40SM 26/14 A3001 RMK AO1 T02610139
LAUREL      |K6S8 291415Z AUTO 20004KT 40SM 21/12 A3011 RMK AO1 T02110117






000
SXUS55 KMSO 291413
OSOMSO
MONTANA AWOS SUMMARY
NATIONAL WEATHER SERVICE MISSOULA MT
813 AM MDT MON JUN 29 2015

Montana AWOS Reports

PLAINS      |KS34 291355Z AUTO 00000KT 4SM HZ 21/13 A3002 RMK AO1 T02110128






000
SXUS55 KMSO 291403
OSOMSO
MONTANA AWOS SUMMARY
NATIONAL WEATHER SERVICE MISSOULA MT
803 AM MDT MON JUN 29 2015

Montana AWOS Reports

TWIN BRIDGES|K7S1 291355Z AUTO 12004KT 40SM 19/07 A3017 RMK AO1 T01940067
ROUNDUP     |KRPX 291355Z AUTO 20009G13KT 40SM 20/11 A3002 RMK AO1 T02000111
MALTA       |KM75 291355Z AUTO 00000KT 40SM 23/14 A3001 RMK AO1 T02330139
LAUREL      |K6S8 291355Z AUTO 21004KT 40SM 21/11 A3011 RMK AO1 T02060111






000
SXUS55 KMSO 291403
OSOMSO
MONTANA AWOS SUMMARY
NATIONAL WEATHER SERVICE MISSOULA MT
803 AM MDT MON JUN 29 2015

Montana AWOS Reports

TWIN BRIDGES|K7S1 291355Z AUTO 12004KT 40SM 19/07 A3017 RMK AO1 T01940067
ROUNDUP     |KRPX 291355Z AUTO 20009G13KT 40SM 20/11 A3002 RMK AO1 T02000111
MALTA       |KM75 291355Z AUTO 00000KT 40SM 23/14 A3001 RMK AO1 T02330139
LAUREL      |K6S8 291355Z AUTO 21004KT 40SM 21/11 A3011 RMK AO1 T02060111






000
SXUS55 KMSO 291343
OSOMSO
MONTANA AWOS SUMMARY
NATIONAL WEATHER SERVICE MISSOULA MT
743 AM MDT MON JUN 29 2015

Montana AWOS Reports

ROUNDUP     |KRPX 291335Z AUTO 20009KT 40SM 19/11 A3002 RMK AO1 T01940111
MALTA       |KM75 291335Z AUTO 00000KT 40SM 21/14 A3001 RMK AO1 T02110139
LAUREL      |K6S8 291335Z AUTO 00000KT 40SM 20/11 A3010 RMK AO1 T02000111
TWIN BRIDGES|K7S1 291335Z AUTO 13004KT 40SM 19/07 A3017 RMK AO1 T01940072






000
SXUS55 KMSO 291323
OSOMSO
MONTANA AWOS SUMMARY
NATIONAL WEATHER SERVICE MISSOULA MT
723 AM MDT MON JUN 29 2015

Montana AWOS Reports

TWIN BRIDGES|K7S1 291315Z AUTO 00000KT 40SM 18/07 A3017 RMK AO1 T01780072
ROUNDUP     |KRPX 291315Z AUTO 19009KT 40SM 19/11 A3002 RMK AO1 T01890111
MALTA       |KM75 291315Z AUTO 00000KT 40SM 20/14 A3001 RMK AO1 T02000139
LAUREL      |K6S8 291315Z AUTO 21004KT 40SM 19/11 A3010 RMK AO1 T01890106






000
SXUS55 KMSO 291323
OSOMSO
MONTANA AWOS SUMMARY
NATIONAL WEATHER SERVICE MISSOULA MT
723 AM MDT MON JUN 29 2015

Montana AWOS Reports

TWIN BRIDGES|K7S1 291315Z AUTO 00000KT 40SM 18/07 A3017 RMK AO1 T01780072
ROUNDUP     |KRPX 291315Z AUTO 19009KT 40SM 19/11 A3002 RMK AO1 T01890111
MALTA       |KM75 291315Z AUTO 00000KT 40SM 20/14 A3001 RMK AO1 T02000139
LAUREL      |K6S8 291315Z AUTO 21004KT 40SM 19/11 A3010 RMK AO1 T01890106






000
SXUS55 KMSO 291303
OSOMSO
MONTANA AWOS SUMMARY
NATIONAL WEATHER SERVICE MISSOULA MT
703 AM MDT MON JUN 29 2015

Montana AWOS Reports

LAUREL      |K6S8 291255Z AUTO 22004KT 40SM 18/11 A3010 RMK AO1 T01830106
TWIN BRIDGES|K7S1 291255Z AUTO 00000KT 40SM 17/07 A3016 RMK AO1 T01720067
ROUNDUP     |KRPX 291255Z AUTO 20010G14KT 40SM 18/11 A3002 RMK AO1 T01830111
SCOBEY      |K9S2 291255Z AUTO 00000KT 40SM 17/12 A3000 RMK AO1 T01670117
PLAINS      |KS34 291255Z AUTO 00000KT 4SM HZ 19/13 A2999 RMK AO1 T01940133






000
SXUS55 KMSO 291244
OSOMSO
MONTANA AWOS SUMMARY
NATIONAL WEATHER SERVICE MISSOULA MT
643 AM MDT MON JUN 29 2015

Montana AWOS Reports

TWIN BRIDGES|K7S1 291235Z AUTO 00000KT 40SM 16/07 A3016 RMK AO1 T01560072
ROUNDUP     |KRPX 291235Z AUTO 20009G13KT 40SM 18/11 A3002 RMK AO1 T01780111
MALTA       |KM75 291235Z AUTO 00000KT 25SM 17/12 A3001 RMK AO1 T01720122
LAUREL      |K6S8 291235Z AUTO 00000KT 40SM 17/11 A3010 RMK AO1 T01720106






000
SXUS55 KMSO 291223
OSOMSO
MONTANA AWOS SUMMARY
NATIONAL WEATHER SERVICE MISSOULA MT
623 AM MDT MON JUN 29 2015

Montana AWOS Reports

TWIN BRIDGES|K7S1 291215Z AUTO 00000KT 40SM 14/07 A3016 RMK AO1 T01440067
ROUNDUP     |KRPX 291215Z AUTO 19008KT 40SM 17/11 A3001 RMK AO1 T01720106
MALTA       |KM75 291215Z AUTO 00000KT 40SM 16/12 A3000 RMK AO1 T01610117
LAUREL      |K6S8 291215Z AUTO 00000KT 40SM 16/09 A3010 RMK AO1 T01610094






000
SXUS55 KMSO 291223
OSOMSO
MONTANA AWOS SUMMARY
NATIONAL WEATHER SERVICE MISSOULA MT
623 AM MDT MON JUN 29 2015

Montana AWOS Reports

TWIN BRIDGES|K7S1 291215Z AUTO 00000KT 40SM 14/07 A3016 RMK AO1 T01440067
ROUNDUP     |KRPX 291215Z AUTO 19008KT 40SM 17/11 A3001 RMK AO1 T01720106
MALTA       |KM75 291215Z AUTO 00000KT 40SM 16/12 A3000 RMK AO1 T01610117
LAUREL      |K6S8 291215Z AUTO 00000KT 40SM 16/09 A3010 RMK AO1 T01610094






000
SXUS55 KMSO 291203
OSOMSO
MONTANA AWOS SUMMARY
NATIONAL WEATHER SERVICE MISSOULA MT
603 AM MDT MON JUN 29 2015

Montana AWOS Reports

TWIN BRIDGES|K7S1 291155Z AUTO 00000KT 40SM 15/08 A3016 RMK AO1 T01500078
ROUNDUP     |KRPX 291155Z AUTO 20008KT 40SM 17/12 A3001 RMK AO1 T01720117
MALTA       |KM75 291155Z AUTO 00000KT 40SM 16/11 A3000 RMK AO1 T01560111
SCOBEY      |K9S2 291155Z AUTO 00000KT 25SM 13/09 A3000 RMK AO1 T01330094
LAUREL      |K6S8 291155Z AUTO 00000KT 40SM 15/09 A3009 RMK AO1 T01500094
PLAINS      |KS34 291155Z AUTO 00000KT 4SM HZ 19/13 A2998 RMK AO1 T01890128






000
SXUS55 KMSO 291153
OSOMSO
MONTANA AWOS SUMMARY
NATIONAL WEATHER SERVICE MISSOULA MT
552 AM MDT MON JUN 29 2015

Montana AWOS Reports

LAUREL      |K6S8 291135Z AUTO 00000KT 40SM 15/09 A3009 RMK AO1 T01500094
TWIN BRIDGES|K7S1 291135Z AUTO 00000KT 40SM 17/06 A3015 RMK AO1 T01720061
ROUNDUP     |KRPX 291135Z AUTO 21006KT 40SM 16/11 A3001 RMK AO1 T01560106






000
SXUS55 KMSO 291153
OSOMSO
MONTANA AWOS SUMMARY
NATIONAL WEATHER SERVICE MISSOULA MT
552 AM MDT MON JUN 29 2015

Montana AWOS Reports

LAUREL      |K6S8 291135Z AUTO 00000KT 40SM 15/09 A3009 RMK AO1 T01500094
TWIN BRIDGES|K7S1 291135Z AUTO 00000KT 40SM 17/06 A3015 RMK AO1 T01720061
ROUNDUP     |KRPX 291135Z AUTO 21006KT 40SM 16/11 A3001 RMK AO1 T01560106






000
SXUS55 KMSO 291143
OSOMSO
MONTANA AWOS SUMMARY
NATIONAL WEATHER SERVICE MISSOULA MT
543 AM MDT MON JUN 29 2015

Montana AWOS Reports

MALTA       |KM75 291135Z AUTO 00000KT 40SM 16/11 A2999 RMK AO1 T01560111






000
SXUS55 KMSO 291133
OSOMSO
MONTANA AWOS SUMMARY
NATIONAL WEATHER SERVICE MISSOULA MT
532 AM MDT MON JUN 29 2015

Montana AWOS Reports

LAUREL      |K6S8 291115Z AUTO 00000KT 40SM 17/10 A3009 RMK AO1 T01670100






000
SXUS55 KMSO 291133
OSOMSO
MONTANA AWOS SUMMARY
NATIONAL WEATHER SERVICE MISSOULA MT
532 AM MDT MON JUN 29 2015

Montana AWOS Reports

LAUREL      |K6S8 291115Z AUTO 00000KT 40SM 17/10 A3009 RMK AO1 T01670100






000
SXUS55 KMSO 291123
OSOMSO
MONTANA AWOS SUMMARY
NATIONAL WEATHER SERVICE MISSOULA MT
522 AM MDT MON JUN 29 2015

Montana AWOS Reports

MALTA       |KM75 291115Z AUTO 00000KT 40SM 15/11 A2999 RMK AO1 T01500111
TWIN BRIDGES|K7S1 291115Z AUTO 00000KT 40SM 18/07 A3015 RMK AO1 T01780067
ROUNDUP     |KRPX 291115Z AUTO 20004KT 40SM 16/11 A3001 RMK AO1 T01560106






000
SXUS55 KMSO 291103
OSOMSO
MONTANA AWOS SUMMARY
NATIONAL WEATHER SERVICE MISSOULA MT
502 AM MDT MON JUN 29 2015

Montana AWOS Reports

ROUNDUP     |KRPX 291055Z AUTO 00000KT 40SM 16/10 A3001 RMK AO1 T01610100
EKALAKA     |K97M 291055Z AUTO 13009KT 40SM 18/13 A3004 RMK AO1 T01830128
PLAINS      |KS34 291055Z AUTO 00000KT 5SM HZ 19/14 A2998 RMK AO1 T01940139
LAUREL      |K6S8 291055Z AUTO 00000KT 40SM 17/09 A3008 RMK AO1 T01670089
SCOBEY      |K9S2 291055Z AUTO 00000KT 25SM 13/09 A2999 RMK AO1 T01330089
TWIN BRIDGES|K7S1 291055Z AUTO 00000KT 40SM 18/06 A3015 RMK AO1 T01780056






000
SXUS55 KMSO 291103
OSOMSO
MONTANA AWOS SUMMARY
NATIONAL WEATHER SERVICE MISSOULA MT
502 AM MDT MON JUN 29 2015

Montana AWOS Reports

ROUNDUP     |KRPX 291055Z AUTO 00000KT 40SM 16/10 A3001 RMK AO1 T01610100
EKALAKA     |K97M 291055Z AUTO 13009KT 40SM 18/13 A3004 RMK AO1 T01830128
PLAINS      |KS34 291055Z AUTO 00000KT 5SM HZ 19/14 A2998 RMK AO1 T01940139
LAUREL      |K6S8 291055Z AUTO 00000KT 40SM 17/09 A3008 RMK AO1 T01670089
SCOBEY      |K9S2 291055Z AUTO 00000KT 25SM 13/09 A2999 RMK AO1 T01330089
TWIN BRIDGES|K7S1 291055Z AUTO 00000KT 40SM 18/06 A3015 RMK AO1 T01780056






000
SXUS55 KMSO 291043
OSOMSO
MONTANA AWOS SUMMARY
NATIONAL WEATHER SERVICE MISSOULA MT
443 AM MDT MON JUN 29 2015

Montana AWOS Reports

TWIN BRIDGES|K7S1 291035Z AUTO 09004KT 40SM 18/07 A3015 RMK AO1 T01780067
ROUNDUP     |KRPX 291035Z AUTO 00000KT 40SM 16/09 A3000 RMK AO1 T01610094
MALTA       |KM75 291035Z AUTO 00000KT 40SM 16/12 A2998 RMK AO1 T01610117
LAUREL      |K6S8 291035Z AUTO 00000KT 40SM 17/09 A3008 RMK AO1 T01670094






000
SXUS55 KMSO 291043
OSOMSO
MONTANA AWOS SUMMARY
NATIONAL WEATHER SERVICE MISSOULA MT
443 AM MDT MON JUN 29 2015

Montana AWOS Reports

TWIN BRIDGES|K7S1 291035Z AUTO 09004KT 40SM 18/07 A3015 RMK AO1 T01780067
ROUNDUP     |KRPX 291035Z AUTO 00000KT 40SM 16/09 A3000 RMK AO1 T01610094
MALTA       |KM75 291035Z AUTO 00000KT 40SM 16/12 A2998 RMK AO1 T01610117
LAUREL      |K6S8 291035Z AUTO 00000KT 40SM 17/09 A3008 RMK AO1 T01670094






000
SXUS55 KMSO 291023
OSOMSO
MONTANA AWOS SUMMARY
NATIONAL WEATHER SERVICE MISSOULA MT
422 AM MDT MON JUN 29 2015

Montana AWOS Reports

ROUNDUP     |KRPX 291015Z AUTO 00000KT 40SM 17/10 A3000 RMK AO1 T01670100
MALTA       |KM75 291015Z AUTO 00000KT 40SM 16/11 A2997 RMK AO1 T01610111






000
SXUS55 KMSO 291013
OSOMSO
MONTANA AWOS SUMMARY
NATIONAL WEATHER SERVICE MISSOULA MT
413 AM MDT MON JUN 29 2015

Montana AWOS Reports

PLAINS      |KS34 290955Z AUTO 00000KT 5SM HZ 19/12 A2996 RMK AO1 T01940122






000
SXUS55 KMSO 291003
OSOMSO
MONTANA AWOS SUMMARY
NATIONAL WEATHER SERVICE MISSOULA MT
403 AM MDT MON JUN 29 2015

Montana AWOS Reports

TWIN BRIDGES|K7S1 290955Z AUTO 13004KT 40SM 18/08 A3014 RMK AO1 T01830078
ROUNDUP     |KRPX 290955Z AUTO 22004KT 40SM 17/10 A3000 RMK AO1 T01670100
MALTA       |KM75 290955Z AUTO 00000KT 40SM 16/12 A2997 RMK AO1 T01610117
SCOBEY      |K9S2 290955Z AUTO 00000KT 40SM 14/09 A2999 RMK AO1 T01390094
EKALAKA     |K97M 290955Z AUTO 13006KT 40SM 20/13 A3004 RMK AO1 T02000133
LAUREL      |K6S8 290955Z AUTO 00000KT 40SM 16/11 A3008 RMK AO1 T01610106






000
SXUS55 KMSO 290943
OSOMSO
MONTANA AWOS SUMMARY
NATIONAL WEATHER SERVICE MISSOULA MT
342 AM MDT MON JUN 29 2015

Montana AWOS Reports

LAUREL      |K6S8 290935Z AUTO 00000KT 40SM 17/11 A3008 RMK AO1 T01720106
TWIN BRIDGES|K7S1 290935Z AUTO 00000KT 40SM 21/06 A3013 RMK AO1 T02110056






000
SXUS55 KMSO 290923
OSOMSO
MONTANA AWOS SUMMARY
NATIONAL WEATHER SERVICE MISSOULA MT
323 AM MDT MON JUN 29 2015

Montana AWOS Reports

MALTA       |KM75 290915Z AUTO 00000KT 25SM 17/12 A2996 RMK AO1 T01720117
LAUREL      |K6S8 290915Z AUTO 00000KT 40SM 17/10 A3008 RMK AO1 T01670100
TWIN BRIDGES|K7S1 290915Z AUTO 14004KT 40SM 22/07 A3013 RMK AO1 T02170067
ROUNDUP     |KRPX 290915Z AUTO 00000KT 40SM 18/09 A3000 RMK AO1 T01830089






000
SXUS55 KMSO 290913
OSOMSO
MONTANA AWOS SUMMARY
NATIONAL WEATHER SERVICE MISSOULA MT
312 AM MDT MON JUN 29 2015

Montana AWOS Reports

SCOBEY      |K9S2 290855Z AUTO 00000KT 40SM 14/09 A3000 RMK AO1 T01440094
PLAINS      |KS34 290855Z AUTO 00000KT 5SM HZ 19/12 A2996 RMK AO1 T01940117
EKALAKA     |K97M 290855Z AUTO 12006KT 40SM 20/13 A3004 RMK AO1 T02000133






000
SXUS55 KMSO 290903
OSOMSO
MONTANA AWOS SUMMARY
NATIONAL WEATHER SERVICE MISSOULA MT
303 AM MDT MON JUN 29 2015

Montana AWOS Reports

LAUREL      |K6S8 290855Z AUTO 00000KT 40SM 17/10 A3008 RMK AO1 T01720100
TWIN BRIDGES|K7S1 290855Z AUTO 01006KT 40SM 24/07 A3012 RMK AO1 T02440072
ROUNDUP     |KRPX 290855Z AUTO 00000KT 40SM 18/10 A3000 RMK AO1 T01780100






000
SXUS55 KMSO 290844
OSOMSO
MONTANA AWOS SUMMARY
NATIONAL WEATHER SERVICE MISSOULA MT
243 AM MDT MON JUN 29 2015

Montana AWOS Reports

TWIN BRIDGES|K7S1 290835Z AUTO 01008KT 40SM 24/07 A3012 RMK AO1 T02440072
ROUNDUP     |KRPX 290835Z AUTO 00000KT 40SM 18/10 A3000 RMK AO1 T01780100
MALTA       |KM75 290835Z AUTO 00000KT 40SM 17/12 A2996 RMK AO1 T01720117
LAUREL      |K6S8 290835Z AUTO 00000KT 40SM 18/10 A3008 RMK AO1 T01780100






000
SXUS55 KMSO 290844
OSOMSO
MONTANA AWOS SUMMARY
NATIONAL WEATHER SERVICE MISSOULA MT
243 AM MDT MON JUN 29 2015

Montana AWOS Reports

TWIN BRIDGES|K7S1 290835Z AUTO 01008KT 40SM 24/07 A3012 RMK AO1 T02440072
ROUNDUP     |KRPX 290835Z AUTO 00000KT 40SM 18/10 A3000 RMK AO1 T01780100
MALTA       |KM75 290835Z AUTO 00000KT 40SM 17/12 A2996 RMK AO1 T01720117
LAUREL      |K6S8 290835Z AUTO 00000KT 40SM 18/10 A3008 RMK AO1 T01780100






000
SXUS55 KMSO 290833
OSOMSO
MONTANA AWOS SUMMARY
NATIONAL WEATHER SERVICE MISSOULA MT
232 AM MDT MON JUN 29 2015

Montana AWOS Reports

LAUREL      |K6S8 290815Z AUTO 00000KT 40SM 18/10 A3008 RMK AO1 T01830100






000
SXUS55 KMSO 290823
OSOMSO
MONTANA AWOS SUMMARY
NATIONAL WEATHER SERVICE MISSOULA MT
222 AM MDT MON JUN 29 2015

Montana AWOS Reports

TWIN BRIDGES|K7S1 290815Z AUTO 01008KT 40SM 25/08 A3013 RMK AO1 T02500078
ROUNDUP     |KRPX 290815Z AUTO 00000KT 40SM 19/11 A3000 RMK AO1 T01890106
MALTA       |KM75 290815Z AUTO 00000KT 40SM 18/12 A2996 RMK AO1 T01830122






000
SXUS55 KMSO 290813
OSOMSO
MONTANA AWOS SUMMARY
NATIONAL WEATHER SERVICE MISSOULA MT
213 AM MDT MON JUN 29 2015

Montana AWOS Reports

SCOBEY      |K9S2 290755Z AUTO 00000KT 25SM 16/11 A3000 RMK AO1 T01560111
EKALAKA     |K97M 290755Z AUTO 13007KT 40SM 21/13 A3004 RMK AO1 T02110133
PLAINS      |KS34 290755Z AUTO 00000KT 4SM HZ 20/11 A2996 RMK AO1 T02000106






000
SXUS55 KMSO 290804
OSOMSO
MONTANA AWOS SUMMARY
NATIONAL WEATHER SERVICE MISSOULA MT
203 AM MDT MON JUN 29 2015

Montana AWOS Reports

LAUREL      |K6S8 290755Z AUTO 00000KT 40SM 19/10 A3008 RMK AO1 T01890100
TWIN BRIDGES|K7S1 290755Z AUTO 36008KT 40SM 25/07 A3013 RMK AO1 T02500072
ROUNDUP     |KRPX 290755Z AUTO 00000KT 40SM 19/10 A3000 RMK AO1 T01890100






000
SXUS55 KMSO 290743
OSOMSO
MONTANA AWOS SUMMARY
NATIONAL WEATHER SERVICE MISSOULA MT
143 AM MDT MON JUN 29 2015

Montana AWOS Reports

TWIN BRIDGES|K7S1 290735Z AUTO 01008KT 40SM 25/08 A3013 RMK AO1 T02500078
ROUNDUP     |KRPX 290735Z AUTO 00000KT 40SM 21/09 A3000 RMK AO1 T02060089
MALTA       |KM75 290735Z AUTO 00000KT 25SM 19/12 A2996 RMK AO1 T01890122
LAUREL      |K6S8 290735Z AUTO 00000KT 40SM 19/11 A3008 RMK AO1 T01940106






000
SXUS55 KMSO 290743
OSOMSO
MONTANA AWOS SUMMARY
NATIONAL WEATHER SERVICE MISSOULA MT
143 AM MDT MON JUN 29 2015

Montana AWOS Reports

TWIN BRIDGES|K7S1 290735Z AUTO 01008KT 40SM 25/08 A3013 RMK AO1 T02500078
ROUNDUP     |KRPX 290735Z AUTO 00000KT 40SM 21/09 A3000 RMK AO1 T02060089
MALTA       |KM75 290735Z AUTO 00000KT 25SM 19/12 A2996 RMK AO1 T01890122
LAUREL      |K6S8 290735Z AUTO 00000KT 40SM 19/11 A3008 RMK AO1 T01940106






000
SXUS55 KMSO 290733
OSOMSO
MONTANA AWOS SUMMARY
NATIONAL WEATHER SERVICE MISSOULA MT
133 AM MDT MON JUN 29 2015

Montana AWOS Reports

LAUREL      |K6S8 290715Z AUTO 00000KT 40SM 19/11 A3008 RMK AO1 T01940106






000
SXUS55 KMSO 290723
OSOMSO
MONTANA AWOS SUMMARY
NATIONAL WEATHER SERVICE MISSOULA MT
123 AM MDT MON JUN 29 2015

Montana AWOS Reports

TWIN BRIDGES|K7S1 290715Z AUTO 01009KT 40SM 25/08 A3013 RMK AO1 T02500078
ROUNDUP     |KRPX 290715Z AUTO 00000KT 40SM 21/08 A3000 RMK AO1 T02110083
MALTA       |KM75 290715Z AUTO 00000KT 40SM 19/12 A2996 RMK AO1 T01940122






000
SXUS55 KMSO 290703
OSOMSO
MONTANA AWOS SUMMARY
NATIONAL WEATHER SERVICE MISSOULA MT
103 AM MDT MON JUN 29 2015

Montana AWOS Reports

TWIN BRIDGES|K7S1 290655Z AUTO 36009KT 40SM 26/07 A3012 RMK AO1 T02560072
LAUREL      |K6S8 290655Z AUTO 00000KT 40SM 21/10 A3008 RMK AO1 T02060100
ROUNDUP     |KRPX 290655Z AUTO 00000KT 40SM 21/08 A3000 RMK AO1 T02060083
MALTA       |KM75 290655Z AUTO 00000KT 40SM 20/13 A2996 RMK AO1 T02000128
PLAINS      |KS34 290655Z AUTO 00000KT 4SM HZ 21/13 A2996 RMK AO1 T02110133
SCOBEY      |K9S2 290655Z AUTO 00000KT 40SM 17/11 A3000 RMK AO1 T01720106
EKALAKA     |K97M 290655Z AUTO 13008KT 40SM 21/13 A3005 RMK AO1 T02110133






000
SXUS55 KMSO 290703
OSOMSO
MONTANA AWOS SUMMARY
NATIONAL WEATHER SERVICE MISSOULA MT
103 AM MDT MON JUN 29 2015

Montana AWOS Reports

TWIN BRIDGES|K7S1 290655Z AUTO 36009KT 40SM 26/07 A3012 RMK AO1 T02560072
LAUREL      |K6S8 290655Z AUTO 00000KT 40SM 21/10 A3008 RMK AO1 T02060100
ROUNDUP     |KRPX 290655Z AUTO 00000KT 40SM 21/08 A3000 RMK AO1 T02060083
MALTA       |KM75 290655Z AUTO 00000KT 40SM 20/13 A2996 RMK AO1 T02000128
PLAINS      |KS34 290655Z AUTO 00000KT 4SM HZ 21/13 A2996 RMK AO1 T02110133
SCOBEY      |K9S2 290655Z AUTO 00000KT 40SM 17/11 A3000 RMK AO1 T01720106
EKALAKA     |K97M 290655Z AUTO 13008KT 40SM 21/13 A3005 RMK AO1 T02110133






000
SXUS55 KMSO 290644
OSOMSO
MONTANA AWOS SUMMARY
NATIONAL WEATHER SERVICE MISSOULA MT
1243 AM MDT MON JUN 29 2015

Montana AWOS Reports

LAUREL      |K6S8 290635Z AUTO 00000KT 40SM 21/10 A3008 RMK AO1 T02110100
TWIN BRIDGES|K7S1 290635Z AUTO 35009G13KT 40SM 26/07 A3012 RMK AO1 T02610072
ROUNDUP     |KRPX 290635Z AUTO 00000KT 40SM 22/08 A3000 RMK AO1 T02170083






000
SXUS55 KMSO 290644
OSOMSO
MONTANA AWOS SUMMARY
NATIONAL WEATHER SERVICE MISSOULA MT
1243 AM MDT MON JUN 29 2015

Montana AWOS Reports

LAUREL      |K6S8 290635Z AUTO 00000KT 40SM 21/10 A3008 RMK AO1 T02110100
TWIN BRIDGES|K7S1 290635Z AUTO 35009G13KT 40SM 26/07 A3012 RMK AO1 T02610072
ROUNDUP     |KRPX 290635Z AUTO 00000KT 40SM 22/08 A3000 RMK AO1 T02170083






000
SXUS55 KMSO 290623
OSOMSO
MONTANA AWOS SUMMARY
NATIONAL WEATHER SERVICE MISSOULA MT
1223 AM MDT MON JUN 29 2015

Montana AWOS Reports

TWIN BRIDGES|K7S1 290615Z AUTO 35010G14KT 40SM 26/07 A3012 RMK AO1 T02610067
MALTA       |KM75 290615Z AUTO 00000KT 25SM 23/13 A2995 RMK AO1 T02280128






000
SXUS55 KMSO 290623
OSOMSO
MONTANA AWOS SUMMARY
NATIONAL WEATHER SERVICE MISSOULA MT
1223 AM MDT MON JUN 29 2015

Montana AWOS Reports

TWIN BRIDGES|K7S1 290615Z AUTO 35010G14KT 40SM 26/07 A3012 RMK AO1 T02610067
MALTA       |KM75 290615Z AUTO 00000KT 25SM 23/13 A2995 RMK AO1 T02280128






000
SXUS55 KMSO 290603
OSOMSO
MONTANA AWOS SUMMARY
NATIONAL WEATHER SERVICE MISSOULA MT
1203 AM MDT MON JUN 29 2015

Montana AWOS Reports

LAUREL      |K6S8 290555Z AUTO 00000KT 40SM 22/09 A3007 RMK AO1 T02220094
ROUNDUP     |KRPX 290555Z AUTO 00000KT 40SM 23/08 A2999 RMK AO1 T02330078
MALTA       |KM75 290555Z AUTO 00000KT 40SM 23/13 A2995 RMK AO1 T02330133
PLAINS      |KS34 290555Z AUTO 00000KT 4SM HZ 23/13 A2995 RMK AO1 T02330133
SCOBEY      |K9S2 290555Z AUTO 00000KT 40SM 20/11 A3000 RMK AO1 T02000111
EKALAKA     |K97M 290555Z AUTO 12006KT 40SM 21/13 A3005 RMK AO1 T02110133






000
SXUS55 KMSO 290603
OSOMSO
MONTANA AWOS SUMMARY
NATIONAL WEATHER SERVICE MISSOULA MT
1203 AM MDT MON JUN 29 2015

Montana AWOS Reports

LAUREL      |K6S8 290555Z AUTO 00000KT 40SM 22/09 A3007 RMK AO1 T02220094
ROUNDUP     |KRPX 290555Z AUTO 00000KT 40SM 23/08 A2999 RMK AO1 T02330078
MALTA       |KM75 290555Z AUTO 00000KT 40SM 23/13 A2995 RMK AO1 T02330133
PLAINS      |KS34 290555Z AUTO 00000KT 4SM HZ 23/13 A2995 RMK AO1 T02330133
SCOBEY      |K9S2 290555Z AUTO 00000KT 40SM 20/11 A3000 RMK AO1 T02000111
EKALAKA     |K97M 290555Z AUTO 12006KT 40SM 21/13 A3005 RMK AO1 T02110133






000
SXUS55 KMSO 290544
OSOMSO
MONTANA AWOS SUMMARY
NATIONAL WEATHER SERVICE MISSOULA MT
1143 PM MDT SUN JUN 28 2015

Montana AWOS Reports

LAUREL      |K6S8 290535Z AUTO 00000KT 40SM 23/11 A3007 RMK AO1 T02280111
ROUNDUP     |KRPX 290535Z AUTO 00000KT 40SM 24/07 A3000 RMK AO1 T02390072
MALTA       |KM75 290535Z AUTO 00000KT 25SM 23/13 A2995 RMK AO1 T02330128






000
SXUS55 KMSO 290523
OSOMSO
MONTANA AWOS SUMMARY
NATIONAL WEATHER SERVICE MISSOULA MT
1123 PM MDT SUN JUN 28 2015

Montana AWOS Reports

TWIN BRIDGES|K7S1 290515Z AUTO 02008KT 40SM 27/06 A3012 RMK AO1 T02720056
LAUREL      |K6S8 290515Z AUTO 00000KT 25SM 24/11 A3007 RMK AO1 T02390111
ROUNDUP     |KRPX 290515Z AUTO 00000KT 40SM 27/06 A3000 RMK AO1 T02670061
MALTA       |KM75 290515Z AUTO 00000KT 40SM 22/13 A2995 RMK AO1 T02220128






000
SXUS55 KMSO 290523
OSOMSO
MONTANA AWOS SUMMARY
NATIONAL WEATHER SERVICE MISSOULA MT
1123 PM MDT SUN JUN 28 2015

Montana AWOS Reports

TWIN BRIDGES|K7S1 290515Z AUTO 02008KT 40SM 27/06 A3012 RMK AO1 T02720056
LAUREL      |K6S8 290515Z AUTO 00000KT 25SM 24/11 A3007 RMK AO1 T02390111
ROUNDUP     |KRPX 290515Z AUTO 00000KT 40SM 27/06 A3000 RMK AO1 T02670061
MALTA       |KM75 290515Z AUTO 00000KT 40SM 22/13 A2995 RMK AO1 T02220128






000
SXUS55 KMSO 290513
OSOMSO
MONTANA AWOS SUMMARY
NATIONAL WEATHER SERVICE MISSOULA MT
1113 PM MDT SUN JUN 28 2015

Montana AWOS Reports

MALTA       |KM75 290455Z AUTO 00000KT 40SM 23/13 A2995 RMK AO1 T02280128
SCOBEY      |K9S2 290455Z AUTO 00000KT 40SM 23/12 A3000 RMK AO1 T02280117
EKALAKA     |K97M 290455Z AUTO 13007KT 40SM 22/13 A3005 RMK AO1 T02170133






000
SXUS55 KMSO 290503
OSOMSO
MONTANA AWOS SUMMARY
NATIONAL WEATHER SERVICE MISSOULA MT
1103 PM MDT SUN JUN 28 2015

Montana AWOS Reports

LAUREL      |K6S8 290455Z AUTO 00000KT 40SM 23/09 A3007 RMK AO1 T02280094
TWIN BRIDGES|K7S1 290455Z AUTO 03004KT 40SM 27/06 A3012 RMK AO1 T02670056
ROUNDUP     |KRPX 290455Z AUTO 00000KT 40SM 27/07 A3000 RMK AO1 T02670067
PLAINS      |KS34 290455Z AUTO 00000KT 4SM HZ 25/13 A2994 RMK AO1 T02500133






000
SXUS55 KMSO 290453
OSOMSO
MONTANA AWOS SUMMARY
NATIONAL WEATHER SERVICE MISSOULA MT
1053 PM MDT SUN JUN 28 2015

Montana AWOS Reports

MALTA       |KM75 290435Z AUTO 00000KT 40SM 24/13 A2995 RMK AO1 T02390133






000
SXUS55 KMSO 290443
OSOMSO
MONTANA AWOS SUMMARY
NATIONAL WEATHER SERVICE MISSOULA MT
1043 PM MDT SUN JUN 28 2015

Montana AWOS Reports

LAUREL      |K6S8 290435Z AUTO 00000KT 40SM 23/09 A3007 RMK AO1 T02280094
TWIN BRIDGES|K7S1 290435Z AUTO 01006KT 40SM 28/06 A3011 RMK AO1 T02780056
ROUNDUP     |KRPX 290435Z AUTO 00000KT 40SM 27/07 A2999 RMK AO1 T02720067






000
SXUS55 KMSO 290443
OSOMSO
MONTANA AWOS SUMMARY
NATIONAL WEATHER SERVICE MISSOULA MT
1043 PM MDT SUN JUN 28 2015

Montana AWOS Reports

LAUREL      |K6S8 290435Z AUTO 00000KT 40SM 23/09 A3007 RMK AO1 T02280094
TWIN BRIDGES|K7S1 290435Z AUTO 01006KT 40SM 28/06 A3011 RMK AO1 T02780056
ROUNDUP     |KRPX 290435Z AUTO 00000KT 40SM 27/07 A2999 RMK AO1 T02720067






000
SXUS55 KMSO 290424
OSOMSO
MONTANA AWOS SUMMARY
NATIONAL WEATHER SERVICE MISSOULA MT
1023 PM MDT SUN JUN 28 2015

Montana AWOS Reports

LAUREL      |K6S8 290415Z AUTO 00000KT 40SM 25/09 A3007 RMK AO1 T02500094
ROUNDUP     |KRPX 290415Z AUTO 00000KT 40SM 27/07 A2999 RMK AO1 T02720067
MALTA       |KM75 290415Z AUTO 00000KT 40SM 25/13 A2995 RMK AO1 T02500133






000
SXUS55 KMSO 290413
OSOMSO
MONTANA AWOS SUMMARY
NATIONAL WEATHER SERVICE MISSOULA MT
1013 PM MDT SUN JUN 28 2015

Montana AWOS Reports

LAUREL      |K6S8 290355Z AUTO 00000KT 40SM 26/09 A3007 RMK AO1 T02560094
ROUNDUP     |KRPX 290355Z AUTO 00000KT 40SM 28/08 A2999 RMK AO1 T02830078
MALTA       |KM75 290355Z AUTO 00000KT 15SM 26/15 A2994 RMK AO1 T02610150
PLAINS      |KS34 290355Z AUTO 00000KT 5SM HZ 29/14 A2993 RMK AO1 T02890144
EKALAKA     |K97M 290355Z AUTO 13007KT 40SM 23/14 A3005 RMK AO1 T02280139
SCOBEY      |K9S2 290355Z AUTO 00000KT 40SM 22/11 A3000 RMK AO1 T02170106






000
SXUS55 KMSO 290403
OSOMSO
MONTANA AWOS SUMMARY
NATIONAL WEATHER SERVICE MISSOULA MT
1003 PM MDT SUN JUN 28 2015

Montana AWOS Reports

TWIN BRIDGES|K7S1 290355Z AUTO 00000KT 40SM 25/07 A3011 RMK AO1 T02500067






000
SXUS55 KMSO 290403
OSOMSO
MONTANA AWOS SUMMARY
NATIONAL WEATHER SERVICE MISSOULA MT
1003 PM MDT SUN JUN 28 2015

Montana AWOS Reports

TWIN BRIDGES|K7S1 290355Z AUTO 00000KT 40SM 25/07 A3011 RMK AO1 T02500067






000
SXUS55 KMSO 290344
OSOMSO
MONTANA AWOS SUMMARY
NATIONAL WEATHER SERVICE MISSOULA MT
943 PM MDT SUN JUN 28 2015

Montana AWOS Reports

TWIN BRIDGES|K7S1 290335Z AUTO 00000KT 40SM 27/09 A3010 RMK AO1 T02720089
EKALAKA     |K97M 290255Z AUTO 13007KT 40SM 24/14 A3003 RMK AO1 T02440139
LAUREL      |K6S8 290335Z AUTO 00000KT 40SM 25/09 A3006 RMK AO1 T02500089
ROUNDUP     |KRPX 290335Z AUTO 00000KT 40SM 28/09 A2998 RMK AO1 T02830089
MALTA       |KM75 290335Z AUTO 00000KT 15SM 28/15 A2994 RMK AO1 T02780150
PLAINS      |KS34 290255Z AUTO 00000KT 5SM HZ 33/17 A2992 RMK AO1 T03280167






000
SXUS55 KMSO 290323
OSOMSO
MONTANA AWOS SUMMARY
NATIONAL WEATHER SERVICE MISSOULA MT
923 PM MDT SUN JUN 28 2015

Montana AWOS Reports

LAUREL      |K6S8 290315Z AUTO 00000KT 40SM 26/09 A3006 RMK AO1 T02560094
TWIN BRIDGES|K7S1 290315Z AUTO 12004KT 40SM 29/08 A3009 RMK AO1 T02940083
ROUNDUP     |KRPX 290315Z AUTO 00000KT 40SM 29/10 A2998 RMK AO1 T02940100
MALTA       |KM75 290315Z AUTO 00000KT 40SM 29/15 A2993 RMK AO1 T02940150






000
SXUS55 KMSO 290323
OSOMSO
MONTANA AWOS SUMMARY
NATIONAL WEATHER SERVICE MISSOULA MT
923 PM MDT SUN JUN 28 2015

Montana AWOS Reports

LAUREL      |K6S8 290315Z AUTO 00000KT 40SM 26/09 A3006 RMK AO1 T02560094
TWIN BRIDGES|K7S1 290315Z AUTO 12004KT 40SM 29/08 A3009 RMK AO1 T02940083
ROUNDUP     |KRPX 290315Z AUTO 00000KT 40SM 29/10 A2998 RMK AO1 T02940100
MALTA       |KM75 290315Z AUTO 00000KT 40SM 29/15 A2993 RMK AO1 T02940150






000
SXUS55 KMSO 290313
OSOMSO
MONTANA AWOS SUMMARY
NATIONAL WEATHER SERVICE MISSOULA MT
913 PM MDT SUN JUN 28 2015

Montana AWOS Reports

ROUNDUP     |KRPX 290255Z AUTO 00000KT 40SM 31/11 A2997 RMK AO1 T03060106
MALTA       |KM75 290255Z AUTO 00000KT 40SM 32/15 A2993 RMK AO1 T03170150
LAUREL      |K6S8 290255Z AUTO 00000KT 40SM 26/11 A3005 RMK AO1 T02610106






000
SXUS55 KMSO 290303
OSOMSO
MONTANA AWOS SUMMARY
NATIONAL WEATHER SERVICE MISSOULA MT
903 PM MDT SUN JUN 28 2015

Montana AWOS Reports

TWIN BRIDGES|K7S1 290255Z AUTO 00000KT 40SM 31/08 A3009 RMK AO1 T03060083






000
SXUS55 KMSO 290243
OSOMSO
MONTANA AWOS SUMMARY
NATIONAL WEATHER SERVICE MISSOULA MT
843 PM MDT SUN JUN 28 2015

Montana AWOS Reports

LAUREL      |K6S8 290235Z AUTO 00000KT 40SM 28/13 A3005 RMK AO1 T02830133
ROUNDUP     |KRPX 290235Z AUTO 00000KT 40SM 32/11 A2996 RMK AO1 T03170106
MALTA       |KM75 290235Z AUTO 00000KT 40SM 35/17 A2993 RMK AO1 T03500167






000
SXUS55 KMSO 290223
OSOMSO
MONTANA AWOS SUMMARY
NATIONAL WEATHER SERVICE MISSOULA MT
823 PM MDT SUN JUN 28 2015

Montana AWOS Reports

LAUREL      |K6S8 290215Z AUTO 00000KT 40SM 31/13 A3005 RMK AO1 T03110128
ROUNDUP     |KRPX 290215Z AUTO 00000KT 40SM 33/11 A2996 RMK AO1 T03280106
MALTA       |KM75 290215Z AUTO 00000KT 40SM 36/16 A2992 RMK AO1 T03560161
SCOBEY      |K9S2 290155Z AUTO 00000KT 40SM 31/11 A2999 RMK AO1 T03060111
EKALAKA     |K97M 290155Z AUTO 12004KT 40SM 26/16 A3003 RMK AO1 T02610156






000
SXUS55 KMSO 290213
OSOMSO
MONTANA AWOS SUMMARY
NATIONAL WEATHER SERVICE MISSOULA MT
812 PM MDT SUN JUN 28 2015

Montana AWOS Reports

PLAINS      |KS34 290155Z AUTO 00000KT 5SM HZ 39/15 A2991 RMK AO1 T03890150






000
SXUS55 KMSO 290213
OSOMSO
MONTANA AWOS SUMMARY
NATIONAL WEATHER SERVICE MISSOULA MT
812 PM MDT SUN JUN 28 2015

Montana AWOS Reports

PLAINS      |KS34 290155Z AUTO 00000KT 5SM HZ 39/15 A2991 RMK AO1 T03890150






000
SXUS55 KMSO 290203
OSOMSO
MONTANA AWOS SUMMARY
NATIONAL WEATHER SERVICE MISSOULA MT
803 PM MDT SUN JUN 28 2015

Montana AWOS Reports

LAUREL      |K6S8 290155Z AUTO 00000KT 40SM 31/12 A3004 RMK AO1 T03110117
TWIN BRIDGES|K7S1 290155Z AUTO 32006KT 40SM 35/06 A3008 RMK AO1 T03500056
ROUNDUP     |KRPX 290155Z AUTO 00000KT 40SM 33/09 A2996 RMK AO1 T03330089
MALTA       |KM75 290155Z AUTO 00000KT 40SM 36/14 A2992 RMK AO1 T03610144






000
SXUS55 KMSO 290144
OSOMSO
MONTANA AWOS SUMMARY
NATIONAL WEATHER SERVICE MISSOULA MT
743 PM MDT SUN JUN 28 2015

Montana AWOS Reports

LAUREL      |K6S8 290135Z AUTO 00000KT 40SM 33/12 A3004 RMK AO1 T03280122
ROUNDUP     |KRPX 290135Z AUTO 00000KT 40SM 34/09 A2996 RMK AO1 T03390094
MALTA       |KM75 290135Z AUTO 00000KT 40SM 36/14 A2992 RMK AO1 T03610144






000
SXUS55 KMSO 290133
OSOMSO
MONTANA AWOS SUMMARY
NATIONAL WEATHER SERVICE MISSOULA MT
732 PM MDT SUN JUN 28 2015

Montana AWOS Reports

MALTA       |KM75 290115Z AUTO 00000KT 40SM 37/15 A2992 RMK AO1 T03670150






000
SXUS55 KMSO 290123
OSOMSO
MONTANA AWOS SUMMARY
NATIONAL WEATHER SERVICE MISSOULA MT
722 PM MDT SUN JUN 28 2015

Montana AWOS Reports

TWIN BRIDGES|K7S1 290115Z AUTO 33006KT 40SM 35/04 A3007 RMK AO1 T03500044
LAUREL      |K6S8 290115Z AUTO 00000KT 40SM 34/11 A3004 RMK AO1 T03390106
ROUNDUP     |KRPX 290115Z AUTO 30005KT 40SM 34/09 A2996 RMK AO1 T03440089






000
SXUS55 KMSO 290123
OSOMSO
MONTANA AWOS SUMMARY
NATIONAL WEATHER SERVICE MISSOULA MT
722 PM MDT SUN JUN 28 2015

Montana AWOS Reports

TWIN BRIDGES|K7S1 290115Z AUTO 33006KT 40SM 35/04 A3007 RMK AO1 T03500044
LAUREL      |K6S8 290115Z AUTO 00000KT 40SM 34/11 A3004 RMK AO1 T03390106
ROUNDUP     |KRPX 290115Z AUTO 30005KT 40SM 34/09 A2996 RMK AO1 T03440089






000
SXUS55 KMSO 290113
OSOMSO
MONTANA AWOS SUMMARY
NATIONAL WEATHER SERVICE MISSOULA MT
713 PM MDT SUN JUN 28 2015

Montana AWOS Reports

EKALAKA     |K97M 290055Z AUTO 10007KT 40SM 29/14 A3002 RMK AO1 T02890139






000
SXUS55 KMSO 290104
OSOMSO
MONTANA AWOS SUMMARY
NATIONAL WEATHER SERVICE MISSOULA MT
703 PM MDT SUN JUN 28 2015

Montana AWOS Reports

LAUREL      |K6S8 290055Z AUTO 00000KT 40SM 33/09 A3004 RMK AO1 T03330094
ROUNDUP     |KRPX 290055Z AUTO 32006KT 40SM 35/08 A2995 RMK AO1 T03500078
SCOBEY      |K9S2 290055Z AUTO 03005KT 40SM 32/11 A2998 RMK AO1 T03170106
PLAINS      |KS34 290055Z AUTO 00000KT 7SM 40/09 A2991 RMK AO1 T04000094
MALTA       |KM75 290055Z AUTO 04005KT 40SM 37/13 A2992 RMK AO1 T03670128
TWIN BRIDGES|K7S1 290055Z AUTO 34009G14KT 40SM 36/05 A3007 RMK AO1 T03560050






000
SXUS55 KMSO 290104
OSOMSO
MONTANA AWOS SUMMARY
NATIONAL WEATHER SERVICE MISSOULA MT
703 PM MDT SUN JUN 28 2015

Montana AWOS Reports

LAUREL      |K6S8 290055Z AUTO 00000KT 40SM 33/09 A3004 RMK AO1 T03330094
ROUNDUP     |KRPX 290055Z AUTO 32006KT 40SM 35/08 A2995 RMK AO1 T03500078
SCOBEY      |K9S2 290055Z AUTO 03005KT 40SM 32/11 A2998 RMK AO1 T03170106
PLAINS      |KS34 290055Z AUTO 00000KT 7SM 40/09 A2991 RMK AO1 T04000094
MALTA       |KM75 290055Z AUTO 04005KT 40SM 37/13 A2992 RMK AO1 T03670128
TWIN BRIDGES|K7S1 290055Z AUTO 34009G14KT 40SM 36/05 A3007 RMK AO1 T03560050






000
SXUS55 KMSO 290053
OSOMSO
MONTANA AWOS SUMMARY
NATIONAL WEATHER SERVICE MISSOULA MT
653 PM MDT SUN JUN 28 2015

Montana AWOS Reports

MALTA       |KM75 290035Z AUTO 04005KT 40SM 37/13 A2992 RMK AO1 T03670128






000
SXUS55 KMSO 290043
OSOMSO
MONTANA AWOS SUMMARY
NATIONAL WEATHER SERVICE MISSOULA MT
642 PM MDT SUN JUN 28 2015

Montana AWOS Reports

TWIN BRIDGES|K7S1 290035Z AUTO 33010G15KT 40SM 36/06 A3007 RMK AO1 T03610056
LAUREL      |K6S8 290035Z AUTO 00000KT 40SM 33/10 A3003 RMK AO1 T03330100
ROUNDUP     |KRPX 290035Z AUTO 29008KT 40SM 35/08 A2995 RMK AO1 T03500078






000
SXUS55 KMSO 290023
OSOMSO
MONTANA AWOS SUMMARY
NATIONAL WEATHER SERVICE MISSOULA MT
623 PM MDT SUN JUN 28 2015

Montana AWOS Reports

LAUREL      |K6S8 290015Z AUTO 00000KT 40SM 34/10 A3004 RMK AO1 T03390100
ROUNDUP     |KRPX 290015Z AUTO 00000KT 40SM 34/09 A2996 RMK AO1 T03440089
MALTA       |KM75 290015Z AUTO 00000KT 40SM 36/13 A2992 RMK AO1 T03610133






000
SXUS55 KMSO 290023
OSOMSO
MONTANA AWOS SUMMARY
NATIONAL WEATHER SERVICE MISSOULA MT
623 PM MDT SUN JUN 28 2015

Montana AWOS Reports

LAUREL      |K6S8 290015Z AUTO 00000KT 40SM 34/10 A3004 RMK AO1 T03390100
ROUNDUP     |KRPX 290015Z AUTO 00000KT 40SM 34/09 A2996 RMK AO1 T03440089
MALTA       |KM75 290015Z AUTO 00000KT 40SM 36/13 A2992 RMK AO1 T03610133






000
SXUS55 KMSO 290014
OSOMSO
MONTANA AWOS SUMMARY
NATIONAL WEATHER SERVICE MISSOULA MT
613 PM MDT SUN JUN 28 2015

Montana AWOS Reports

SCOBEY      |K9S2 282355Z AUTO 36006KT 40SM 32/11 A2999 RMK AO1 T03220111
PLAINS      |KS34 282355Z AUTO 00000KT 5SM HZ 41/08 A2992 RMK AO1 T04110083
EKALAKA     |K97M 282355Z AUTO 10005KT 40SM 31/14 A3003 RMK AO1 T03060139






000
SXUS55 KMSO 290003
OSOMSO
MONTANA AWOS SUMMARY
NATIONAL WEATHER SERVICE MISSOULA MT
603 PM MDT SUN JUN 28 2015

Montana AWOS Reports

TWIN BRIDGES|K7S1 282355Z AUTO 34006KT 40SM 34/04 A3009 RMK AO1 T03440039






000
SXUS55 KMSO 290003
OSOMSO
MONTANA AWOS SUMMARY
NATIONAL WEATHER SERVICE MISSOULA MT
603 PM MDT SUN JUN 28 2015

Montana AWOS Reports

TWIN BRIDGES|K7S1 282355Z AUTO 34006KT 40SM 34/04 A3009 RMK AO1 T03440039






000
SXUS55 KMSO 282344
OSOMSO
MONTANA AWOS SUMMARY
NATIONAL WEATHER SERVICE MISSOULA MT
543 PM MDT SUN JUN 28 2015

Montana AWOS Reports

LAUREL      |K6S8 282335Z AUTO 00000KT 40SM 31/09 A3005 RMK AO1 T03110094
ROUNDUP     |KRPX 282335Z AUTO 00000KT 40SM 35/09 A2996 RMK AO1 T03500094
MALTA       |KM75 282335Z AUTO 00000KT 40SM 38/13 A2993 RMK AO1 T03780128






000
SXUS55 KMSO 282333
OSOMSO
MONTANA AWOS SUMMARY
NATIONAL WEATHER SERVICE MISSOULA MT
532 PM MDT SUN JUN 28 2015

Montana AWOS Reports

MALTA       |KM75 282315Z AUTO 08004KT 40SM 38/14 A2993 RMK AO1 T03780139
LAUREL      |K6S8 282315Z AUTO 36009G14KT 40SM 31/10 A3006 RMK AO1 T03110100






000
SXUS55 KMSO 282333
OSOMSO
MONTANA AWOS SUMMARY
NATIONAL WEATHER SERVICE MISSOULA MT
532 PM MDT SUN JUN 28 2015

Montana AWOS Reports

MALTA       |KM75 282315Z AUTO 08004KT 40SM 38/14 A2993 RMK AO1 T03780139
LAUREL      |K6S8 282315Z AUTO 36009G14KT 40SM 31/10 A3006 RMK AO1 T03110100






000
SXUS55 KMSO 282323
OSOMSO
MONTANA AWOS SUMMARY
NATIONAL WEATHER SERVICE MISSOULA MT
522 PM MDT SUN JUN 28 2015

Montana AWOS Reports

TWIN BRIDGES|K7S1 282315Z AUTO 30005KT 40SM 36/05 A3009 RMK AO1 T03560050
ROUNDUP     |KRPX 282315Z AUTO 00000KT 40SM 34/09 A2996 RMK AO1 T03440094






000
SXUS55 KMSO 282304
OSOMSO
MONTANA AWOS SUMMARY
NATIONAL WEATHER SERVICE MISSOULA MT
503 PM MDT SUN JUN 28 2015

Montana AWOS Reports

TWIN BRIDGES|K7S1 282255Z AUTO 32007KT 40SM 35/06 A3009 RMK AO1 T03500056
LAUREL      |K6S8 282255Z AUTO 34011G18KT 40SM 30/09 A3006 RMK AO1 T03000094
ROUNDUP     |KRPX 282255Z AUTO 00000KT 40SM 36/10 A2996 RMK AO1 T03560100
SCOBEY      |K9S2 282255Z AUTO 32005KT 40SM 32/11 A3000 RMK AO1 T03220111
PLAINS      |KS34 282255Z AUTO 00000KT 7SM 39/09 A2994 RMK AO1 T03940089
MALTA       |KM75 282255Z AUTO 00000KT 40SM 38/14 A2993 RMK AO1 T03780139
EKALAKA     |K97M 282255Z AUTO 11007KT 40SM 31/14 A3003 RMK AO1 T03060139






000
SXUS55 KMSO 282243
OSOMSO
MONTANA AWOS SUMMARY
NATIONAL WEATHER SERVICE MISSOULA MT
443 PM MDT SUN JUN 28 2015

Montana AWOS Reports

LAUREL      |K6S8 282235Z AUTO 34017G22KT 25SM 32/11 A3006 RMK AO1 T03220111
ROUNDUP     |KRPX 282235Z AUTO 27004KT 40SM 35/09 A2997 RMK AO1 T03500094
MALTA       |KM75 282235Z AUTO 00000KT 40SM 37/13 A2993 RMK AO1 T03720128






000
SXUS55 KMSO 282223
OSOMSO
MONTANA AWOS SUMMARY
NATIONAL WEATHER SERVICE MISSOULA MT
423 PM MDT SUN JUN 28 2015

Montana AWOS Reports

TWIN BRIDGES|K7S1 282215Z AUTO VRB06KT 40SM 36/06 A3010 RMK AO1 T03560061
LAUREL      |K6S8 282215Z AUTO 00000KT 40SM 33/10 A3005 RMK AO1 T03330100
ROUNDUP     |KRPX 282215Z AUTO 27004KT 40SM 35/09 A2997 RMK AO1 T03500094
MALTA       |KM75 282215Z AUTO 00000KT 40SM 37/13 A2993 RMK AO1 T03670128






000
SXUS55 KMSO 282203
OSOMSO
MONTANA AWOS SUMMARY
NATIONAL WEATHER SERVICE MISSOULA MT
403 PM MDT SUN JUN 28 2015

Montana AWOS Reports

LAUREL      |K6S8 282155Z AUTO 00000KT 40SM 34/08 A3004 RMK AO1 T03390083
ROUNDUP     |KRPX 282155Z AUTO 25010G15KT 40SM 34/11 A2997 RMK AO1 T03390106
MALTA       |KM75 282155Z AUTO 00000KT 40SM 37/13 A2993 RMK AO1 T03670128
SCOBEY      |K9S2 282155Z AUTO 32008KT 40SM 33/11 A3000 RMK AO1 T03280106
PLAINS      |KS34 282155Z AUTO VRB04KT 5SM HZ 39/08 A2996 RMK AO1 T03890078
EKALAKA     |K97M 282155Z AUTO 00000KT 40SM 31/12 A3004 RMK AO1 T03110122






000
SXUS55 KMSO 282203
OSOMSO
MONTANA AWOS SUMMARY
NATIONAL WEATHER SERVICE MISSOULA MT
403 PM MDT SUN JUN 28 2015

Montana AWOS Reports

LAUREL      |K6S8 282155Z AUTO 00000KT 40SM 34/08 A3004 RMK AO1 T03390083
ROUNDUP     |KRPX 282155Z AUTO 25010G15KT 40SM 34/11 A2997 RMK AO1 T03390106
MALTA       |KM75 282155Z AUTO 00000KT 40SM 37/13 A2993 RMK AO1 T03670128
SCOBEY      |K9S2 282155Z AUTO 32008KT 40SM 33/11 A3000 RMK AO1 T03280106
PLAINS      |KS34 282155Z AUTO VRB04KT 5SM HZ 39/08 A2996 RMK AO1 T03890078
EKALAKA     |K97M 282155Z AUTO 00000KT 40SM 31/12 A3004 RMK AO1 T03110122






000
SXUS55 KMSO 282143
OSOMSO
MONTANA AWOS SUMMARY
NATIONAL WEATHER SERVICE MISSOULA MT
343 PM MDT SUN JUN 28 2015

Montana AWOS Reports

LAUREL      |K6S8 282135Z AUTO 00000KT 40SM 34/08 A3004 RMK AO1 T03390083
ROUNDUP     |KRPX 282135Z AUTO 25012G17KT 40SM 32/11 A2997 RMK AO1 T03220111
MALTA       |KM75 282135Z AUTO 00000KT 40SM 36/12 A2993 RMK AO1 T03610122






000
SXUS55 KMSO 282143
OSOMSO
MONTANA AWOS SUMMARY
NATIONAL WEATHER SERVICE MISSOULA MT
343 PM MDT SUN JUN 28 2015

Montana AWOS Reports

LAUREL      |K6S8 282135Z AUTO 00000KT 40SM 34/08 A3004 RMK AO1 T03390083
ROUNDUP     |KRPX 282135Z AUTO 25012G17KT 40SM 32/11 A2997 RMK AO1 T03220111
MALTA       |KM75 282135Z AUTO 00000KT 40SM 36/12 A2993 RMK AO1 T03610122






000
SXUS55 KMSO 282133
OSOMSO
MONTANA AWOS SUMMARY
NATIONAL WEATHER SERVICE MISSOULA MT
333 PM MDT SUN JUN 28 2015

Montana AWOS Reports

MALTA       |KM75 282115Z AUTO 00000KT 40SM 37/12 A2994 RMK AO1 T03670122






000
SXUS55 KMSO 282133
OSOMSO
MONTANA AWOS SUMMARY
NATIONAL WEATHER SERVICE MISSOULA MT
333 PM MDT SUN JUN 28 2015

Montana AWOS Reports

MALTA       |KM75 282115Z AUTO 00000KT 40SM 37/12 A2994 RMK AO1 T03670122






000
SXUS55 KMSO 282123
OSOMSO
MONTANA AWOS SUMMARY
NATIONAL WEATHER SERVICE MISSOULA MT
323 PM MDT SUN JUN 28 2015

Montana AWOS Reports

LAUREL      |K6S8 282115Z AUTO 00000KT 40SM 34/08 A3004 RMK AO1 T03390083
TWIN BRIDGES|K7S1 282115Z AUTO 20006KT 40SM 34/11 A3011 RMK AO1 T03440106
ROUNDUP     |KRPX 282115Z AUTO 30004KT 40SM 34/08 A2997 RMK AO1 T03390083






000
SXUS55 KMSO 282123
OSOMSO
MONTANA AWOS SUMMARY
NATIONAL WEATHER SERVICE MISSOULA MT
323 PM MDT SUN JUN 28 2015

Montana AWOS Reports

LAUREL      |K6S8 282115Z AUTO 00000KT 40SM 34/08 A3004 RMK AO1 T03390083
TWIN BRIDGES|K7S1 282115Z AUTO 20006KT 40SM 34/11 A3011 RMK AO1 T03440106
ROUNDUP     |KRPX 282115Z AUTO 30004KT 40SM 34/08 A2997 RMK AO1 T03390083






000
SXUS55 KMSO 282113
OSOMSO
MONTANA AWOS SUMMARY
NATIONAL WEATHER SERVICE MISSOULA MT
312 PM MDT SUN JUN 28 2015

Montana AWOS Reports

SCOBEY      |K9S2 282055Z AUTO 35006KT 40SM 32/11 A3001 RMK AO1 T03220111






000
SXUS55 KMSO 282113
OSOMSO
MONTANA AWOS SUMMARY
NATIONAL WEATHER SERVICE MISSOULA MT
312 PM MDT SUN JUN 28 2015

Montana AWOS Reports

SCOBEY      |K9S2 282055Z AUTO 35006KT 40SM 32/11 A3001 RMK AO1 T03220111






000
SXUS55 KMSO 282103
OSOMSO
MONTANA AWOS SUMMARY
NATIONAL WEATHER SERVICE MISSOULA MT
303 PM MDT SUN JUN 28 2015

Montana AWOS Reports

LAUREL      |K6S8 282055Z AUTO 00000KT 40SM 34/08 A3005 RMK AO1 T03390083
ROUNDUP     |KRPX 282055Z AUTO 29007KT 40SM 34/09 A2997 RMK AO1 T03440089
MALTA       |KM75 282055Z AUTO 00000KT 40SM 36/12 A2994 RMK AO1 T03610122
EKALAKA     |K97M 282055Z AUTO VRB06KT 40SM 31/13 A3005 RMK AO1 T03110128
PLAINS      |KS34 282055Z AUTO 00000KT 5SM HZ 39/06 A2998 RMK AO1 T03940061






000
SXUS55 KMSO 282044
OSOMSO
MONTANA AWOS SUMMARY
NATIONAL WEATHER SERVICE MISSOULA MT
243 PM MDT SUN JUN 28 2015

Montana AWOS Reports

LAUREL      |K6S8 282035Z AUTO 06004KT 40SM 34/08 A3004 RMK AO1 T03440083
ROUNDUP     |KRPX 282035Z AUTO 29007KT 40SM 35/09 A2997 RMK AO1 T03500089
MALTA       |KM75 282035Z AUTO 00000KT 40SM 36/12 A2994 RMK AO1 T03610122






000
SXUS55 KMSO 282023
OSOMSO
MONTANA AWOS SUMMARY
NATIONAL WEATHER SERVICE MISSOULA MT
223 PM MDT SUN JUN 28 2015

Montana AWOS Reports

LAUREL      |K6S8 282015Z AUTO 04004KT 40SM 35/09 A3004 RMK AO1 T03500094
ROUNDUP     |KRPX 282015Z AUTO 04006KT 40SM 36/08 A2997 RMK AO1 T03610083
MALTA       |KM75 282015Z AUTO 00000KT 40SM 36/13 A2995 RMK AO1 T03560128






000
SXUS55 KMSO 282013
OSOMSO
MONTANA AWOS SUMMARY
NATIONAL WEATHER SERVICE MISSOULA MT
213 PM MDT SUN JUN 28 2015

Montana AWOS Reports

EKALAKA     |K97M 281955Z AUTO 09005KT 40SM 31/13 A3007 RMK AO1 T03060128






000
SXUS55 KMSO 282003
OSOMSO
MONTANA AWOS SUMMARY
NATIONAL WEATHER SERVICE MISSOULA MT
203 PM MDT SUN JUN 28 2015

Montana AWOS Reports

PLAINS      |KS34 281955Z AUTO 00000KT 5SM HZ 38/09 A3000 RMK AO1 T03830089






000
SXUS55 KMSO 281943
OSOMSO
MONTANA AWOS SUMMARY
NATIONAL WEATHER SERVICE MISSOULA MT
143 PM MDT SUN JUN 28 2015

Montana AWOS Reports

LAUREL      |K6S8 281935Z AUTO 00000KT 40SM 34/09 A3005 RMK AO1 T03440094
ROUNDUP     |KRPX 281935Z AUTO 04004KT 40SM 36/08 A2997 RMK AO1 T03560083
MALTA       |KM75 281935Z AUTO 00000KT 40SM 34/13 A2995 RMK AO1 T03440128






000
SXUS55 KMSO 281923
OSOMSO
MONTANA AWOS SUMMARY
NATIONAL WEATHER SERVICE MISSOULA MT
122 PM MDT SUN JUN 28 2015

Montana AWOS Reports

TWIN BRIDGES|K7S1 281915Z AUTO 19004KT 40SM 32/09 A3014 RMK AO1 T03220089
LAUREL      |K6S8 281915Z AUTO 00000KT 40SM 34/12 A3005 RMK AO1 T03390122
ROUNDUP     |KRPX 281915Z AUTO 02008KT 40SM 36/08 A2997 RMK AO1 T03610083
MALTA       |KM75 281915Z AUTO 00000KT 40SM 34/12 A2995 RMK AO1 T03440122






000
SXUS55 KMSO 281913
OSOMSO
MONTANA AWOS SUMMARY
NATIONAL WEATHER SERVICE MISSOULA MT
113 PM MDT SUN JUN 28 2015

Montana AWOS Reports

SCOBEY      |K9S2 281855Z AUTO 36004KT 40SM 31/10 A3002 RMK AO1 T03110100
EKALAKA     |K97M 281855Z AUTO 12005KT 40SM 30/12 A3008 RMK AO1 T03000117






000
SXUS55 KMSO 281903
OSOMSO
MONTANA AWOS SUMMARY
NATIONAL WEATHER SERVICE MISSOULA MT
103 PM MDT SUN JUN 28 2015

Montana AWOS Reports

LAUREL      |K6S8 281855Z AUTO 00000KT 40SM 33/12 A3006 RMK AO1 T03330117
ROUNDUP     |KRPX 281855Z AUTO 34004KT 40SM 36/08 A2997 RMK AO1 T03560083
MALTA       |KM75 281855Z AUTO 00000KT 40SM 34/12 A2996 RMK AO1 T03390122
PLAINS      |KS34 281855Z AUTO 00000KT 4SM HZ 36/12 A3002 RMK AO1 T03610117






000
SXUS55 KMSO 281903
OSOMSO
MONTANA AWOS SUMMARY
NATIONAL WEATHER SERVICE MISSOULA MT
103 PM MDT SUN JUN 28 2015

Montana AWOS Reports

LAUREL      |K6S8 281855Z AUTO 00000KT 40SM 33/12 A3006 RMK AO1 T03330117
ROUNDUP     |KRPX 281855Z AUTO 34004KT 40SM 36/08 A2997 RMK AO1 T03560083
MALTA       |KM75 281855Z AUTO 00000KT 40SM 34/12 A2996 RMK AO1 T03390122
PLAINS      |KS34 281855Z AUTO 00000KT 4SM HZ 36/12 A3002 RMK AO1 T03610117






000
SXUS55 KMSO 281843
OSOMSO
MONTANA AWOS SUMMARY
NATIONAL WEATHER SERVICE MISSOULA MT
1243 PM MDT SUN JUN 28 2015

Montana AWOS Reports

LAUREL      |K6S8 281835Z AUTO 00000KT 40SM 33/13 A3006 RMK AO1 T03280133
ROUNDUP     |KRPX 281835Z AUTO 35012KT 40SM 35/09 A2997 RMK AO1 T03500094
MALTA       |KM75 281835Z AUTO 00000KT 40SM 33/12 A2996 RMK AO1 T03330117






000
SXUS55 KMSO 281833
OSOMSO
MONTANA AWOS SUMMARY
NATIONAL WEATHER SERVICE MISSOULA MT
1233 PM MDT SUN JUN 28 2015

Montana AWOS Reports

MALTA       |KM75 281815Z AUTO 00000KT 40SM 32/12 A2996 RMK AO1 T03220122






000
SXUS55 KMSO 281823
OSOMSO
MONTANA AWOS SUMMARY
NATIONAL WEATHER SERVICE MISSOULA MT
1223 PM MDT SUN JUN 28 2015

Montana AWOS Reports

TWIN BRIDGES|K7S1 281815Z AUTO 19005KT 40SM 29/10 A3016 RMK AO1 T02940100
LAUREL      |K6S8 281815Z AUTO 00000KT 40SM 32/13 A3006 RMK AO1 T03220128
ROUNDUP     |KRPX 281815Z AUTO 00000KT 40SM 35/09 A2998 RMK AO1 T03500094






000
SXUS55 KMSO 281813
OSOMSO
MONTANA AWOS SUMMARY
NATIONAL WEATHER SERVICE MISSOULA MT
1213 PM MDT SUN JUN 28 2015

Montana AWOS Reports

SCOBEY      |K9S2 281755Z AUTO 03004KT 40SM 31/09 A3003 RMK AO1 T03060094






000
SXUS55 KMSO 281813
OSOMSO
MONTANA AWOS SUMMARY
NATIONAL WEATHER SERVICE MISSOULA MT
1213 PM MDT SUN JUN 28 2015

Montana AWOS Reports

SCOBEY      |K9S2 281755Z AUTO 03004KT 40SM 31/09 A3003 RMK AO1 T03060094






000
SXUS55 KMSO 281803
OSOMSO
MONTANA AWOS SUMMARY
NATIONAL WEATHER SERVICE MISSOULA MT
1203 PM MDT SUN JUN 28 2015

Montana AWOS Reports

LAUREL      |K6S8 281755Z AUTO 00000KT 40SM 31/13 A3006 RMK AO1 T03110128
ROUNDUP     |KRPX 281755Z AUTO 22005KT 40SM 34/08 A2998 RMK AO1 T03390083
EKALAKA     |K97M 281755Z AUTO 11007KT 40SM 29/12 A3008 RMK AO1 T02940117
PLAINS      |KS34 281755Z AUTO 00000KT 4SM HZ 33/11 A3004 RMK AO1 T03280111
MALTA       |KM75 281755Z AUTO 00000KT 40SM 32/12 A2996 RMK AO1 T03220117






000
SXUS55 KMSO 281743
OSOMSO
MONTANA AWOS SUMMARY
NATIONAL WEATHER SERVICE MISSOULA MT
1142 AM MDT SUN JUN 28 2015

Montana AWOS Reports

LAUREL      |K6S8 281735Z AUTO 00000KT 40SM 31/13 A3006 RMK AO1 T03110128
TWIN BRIDGES|K7S1 281735Z AUTO 19004KT 40SM 27/09 A3016 RMK AO1 T02720094
ROUNDUP     |KRPX 281735Z AUTO 00000KT 40SM 33/10 A2998 RMK AO1 T03280100
MALTA       |KM75 281735Z AUTO 00000KT 40SM 32/13 A2996 RMK AO1 T03170128






000
SXUS55 KMSO 281723
OSOMSO
MONTANA AWOS SUMMARY
NATIONAL WEATHER SERVICE MISSOULA MT
1123 AM MDT SUN JUN 28 2015

Montana AWOS Reports

LAUREL      |K6S8 281715Z AUTO VRB04KT 40SM 30/12 A3007 RMK AO1 T03000122
ROUNDUP     |KRPX 281715Z AUTO 00000KT 40SM 32/11 A2998 RMK AO1 T03220111
MALTA       |KM75 281715Z AUTO 00000KT 40SM 31/13 A2996 RMK AO1 T03110128






000
SXUS55 KMSO 281703
OSOMSO
MONTANA AWOS SUMMARY
NATIONAL WEATHER SERVICE MISSOULA MT
1103 AM MDT SUN JUN 28 2015

Montana AWOS Reports

LAUREL      |K6S8 281655Z AUTO 00000KT 40SM 29/13 A3007 RMK AO1 T02890128
ROUNDUP     |KRPX 281655Z AUTO 00000KT 40SM 31/12 A2998 RMK AO1 T03110117
MALTA       |KM75 281655Z AUTO 00000KT 40SM 31/12 A2996 RMK AO1 T03060122
SCOBEY      |K9S2 281655Z AUTO 00000KT 40SM 29/09 A3003 RMK AO1 T02940089
TWIN BRIDGES|K7S1 281655Z AUTO 19007KT 40SM 26/10 A3017 RMK AO1 T02560100
EKALAKA     |K97M 281655Z AUTO 12005KT 40SM 28/12 A3008 RMK AO1 T02780117
PLAINS      |KS34 281655Z AUTO 00000KT 3 1/2SM HZ 29/11 A3005 RMK AO1 T02940106






000
SXUS55 KMSO 281643
OSOMSO
MONTANA AWOS SUMMARY
NATIONAL WEATHER SERVICE MISSOULA MT
1043 AM MDT SUN JUN 28 2015

Montana AWOS Reports

LAUREL      |K6S8 281635Z AUTO 18004KT 40SM 28/13 A3007 RMK AO1 T02830133
ROUNDUP     |KRPX 281635Z AUTO 20004KT 40SM 30/12 A2998 RMK AO1 T03000122
MALTA       |KM75 281635Z AUTO 00000KT 40SM 30/12 A2996 RMK AO1 T03000122






000
SXUS55 KMSO 281623
OSOMSO
MONTANA AWOS SUMMARY
NATIONAL WEATHER SERVICE MISSOULA MT
1022 AM MDT SUN JUN 28 2015

Montana AWOS Reports

LAUREL      |K6S8 281615Z AUTO 19005KT 40SM 27/12 A3007 RMK AO1 T02720122
ROUNDUP     |KRPX 281615Z AUTO 00000KT 40SM 29/12 A2998 RMK AO1 T02890117
MALTA       |KM75 281615Z AUTO 00000KT 40SM 29/12 A2996 RMK AO1 T02890122






000
SXUS55 KMSO 281613
OSOMSO
MONTANA AWOS SUMMARY
NATIONAL WEATHER SERVICE MISSOULA MT
1013 AM MDT SUN JUN 28 2015

Montana AWOS Reports

PLAINS      |KS34 281555Z AUTO 00000KT 4SM HZ 26/10 A3007 RMK AO1 T02610100
SCOBEY      |K9S2 281555Z AUTO 00000KT 40SM 27/09 A3004 RMK AO1 T02670094
EKALAKA     |K97M 281555Z AUTO 11008KT 40SM 27/11 A3008 RMK AO1 T02670106






000
SXUS55 KMSO 281603
OSOMSO
MONTANA AWOS SUMMARY
NATIONAL WEATHER SERVICE MISSOULA MT
1003 AM MDT SUN JUN 28 2015

Montana AWOS Reports

LAUREL      |K6S8 281555Z AUTO 18005KT 40SM 26/12 A3007 RMK AO1 T02610117
ROUNDUP     |KRPX 281555Z AUTO 20006KT 40SM 27/12 A2998 RMK AO1 T02720122
MALTA       |KM75 281555Z AUTO 00000KT 40SM 28/12 A2997 RMK AO1 T02830122






000
SXUS55 KMSO 281553
OSOMSO
MONTANA AWOS SUMMARY
NATIONAL WEATHER SERVICE MISSOULA MT
953 AM MDT SUN JUN 28 2015

Montana AWOS Reports

LAUREL      |K6S8 281535Z AUTO 20005KT 40SM 25/12 A3007 RMK AO1 T02500117
ROUNDUP     |KRPX 281535Z AUTO 19004KT 40SM 26/12 A2999 RMK AO1 T02610122
MALTA       |KM75 281535Z AUTO 00000KT 40SM 28/13 A2997 RMK AO1 T02780128






000
SXUS55 KMSO 281543
OSOMSO
MONTANA AWOS SUMMARY
NATIONAL WEATHER SERVICE MISSOULA MT
943 AM MDT SUN JUN 28 2015

Montana AWOS Reports

TWIN BRIDGES|K7S1 281535Z AUTO 00000KT 40SM 20/11 A3018 RMK AO1 T02000106






000
SXUS55 KMSO 281524
OSOMSO
MONTANA AWOS SUMMARY
NATIONAL WEATHER SERVICE MISSOULA MT
923 AM MDT SUN JUN 28 2015

Montana AWOS Reports

EKALAKA     |K97M 281455Z AUTO 11009KT 40SM 24/10 A3008 RMK AO1 T02440100
TWIN BRIDGES|K7S1 281515Z AUTO 00000KT 40SM 20/11 A3018 RMK AO1 T02000106
LAUREL      |K6S8 281515Z AUTO 21006KT 40SM 24/11 A3008 RMK AO1 T02390111
ROUNDUP     |KRPX 281515Z AUTO 19005KT 40SM 24/11 A2999 RMK AO1 T02440111
MALTA       |KM75 281515Z AUTO 00000KT 40SM 27/12 A2997 RMK AO1 T02720122






000
SXUS55 KMSO 281524
OSOMSO
MONTANA AWOS SUMMARY
NATIONAL WEATHER SERVICE MISSOULA MT
923 AM MDT SUN JUN 28 2015

Montana AWOS Reports

EKALAKA     |K97M 281455Z AUTO 11009KT 40SM 24/10 A3008 RMK AO1 T02440100
TWIN BRIDGES|K7S1 281515Z AUTO 00000KT 40SM 20/11 A3018 RMK AO1 T02000106
LAUREL      |K6S8 281515Z AUTO 21006KT 40SM 24/11 A3008 RMK AO1 T02390111
ROUNDUP     |KRPX 281515Z AUTO 19005KT 40SM 24/11 A2999 RMK AO1 T02440111
MALTA       |KM75 281515Z AUTO 00000KT 40SM 27/12 A2997 RMK AO1 T02720122






000
SXUS55 KMSO 281503
OSOMSO
MONTANA AWOS SUMMARY
NATIONAL WEATHER SERVICE MISSOULA MT
903 AM MDT SUN JUN 28 2015

Montana AWOS Reports

LAUREL      |K6S8 281455Z AUTO 17004KT 40SM 23/12 A3008 RMK AO1 T02280122
ROUNDUP     |KRPX 281455Z AUTO 20007KT 40SM 23/11 A2999 RMK AO1 T02330111
MALTA       |KM75 281455Z AUTO 00000KT 40SM 26/13 A2997 RMK AO1 T02610128






000
SXUS55 KMSO 281443
OSOMSO
MONTANA AWOS SUMMARY
NATIONAL WEATHER SERVICE MISSOULA MT
843 AM MDT SUN JUN 28 2015

Montana AWOS Reports

LAUREL      |K6S8 281435Z AUTO 00000KT 40SM 22/12 A3007 RMK AO1 T02170122
ROUNDUP     |KRPX 281435Z AUTO 19005KT 40SM 22/11 A2998 RMK AO1 T02220111
MALTA       |KM75 281435Z AUTO 00000KT 40SM 25/13 A2997 RMK AO1 T02500133






000
SXUS55 KMSO 281443
OSOMSO
MONTANA AWOS SUMMARY
NATIONAL WEATHER SERVICE MISSOULA MT
843 AM MDT SUN JUN 28 2015

Montana AWOS Reports

LAUREL      |K6S8 281435Z AUTO 00000KT 40SM 22/12 A3007 RMK AO1 T02170122
ROUNDUP     |KRPX 281435Z AUTO 19005KT 40SM 22/11 A2998 RMK AO1 T02220111
MALTA       |KM75 281435Z AUTO 00000KT 40SM 25/13 A2997 RMK AO1 T02500133






000
SXUS55 KMSO 281423
OSOMSO
MONTANA AWOS SUMMARY
NATIONAL WEATHER SERVICE MISSOULA MT
823 AM MDT SUN JUN 28 2015

Montana AWOS Reports

TWIN BRIDGES|K7S1 281415Z AUTO 16005KT 40SM 21/09 A3018 RMK AO1 T02060089
LAUREL      |K6S8 281415Z AUTO 00000KT 40SM 21/12 A3007 RMK AO1 T02060117
ROUNDUP     |KRPX 281415Z AUTO 21008KT 40SM 21/11 A2998 RMK AO1 T02110106
MALTA       |KM75 281415Z AUTO 00000KT 40SM 24/13 A2997 RMK AO1 T02390133






000
SXUS55 KMSO 281423
OSOMSO
MONTANA AWOS SUMMARY
NATIONAL WEATHER SERVICE MISSOULA MT
823 AM MDT SUN JUN 28 2015

Montana AWOS Reports

TWIN BRIDGES|K7S1 281415Z AUTO 16005KT 40SM 21/09 A3018 RMK AO1 T02060089
LAUREL      |K6S8 281415Z AUTO 00000KT 40SM 21/12 A3007 RMK AO1 T02060117
ROUNDUP     |KRPX 281415Z AUTO 21008KT 40SM 21/11 A2998 RMK AO1 T02110106
MALTA       |KM75 281415Z AUTO 00000KT 40SM 24/13 A2997 RMK AO1 T02390133






000
SXUS55 KMSO 281403
OSOMSO
MONTANA AWOS SUMMARY
NATIONAL WEATHER SERVICE MISSOULA MT
802 AM MDT SUN JUN 28 2015

Montana AWOS Reports

TWIN BRIDGES|K7S1 281355Z AUTO 12005KT 40SM 20/07 A3017 RMK AO1 T02000072
LAUREL      |K6S8 281355Z AUTO 21004KT 40SM 19/12 A3007 RMK AO1 T01940117
ROUNDUP     |KRPX 281355Z AUTO 21005KT 40SM 20/11 A2998 RMK AO1 T02000106
MALTA       |KM75 281355Z AUTO 00000KT 40SM 23/13 A2996 RMK AO1 T02280128
SCOBEY      |K9S2 281355Z AUTO 40SM 19/11 A3004 RMK AO1 T01940106
EKALAKA     |K97M 281355Z AUTO 11008KT 40SM 22/11 A3007 RMK AO1 T02220106
PLAINS      |KS34 281355Z AUTO 00000KT 4SM HZ 18/13 A3007 RMK AO1 T01830133






000
SXUS55 KMSO 281343
OSOMSO
MONTANA AWOS SUMMARY
NATIONAL WEATHER SERVICE MISSOULA MT
743 AM MDT SUN JUN 28 2015

Montana AWOS Reports

LAUREL      |K6S8 281335Z AUTO 00000KT 40SM 19/11 A3006 RMK AO1 T01940111
ROUNDUP     |KRPX 281335Z AUTO 21007KT 40SM 19/10 A2998 RMK AO1 T01890100
MALTA       |KM75 281335Z AUTO 00000KT 40SM 22/12 A2996 RMK AO1 T02220122






000
SXUS55 KMSO 281343
OSOMSO
MONTANA AWOS SUMMARY
NATIONAL WEATHER SERVICE MISSOULA MT
743 AM MDT SUN JUN 28 2015

Montana AWOS Reports

LAUREL      |K6S8 281335Z AUTO 00000KT 40SM 19/11 A3006 RMK AO1 T01940111
ROUNDUP     |KRPX 281335Z AUTO 21007KT 40SM 19/10 A2998 RMK AO1 T01890100
MALTA       |KM75 281335Z AUTO 00000KT 40SM 22/12 A2996 RMK AO1 T02220122






000
SXUS55 KMSO 281323
OSOMSO
MONTANA AWOS SUMMARY
NATIONAL WEATHER SERVICE MISSOULA MT
723 AM MDT SUN JUN 28 2015

Montana AWOS Reports

LAUREL      |K6S8 281315Z AUTO 21005KT 40SM 17/11 A3006 RMK AO1 T01720106
TWIN BRIDGES|K7S1 281315Z AUTO 13004KT 40SM 16/07 A3016 RMK AO1 T01610072
ROUNDUP     |KRPX 281315Z AUTO 21006KT 40SM 18/10 A2998 RMK AO1 T01830100
MALTA       |KM75 281315Z AUTO 00000KT 40SM 22/12 A2996 RMK AO1 T02170122






000
SXUS55 KMSO 281303
OSOMSO
MONTANA AWOS SUMMARY
NATIONAL WEATHER SERVICE MISSOULA MT
702 AM MDT SUN JUN 28 2015

Montana AWOS Reports

LAUREL      |K6S8 281255Z AUTO 00000KT 40SM 18/11 A3006 RMK AO1 T01780111
TWIN BRIDGES|K7S1 281255Z AUTO 00000KT 40SM 14/07 A3016 RMK AO1 T01390072
ROUNDUP     |KRPX 281255Z AUTO 20007KT 40SM 18/09 A2997 RMK AO1 T01780089
MALTA       |KM75 281255Z AUTO 00000KT 40SM 21/12 A2996 RMK AO1 T02060117
PLAINS      |KS34 281255Z AUTO 00000KT 7SM 17/11 A3005 RMK AO1 T01670106
SCOBEY      |K9S2 281255Z AUTO 40SM 14/09 A3004 RMK AO1 T01390089
EKALAKA     |K97M 281255Z AUTO 13008KT 40SM 21/10 A3006 RMK AO1 T02060100






000
SXUS55 KMSO 281303
OSOMSO
MONTANA AWOS SUMMARY
NATIONAL WEATHER SERVICE MISSOULA MT
702 AM MDT SUN JUN 28 2015

Montana AWOS Reports

LAUREL      |K6S8 281255Z AUTO 00000KT 40SM 18/11 A3006 RMK AO1 T01780111
TWIN BRIDGES|K7S1 281255Z AUTO 00000KT 40SM 14/07 A3016 RMK AO1 T01390072
ROUNDUP     |KRPX 281255Z AUTO 20007KT 40SM 18/09 A2997 RMK AO1 T01780089
MALTA       |KM75 281255Z AUTO 00000KT 40SM 21/12 A2996 RMK AO1 T02060117
PLAINS      |KS34 281255Z AUTO 00000KT 7SM 17/11 A3005 RMK AO1 T01670106
SCOBEY      |K9S2 281255Z AUTO 40SM 14/09 A3004 RMK AO1 T01390089
EKALAKA     |K97M 281255Z AUTO 13008KT 40SM 21/10 A3006 RMK AO1 T02060100






000
SXUS55 KMSO 281253
OSOMSO
MONTANA AWOS SUMMARY
NATIONAL WEATHER SERVICE MISSOULA MT
653 AM MDT SUN JUN 28 2015

Montana AWOS Reports

LAUREL      |K6S8 281235Z AUTO 00000KT 40SM 18/11 A3005 RMK AO1 T01780111
ROUNDUP     |KRPX 281235Z AUTO 20007KT 40SM 18/09 A2997 RMK AO1 T01830094
MALTA       |KM75 281235Z AUTO 00000KT 40SM 19/12 A2996 RMK AO1 T01940117






000
SXUS55 KMSO 281243
OSOMSO
MONTANA AWOS SUMMARY
NATIONAL WEATHER SERVICE MISSOULA MT
643 AM MDT SUN JUN 28 2015

Montana AWOS Reports

TWIN BRIDGES|K7S1 281235Z AUTO 00000KT 40SM 14/08 A3015 RMK AO1 T01390078






000
SXUS55 KMSO 281243
OSOMSO
MONTANA AWOS SUMMARY
NATIONAL WEATHER SERVICE MISSOULA MT
643 AM MDT SUN JUN 28 2015

Montana AWOS Reports

TWIN BRIDGES|K7S1 281235Z AUTO 00000KT 40SM 14/08 A3015 RMK AO1 T01390078






000
SXUS55 KMSO 281223
OSOMSO
MONTANA AWOS SUMMARY
NATIONAL WEATHER SERVICE MISSOULA MT
623 AM MDT SUN JUN 28 2015

Montana AWOS Reports

TWIN BRIDGES|K7S1 281215Z AUTO 00000KT 40SM 14/04 A3015 RMK AO1 T01390044
LAUREL      |K6S8 281215Z AUTO 00000KT 40SM 17/11 A3005 RMK AO1 T01720106
ROUNDUP     |KRPX 281215Z AUTO 22007KT 40SM 18/09 A2997 RMK AO1 T01780089
MALTA       |KM75 281215Z AUTO 00000KT 40SM 19/11 A2996 RMK AO1 T01890111






000
SXUS55 KMSO 281213
OSOMSO
MONTANA AWOS SUMMARY
NATIONAL WEATHER SERVICE MISSOULA MT
612 AM MDT SUN JUN 28 2015

Montana AWOS Reports

SCOBEY      |K9S2 281155Z AUTO 40SM 12/08 A3004 RMK AO1 T01170078
EKALAKA     |K97M 281155Z AUTO 12008KT 40SM 18/09 A3006 RMK AO1 T01830089
PLAINS      |KS34 281155Z AUTO 00000KT 5SM HZ 17/10 A3005 RMK AO1 T01670100






000
SXUS55 KMSO 281213
OSOMSO
MONTANA AWOS SUMMARY
NATIONAL WEATHER SERVICE MISSOULA MT
612 AM MDT SUN JUN 28 2015

Montana AWOS Reports

SCOBEY      |K9S2 281155Z AUTO 40SM 12/08 A3004 RMK AO1 T01170078
EKALAKA     |K97M 281155Z AUTO 12008KT 40SM 18/09 A3006 RMK AO1 T01830089
PLAINS      |KS34 281155Z AUTO 00000KT 5SM HZ 17/10 A3005 RMK AO1 T01670100






000
SXUS55 KMSO 281203
OSOMSO
MONTANA AWOS SUMMARY
NATIONAL WEATHER SERVICE MISSOULA MT
603 AM MDT SUN JUN 28 2015

Montana AWOS Reports

LAUREL      |K6S8 281155Z AUTO 00000KT 40SM 17/10 A3004 RMK AO1 T01670100
ROUNDUP     |KRPX 281155Z AUTO 23005KT 40SM 17/08 A2997 RMK AO1 T01670083
MALTA       |KM75 281155Z AUTO 00000KT 40SM 18/11 A2996 RMK AO1 T01780111






000
SXUS55 KMSO 281203
OSOMSO
MONTANA AWOS SUMMARY
NATIONAL WEATHER SERVICE MISSOULA MT
603 AM MDT SUN JUN 28 2015

Montana AWOS Reports

LAUREL      |K6S8 281155Z AUTO 00000KT 40SM 17/10 A3004 RMK AO1 T01670100
ROUNDUP     |KRPX 281155Z AUTO 23005KT 40SM 17/08 A2997 RMK AO1 T01670083
MALTA       |KM75 281155Z AUTO 00000KT 40SM 18/11 A2996 RMK AO1 T01780111






000
SXUS55 KMSO 281144
OSOMSO
MONTANA AWOS SUMMARY
NATIONAL WEATHER SERVICE MISSOULA MT
543 AM MDT SUN JUN 28 2015

Montana AWOS Reports

LAUREL      |K6S8 281135Z AUTO 00000KT 40SM 16/10 A3005 RMK AO1 T01560100
ROUNDUP     |KRPX 281135Z AUTO 23004KT 40SM 17/08 A2996 RMK AO1 T01720083
MALTA       |KM75 281135Z AUTO 00000KT 40SM 18/11 A2996 RMK AO1 T01780106






000
SXUS55 KMSO 281123
OSOMSO
MONTANA AWOS SUMMARY
NATIONAL WEATHER SERVICE MISSOULA MT
523 AM MDT SUN JUN 28 2015

Montana AWOS Reports

LAUREL      |K6S8 281115Z AUTO 00000KT 40SM 16/10 A3004 RMK AO1 T01560100
ROUNDUP     |KRPX 281115Z AUTO 00000KT 40SM 17/08 A2996 RMK AO1 T01720083
MALTA       |KM75 281115Z AUTO 00000KT 40SM 18/11 A2996 RMK AO1 T01780106






000
SXUS55 KMSO 281113
OSOMSO
MONTANA AWOS SUMMARY
NATIONAL WEATHER SERVICE MISSOULA MT
512 AM MDT SUN JUN 28 2015

Montana AWOS Reports

EKALAKA     |K97M 281055Z AUTO 13007KT 40SM 17/08 A3006 RMK AO1 T01720083






000
SXUS55 KMSO 281113
OSOMSO
MONTANA AWOS SUMMARY
NATIONAL WEATHER SERVICE MISSOULA MT
512 AM MDT SUN JUN 28 2015

Montana AWOS Reports

EKALAKA     |K97M 281055Z AUTO 13007KT 40SM 17/08 A3006 RMK AO1 T01720083






000
SXUS55 KMSO 281103
OSOMSO
MONTANA AWOS SUMMARY
NATIONAL WEATHER SERVICE MISSOULA MT
503 AM MDT SUN JUN 28 2015

Montana AWOS Reports

LAUREL      |K6S8 281055Z AUTO 00000KT 40SM 15/10 A3004 RMK AO1 T01500100
ROUNDUP     |KRPX 281055Z AUTO 00000KT 40SM 17/08 A2996 RMK AO1 T01720083
MALTA       |KM75 281055Z AUTO 00000KT 40SM 18/11 A2995 RMK AO1 T01830106
SCOBEY      |K9S2 281055Z AUTO 40SM 12/07 A3004 RMK AO1 T01170072
PLAINS      |KS34 281055Z AUTO 00000KT 5SM HZ 17/11 A3004 RMK AO1 T01670106






000
SXUS55 KMSO 281103
OSOMSO
MONTANA AWOS SUMMARY
NATIONAL WEATHER SERVICE MISSOULA MT
503 AM MDT SUN JUN 28 2015

Montana AWOS Reports

LAUREL      |K6S8 281055Z AUTO 00000KT 40SM 15/10 A3004 RMK AO1 T01500100
ROUNDUP     |KRPX 281055Z AUTO 00000KT 40SM 17/08 A2996 RMK AO1 T01720083
MALTA       |KM75 281055Z AUTO 00000KT 40SM 18/11 A2995 RMK AO1 T01830106
SCOBEY      |K9S2 281055Z AUTO 40SM 12/07 A3004 RMK AO1 T01170072
PLAINS      |KS34 281055Z AUTO 00000KT 5SM HZ 17/11 A3004 RMK AO1 T01670106






000
SXUS55 KMSO 281044
OSOMSO
MONTANA AWOS SUMMARY
NATIONAL WEATHER SERVICE MISSOULA MT
443 AM MDT SUN JUN 28 2015

Montana AWOS Reports

LAUREL      |K6S8 281035Z AUTO 00000KT 40SM 16/10 A3004 RMK AO1 T01560100
TWIN BRIDGES|K7S1 281035Z AUTO 00000KT 40SM 13/07 A3013 RMK AO1 T01330072
ROUNDUP     |KRPX 281035Z AUTO 00000KT 40SM 18/08 A2996 RMK AO1 T01780083
MALTA       |KM75 281035Z AUTO 00000KT 40SM 18/11 A2996 RMK AO1 T01830106






000
SXUS55 KMSO 281023
OSOMSO
MONTANA AWOS SUMMARY
NATIONAL WEATHER SERVICE MISSOULA MT
423 AM MDT SUN JUN 28 2015

Montana AWOS Reports

LAUREL      |K6S8 281015Z AUTO 00000KT 40SM 17/10 A3003 RMK AO1 T01670100
ROUNDUP     |KRPX 281015Z AUTO 00000KT 40SM 18/08 A2996 RMK AO1 T01780083
MALTA       |KM75 281015Z AUTO 00000KT 40SM 19/11 A2995 RMK AO1 T01890106






000
SXUS55 KMSO 281023
OSOMSO
MONTANA AWOS SUMMARY
NATIONAL WEATHER SERVICE MISSOULA MT
423 AM MDT SUN JUN 28 2015

Montana AWOS Reports

LAUREL      |K6S8 281015Z AUTO 00000KT 40SM 17/10 A3003 RMK AO1 T01670100
ROUNDUP     |KRPX 281015Z AUTO 00000KT 40SM 18/08 A2996 RMK AO1 T01780083
MALTA       |KM75 281015Z AUTO 00000KT 40SM 19/11 A2995 RMK AO1 T01890106






000
SXUS55 KMSO 281013
OSOMSO
MONTANA AWOS SUMMARY
NATIONAL WEATHER SERVICE MISSOULA MT
413 AM MDT SUN JUN 28 2015

Montana AWOS Reports

MALTA       |KM75 280955Z AUTO 00000KT 40SM 19/11 A2996 RMK AO1 T01890106
EKALAKA     |K97M 280955Z AUTO 13007KT 40SM 18/08 A3005 RMK AO1 T01830078
SCOBEY      |K9S2 280955Z AUTO 00000KT 40SM 13/08 A3004 RMK AO1 T01280078
PLAINS      |KS34 280955Z AUTO 00000KT 4SM HZ 18/11 A3003 RMK AO1 T01780111
TWIN BRIDGES|K7S1 280955Z AUTO 09004KT 40SM 14/07 A3013 RMK AO1 T01440067






000
SXUS55 KMSO 281003
OSOMSO
MONTANA AWOS SUMMARY
NATIONAL WEATHER SERVICE MISSOULA MT
402 AM MDT SUN JUN 28 2015

Montana AWOS Reports

LAUREL      |K6S8 280955Z AUTO 00000KT 40SM 16/09 A3003 RMK AO1 T01610094
TWIN BRIDGES|K7S1 280955Z AUTO 09004KT 40SM 14/07 A3013 RMK AO1 T01440067
ROUNDUP     |KRPX 280955Z AUTO 00000KT 40SM 17/08 A2996 RMK AO1 T01720083






000
SXUS55 KMSO 280944
OSOMSO
MONTANA AWOS SUMMARY
NATIONAL WEATHER SERVICE MISSOULA MT
343 AM MDT SUN JUN 28 2015

Montana AWOS Reports

LAUREL      |K6S8 280935Z AUTO 00000KT 40SM 17/10 A3003 RMK AO1 T01670100
ROUNDUP     |KRPX 280935Z AUTO 00000KT 40SM 18/08 A2996 RMK AO1 T01780083
MALTA       |KM75 280935Z AUTO 00000KT 40SM 19/11 A2996 RMK AO1 T01890106






000
SXUS55 KMSO 280923
OSOMSO
MONTANA AWOS SUMMARY
NATIONAL WEATHER SERVICE MISSOULA MT
322 AM MDT SUN JUN 28 2015

Montana AWOS Reports

LAUREL      |K6S8 280915Z AUTO 00000KT 40SM 18/10 A3003 RMK AO1 T01780100
ROUNDUP     |KRPX 280915Z AUTO 00000KT 40SM 18/08 A2996 RMK AO1 T01830083
MALTA       |KM75 280915Z AUTO 00000KT 40SM 18/11 A2996 RMK AO1 T01830111






000
SXUS55 KMSO 280913
OSOMSO
MONTANA AWOS SUMMARY
NATIONAL WEATHER SERVICE MISSOULA MT
313 AM MDT SUN JUN 28 2015

Montana AWOS Reports

LAUREL      |K6S8 280855Z AUTO 00000KT 40SM 18/10 A3003 RMK AO1 T01780100
ROUNDUP     |KRPX 280855Z AUTO 00000KT 40SM 18/08 A2997 RMK AO1 T01830083
MALTA       |KM75 280855Z AUTO 00000KT 40SM 17/11 A2996 RMK AO1 T01720106
SCOBEY      |K9S2 280855Z AUTO 40SM 13/08 A3003 RMK AO1 T01330083
PLAINS      |KS34 280855Z AUTO 00000KT 5SM HZ 19/11 A3002 RMK AO1 T01940106
EKALAKA     |K97M 280855Z AUTO 13006KT 40SM 19/07 A3007 RMK AO1 T01940072






000
SXUS55 KMSO 280903
OSOMSO
MONTANA AWOS SUMMARY
NATIONAL WEATHER SERVICE MISSOULA MT
302 AM MDT SUN JUN 28 2015

Montana AWOS Reports

TWIN BRIDGES|K7S1 280855Z AUTO 09004KT 40SM 19/06 A3013 RMK AO1 T01890056






000
SXUS55 KMSO 280843
OSOMSO
MONTANA AWOS SUMMARY
NATIONAL WEATHER SERVICE MISSOULA MT
243 AM MDT SUN JUN 28 2015

Montana AWOS Reports

LAUREL      |K6S8 280835Z AUTO 00000KT 40SM 18/11 A3003 RMK AO1 T01830106
ROUNDUP     |KRPX 280835Z AUTO 00000KT 40SM 19/08 A2996 RMK AO1 T01890078
MALTA       |KM75 280835Z AUTO 00000KT 40SM 19/11 A2996 RMK AO1 T01890111






000
SXUS55 KMSO 280824
OSOMSO
MONTANA AWOS SUMMARY
NATIONAL WEATHER SERVICE MISSOULA MT
223 AM MDT SUN JUN 28 2015

Montana AWOS Reports

LAUREL      |K6S8 280815Z AUTO 00000KT 40SM 18/11 A3003 RMK AO1 T01830106
ROUNDUP     |KRPX 280815Z AUTO 09004KT 40SM 19/07 A2996 RMK AO1 T01940072
MALTA       |KM75 280815Z AUTO 00000KT 40SM 19/11 A2996 RMK AO1 T01940106






000
SXUS55 KMSO 280803
OSOMSO
MONTANA AWOS SUMMARY
NATIONAL WEATHER SERVICE MISSOULA MT
203 AM MDT SUN JUN 28 2015

Montana AWOS Reports

LAUREL      |K6S8 280755Z AUTO 00000KT 40SM 19/11 A3003 RMK AO1 T01890106
ROUNDUP     |KRPX 280755Z AUTO 00000KT 40SM 22/07 A2997 RMK AO1 T02170072
MALTA       |KM75 280755Z AUTO 00000KT 40SM 21/11 A2996 RMK AO1 T02060106
SCOBEY      |K9S2 280755Z AUTO 40SM 13/08 A3004 RMK AO1 T01330083
EKALAKA     |K97M 280755Z AUTO 13004KT 40SM 17/09 A3008 RMK AO1 T01670094
PLAINS      |KS34 280755Z AUTO 00000KT 5SM HZ 21/13 A3002 RMK AO1 T02060128






000
SXUS55 KMSO 280743
OSOMSO
MONTANA AWOS SUMMARY
NATIONAL WEATHER SERVICE MISSOULA MT
143 AM MDT SUN JUN 28 2015

Montana AWOS Reports

TWIN BRIDGES|K7S1 280735Z AUTO 05005KT 40SM 21/03 A3013 RMK AO1 T02110033
LAUREL      |K6S8 280735Z AUTO 40SM 19/10 A3003 RMK AO1 T01890100
ROUNDUP     |KRPX 280735Z AUTO 00000KT 40SM 22/07 A2997 RMK AO1 T02220067
MALTA       |KM75 280735Z AUTO 00000KT 40SM 21/10 A2996 RMK AO1 T02110100






000
SXUS55 KMSO 280733
OSOMSO
MONTANA AWOS SUMMARY
NATIONAL WEATHER SERVICE MISSOULA MT
133 AM MDT SUN JUN 28 2015

Montana AWOS Reports

MALTA       |KM75 280715Z AUTO 00000KT 40SM 21/09 A2996 RMK AO1 T02110094






000
SXUS55 KMSO 280733
OSOMSO
MONTANA AWOS SUMMARY
NATIONAL WEATHER SERVICE MISSOULA MT
133 AM MDT SUN JUN 28 2015

Montana AWOS Reports

MALTA       |KM75 280715Z AUTO 00000KT 40SM 21/09 A2996 RMK AO1 T02110094






000
SXUS55 KMSO 280723
OSOMSO
MONTANA AWOS SUMMARY
NATIONAL WEATHER SERVICE MISSOULA MT
123 AM MDT SUN JUN 28 2015

Montana AWOS Reports

TWIN BRIDGES|K7S1 280715Z AUTO 00000KT 40SM 21/04 A3012 RMK AO1 T02060039
LAUREL      |K6S8 280715Z AUTO 00000KT 40SM 21/11 A3004 RMK AO1 T02060111
ROUNDUP     |KRPX 280715Z AUTO 00000KT 40SM 22/07 A2997 RMK AO1 T02170067






000
SXUS55 KMSO 280703
OSOMSO
MONTANA AWOS SUMMARY
NATIONAL WEATHER SERVICE MISSOULA MT
103 AM MDT SUN JUN 28 2015

Montana AWOS Reports

LAUREL      |K6S8 280655Z AUTO 00000KT 40SM 21/10 A3004 RMK AO1 T02110100
TWIN BRIDGES|K7S1 280655Z AUTO 10005KT 40SM 20/06 A3013 RMK AO1 T02000061
ROUNDUP     |KRPX 280655Z AUTO 00000KT 40SM 23/07 A2997 RMK AO1 T02280067
MALTA       |KM75 280655Z AUTO 00000KT 40SM 22/10 A2996 RMK AO1 T02170100
SCOBEY      |K9S2 280655Z AUTO 00000KT 40SM 16/10 A3003 RMK AO1 T01560100
PLAINS      |KS34 280655Z AUTO 00000KT 5SM HZ 22/12 A3002 RMK AO1 T02170122
EKALAKA     |K97M 280655Z AUTO 13004KT 40SM 17/08 A3009 RMK AO1 T01720083






000
SXUS55 KMSO 280703
OSOMSO
MONTANA AWOS SUMMARY
NATIONAL WEATHER SERVICE MISSOULA MT
103 AM MDT SUN JUN 28 2015

Montana AWOS Reports

LAUREL      |K6S8 280655Z AUTO 00000KT 40SM 21/10 A3004 RMK AO1 T02110100
TWIN BRIDGES|K7S1 280655Z AUTO 10005KT 40SM 20/06 A3013 RMK AO1 T02000061
ROUNDUP     |KRPX 280655Z AUTO 00000KT 40SM 23/07 A2997 RMK AO1 T02280067
MALTA       |KM75 280655Z AUTO 00000KT 40SM 22/10 A2996 RMK AO1 T02170100
SCOBEY      |K9S2 280655Z AUTO 00000KT 40SM 16/10 A3003 RMK AO1 T01560100
PLAINS      |KS34 280655Z AUTO 00000KT 5SM HZ 22/12 A3002 RMK AO1 T02170122
EKALAKA     |K97M 280655Z AUTO 13004KT 40SM 17/08 A3009 RMK AO1 T01720083






000
SXUS55 KMSO 280644
OSOMSO
MONTANA AWOS SUMMARY
NATIONAL WEATHER SERVICE MISSOULA MT
1243 AM MDT SUN JUN 28 2015

Montana AWOS Reports

LAUREL      |K6S8 280635Z AUTO 00000KT 40SM 22/11 A3004 RMK AO1 T02220106
TWIN BRIDGES|K7S1 280635Z AUTO 00000KT 40SM 23/04 A3012 RMK AO1 T02330039
MALTA       |KM75 280635Z AUTO 00000KT 40SM 22/09 A2996 RMK AO1 T02170094
ROUNDUP     |KRPX 280635Z AUTO 00000KT 40SM 23/06 A2997 RMK AO1 T02330061






000
SXUS55 KMSO 280623
OSOMSO
MONTANA AWOS SUMMARY
NATIONAL WEATHER SERVICE MISSOULA MT
1222 AM MDT SUN JUN 28 2015

Montana AWOS Reports

LAUREL      |K6S8 280615Z AUTO 00000KT 40SM 23/11 A3004 RMK AO1 T02280106
ROUNDUP     |KRPX 280615Z AUTO 00000KT 40SM 24/06 A2997 RMK AO1 T02390061
MALTA       |KM75 280615Z AUTO 00000KT 40SM 22/09 A2996 RMK AO1 T02220094
TWIN BRIDGES|K7S1 280615Z AUTO 00000KT 40SM 22/04 A3012 RMK AO1 T02220044






000
SXUS55 KMSO 280623
OSOMSO
MONTANA AWOS SUMMARY
NATIONAL WEATHER SERVICE MISSOULA MT
1222 AM MDT SUN JUN 28 2015

Montana AWOS Reports

LAUREL      |K6S8 280615Z AUTO 00000KT 40SM 23/11 A3004 RMK AO1 T02280106
ROUNDUP     |KRPX 280615Z AUTO 00000KT 40SM 24/06 A2997 RMK AO1 T02390061
MALTA       |KM75 280615Z AUTO 00000KT 40SM 22/09 A2996 RMK AO1 T02220094
TWIN BRIDGES|K7S1 280615Z AUTO 00000KT 40SM 22/04 A3012 RMK AO1 T02220044






000
SXUS55 KMSO 280603
OSOMSO
MONTANA AWOS SUMMARY
NATIONAL WEATHER SERVICE MISSOULA MT
1202 AM MDT SUN JUN 28 2015

Montana AWOS Reports

LAUREL      |K6S8 280555Z AUTO 00000KT 40SM 23/11 A3004 RMK AO1 T02330106
TWIN BRIDGES|K7S1 280555Z AUTO 00000KT 40SM 24/04 A3011 RMK AO1 T02440039
ROUNDUP     |KRPX 280555Z AUTO 00000KT 40SM 24/06 A2997 RMK AO1 T02440061
MALTA       |KM75 280555Z AUTO 00000KT 40SM 22/09 A2996 RMK AO1 T02170094
SCOBEY      |K9S2 280555Z AUTO 00000KT 40SM 17/10 A3003 RMK AO1 T01720100
PLAINS      |KS34 280555Z AUTO 00000KT 4SM HZ 23/13 A3001 RMK AO1 T02330128
EKALAKA     |K97M 280555Z AUTO 13004KT 40SM 20/07 A3009 RMK AO1 T02000072






000
SXUS55 KMSO 280603
OSOMSO
MONTANA AWOS SUMMARY
NATIONAL WEATHER SERVICE MISSOULA MT
1202 AM MDT SUN JUN 28 2015

Montana AWOS Reports

LAUREL      |K6S8 280555Z AUTO 00000KT 40SM 23/11 A3004 RMK AO1 T02330106
TWIN BRIDGES|K7S1 280555Z AUTO 00000KT 40SM 24/04 A3011 RMK AO1 T02440039
ROUNDUP     |KRPX 280555Z AUTO 00000KT 40SM 24/06 A2997 RMK AO1 T02440061
MALTA       |KM75 280555Z AUTO 00000KT 40SM 22/09 A2996 RMK AO1 T02170094
SCOBEY      |K9S2 280555Z AUTO 00000KT 40SM 17/10 A3003 RMK AO1 T01720100
PLAINS      |KS34 280555Z AUTO 00000KT 4SM HZ 23/13 A3001 RMK AO1 T02330128
EKALAKA     |K97M 280555Z AUTO 13004KT 40SM 20/07 A3009 RMK AO1 T02000072






000
SXUS55 KMSO 280553
OSOMSO
MONTANA AWOS SUMMARY
NATIONAL WEATHER SERVICE MISSOULA MT
1153 PM MDT SAT JUN 27 2015

Montana AWOS Reports

LAUREL      |K6S8 280535Z AUTO 00000KT 40SM 23/11 A3003 RMK AO1 T02280111
ROUNDUP     |KRPX 280535Z AUTO 00000KT 40SM 24/06 A2997 RMK AO1 T02390056






000
SXUS55 KMSO 280553
OSOMSO
MONTANA AWOS SUMMARY
NATIONAL WEATHER SERVICE MISSOULA MT
1153 PM MDT SAT JUN 27 2015

Montana AWOS Reports

LAUREL      |K6S8 280535Z AUTO 00000KT 40SM 23/11 A3003 RMK AO1 T02280111
ROUNDUP     |KRPX 280535Z AUTO 00000KT 40SM 24/06 A2997 RMK AO1 T02390056






000
SXUS55 KMSO 280543
OSOMSO
MONTANA AWOS SUMMARY
NATIONAL WEATHER SERVICE MISSOULA MT
1143 PM MDT SAT JUN 27 2015

Montana AWOS Reports

TWIN BRIDGES|K7S1 280535Z AUTO 00000KT 40SM 25/04 A3011 RMK AO1 T02500044
MALTA       |KM75 280535Z AUTO 00000KT 40SM 22/10 A2996 RMK AO1 T02170100






000
SXUS55 KMSO 280543
OSOMSO
MONTANA AWOS SUMMARY
NATIONAL WEATHER SERVICE MISSOULA MT
1143 PM MDT SAT JUN 27 2015

Montana AWOS Reports

TWIN BRIDGES|K7S1 280535Z AUTO 00000KT 40SM 25/04 A3011 RMK AO1 T02500044
MALTA       |KM75 280535Z AUTO 00000KT 40SM 22/10 A2996 RMK AO1 T02170100






000
SXUS55 KMSO 280524
OSOMSO
MONTANA AWOS SUMMARY
NATIONAL WEATHER SERVICE MISSOULA MT
1123 PM MDT SAT JUN 27 2015

Montana AWOS Reports

TWIN BRIDGES|K7S1 280515Z AUTO VRB05KT 40SM 24/04 A3011 RMK AO1 T02440039
MALTA       |KM75 280515Z AUTO 00000KT 40SM 22/10 A2996 RMK AO1 T02220100
LAUREL      |K6S8 280515Z AUTO 00000KT 40SM 23/11 A3004 RMK AO1 T02280106
ROUNDUP     |KRPX 280515Z AUTO 00000KT 40SM 24/06 A2997 RMK AO1 T02440061






000
SXUS55 KMSO 280513
OSOMSO
MONTANA AWOS SUMMARY
NATIONAL WEATHER SERVICE MISSOULA MT
1113 PM MDT SAT JUN 27 2015

Montana AWOS Reports

PLAINS      |KS34 280455Z AUTO 00000KT 5SM HZ 26/14 A3000 RMK AO1 T02560144






000
SXUS55 KMSO 280503
OSOMSO
MONTANA AWOS SUMMARY
NATIONAL WEATHER SERVICE MISSOULA MT
1103 PM MDT SAT JUN 27 2015

Montana AWOS Reports

SCOBEY      |K9S2 280455Z AUTO 34006KT 40SM 17/09 A3003 RMK AO1 T01670089






000
SXUS55 KMSO 280503
OSOMSO
MONTANA AWOS SUMMARY
NATIONAL WEATHER SERVICE MISSOULA MT
1103 PM MDT SAT JUN 27 2015

Montana AWOS Reports

SCOBEY      |K9S2 280455Z AUTO 34006KT 40SM 17/09 A3003 RMK AO1 T01670089






000
SXUS55 KMSO 280443
OSOMSO
MONTANA AWOS SUMMARY
NATIONAL WEATHER SERVICE MISSOULA MT
1043 PM MDT SAT JUN 27 2015

Montana AWOS Reports

TWIN BRIDGES|K7S1 280435Z AUTO 00000KT 40SM 28/03 A3010 RMK AO1 T02830033
LAUREL      |K6S8 280435Z AUTO 00000KT 40SM 24/11 A3004 RMK AO1 T02440106
ROUNDUP     |KRPX 280435Z AUTO 00000KT 40SM 26/06 A2997 RMK AO1 T02560061
MALTA       |KM75 280435Z AUTO 00000KT 40SM 22/11 A2996 RMK AO1 T02220106






000
SXUS55 KMSO 280423
OSOMSO
MONTANA AWOS SUMMARY
NATIONAL WEATHER SERVICE MISSOULA MT
1023 PM MDT SAT JUN 27 2015

Montana AWOS Reports

LAUREL      |K6S8 280415Z AUTO 00000KT 40SM 24/11 A3004 RMK AO1 T02390111
TWIN BRIDGES|K7S1 280415Z AUTO 35006KT 40SM 29/03 A3009 RMK AO1 T02940033
ROUNDUP     |KRPX 280415Z AUTO 00000KT 40SM 27/06 A2997 RMK AO1 T02670061
MALTA       |KM75 280415Z AUTO 00000KT 40SM 22/11 A2996 RMK AO1 T02220111






000
SXUS55 KMSO 280413
OSOMSO
MONTANA AWOS SUMMARY
NATIONAL WEATHER SERVICE MISSOULA MT
1013 PM MDT SAT JUN 27 2015

Montana AWOS Reports

EKALAKA     |K97M 280355Z AUTO 00000KT 40SM 22/08 A3009 RMK AO1 T02170083
PLAINS      |KS34 280355Z AUTO 00000KT 5SM HZ 29/09 A2998 RMK AO1 T02940089
SCOBEY      |K9S2 280355Z AUTO 40SM 18/09 A3003 RMK AO1 T01780094






000
SXUS55 KMSO 280413
OSOMSO
MONTANA AWOS SUMMARY
NATIONAL WEATHER SERVICE MISSOULA MT
1013 PM MDT SAT JUN 27 2015

Montana AWOS Reports

EKALAKA     |K97M 280355Z AUTO 00000KT 40SM 22/08 A3009 RMK AO1 T02170083
PLAINS      |KS34 280355Z AUTO 00000KT 5SM HZ 29/09 A2998 RMK AO1 T02940089
SCOBEY      |K9S2 280355Z AUTO 40SM 18/09 A3003 RMK AO1 T01780094






000
SXUS55 KMSO 280403
OSOMSO
MONTANA AWOS SUMMARY
NATIONAL WEATHER SERVICE MISSOULA MT
1002 PM MDT SAT JUN 27 2015

Montana AWOS Reports

LAUREL      |K6S8 280355Z AUTO 00000KT 40SM 26/11 A3004 RMK AO1 T02560111
TWIN BRIDGES|K7S1 280355Z AUTO 36006KT 40SM 29/03 A3009 RMK AO1 T02940033
ROUNDUP     |KRPX 280355Z AUTO 00000KT 40SM 29/07 A2997 RMK AO1 T02940067
MALTA       |KM75 280355Z AUTO 00000KT 40SM 23/11 A2996 RMK AO1 T02330111






000
SXUS55 KMSO 280353
OSOMSO
MONTANA AWOS SUMMARY
NATIONAL WEATHER SERVICE MISSOULA MT
952 PM MDT SAT JUN 27 2015

Montana AWOS Reports

LAUREL      |K6S8 280335Z AUTO 00000KT 40SM 27/11 A3004 RMK AO1 T02670111
ROUNDUP     |KRPX 280335Z AUTO 00000KT 40SM 30/06 A2996 RMK AO1 T03000056






000
SXUS55 KMSO 280343
OSOMSO
MONTANA AWOS SUMMARY
NATIONAL WEATHER SERVICE MISSOULA MT
943 PM MDT SAT JUN 27 2015

Montana AWOS Reports

TWIN BRIDGES|K7S1 280335Z AUTO 36005KT 40SM 31/04 A3008 RMK AO1 T03060044
MALTA       |KM75 280335Z AUTO 00000KT 40SM 26/11 A2995 RMK AO1 T02560111






000
SXUS55 KMSO 280323
OSOMSO
MONTANA AWOS SUMMARY
NATIONAL WEATHER SERVICE MISSOULA MT
922 PM MDT SAT JUN 27 2015

Montana AWOS Reports

TWIN BRIDGES|K7S1 280315Z AUTO 34007KT 40SM 31/03 A3008 RMK AO1 T03060033
LAUREL      |K6S8 280315Z AUTO 00000KT 40SM 28/12 A3003 RMK AO1 T02830117
ROUNDUP     |KRPX 280315Z AUTO 00000KT 40SM 30/06 A2996 RMK AO1 T03000061
MALTA       |KM75 280315Z AUTO 00000KT 40SM 27/11 A2995 RMK AO1 T02720111






000
SXUS55 KMSO 280323
OSOMSO
MONTANA AWOS SUMMARY
NATIONAL WEATHER SERVICE MISSOULA MT
922 PM MDT SAT JUN 27 2015

Montana AWOS Reports

TWIN BRIDGES|K7S1 280315Z AUTO 34007KT 40SM 31/03 A3008 RMK AO1 T03060033
LAUREL      |K6S8 280315Z AUTO 00000KT 40SM 28/12 A3003 RMK AO1 T02830117
ROUNDUP     |KRPX 280315Z AUTO 00000KT 40SM 30/06 A2996 RMK AO1 T03000061
MALTA       |KM75 280315Z AUTO 00000KT 40SM 27/11 A2995 RMK AO1 T02720111






000
SXUS55 KMSO 280303
OSOMSO
MONTANA AWOS SUMMARY
NATIONAL WEATHER SERVICE MISSOULA MT
903 PM MDT SAT JUN 27 2015

Montana AWOS Reports

TWIN BRIDGES|K7S1 280255Z AUTO 34004KT 40SM 32/04 A3007 RMK AO1 T03220039
LAUREL      |K6S8 280255Z AUTO 00000KT 40SM 29/12 A3003 RMK AO1 T02940117
ROUNDUP     |KRPX 280255Z AUTO 00000KT 40SM 31/07 A2996 RMK AO1 T03060067
MALTA       |KM75 280255Z AUTO 00000KT 40SM 29/11 A2994 RMK AO1 T02890111
SCOBEY      |K9S2 280255Z AUTO 00000KT 40SM 24/11 A3002 RMK AO1 T02440111
EKALAKA     |K97M 280255Z AUTO 13004KT 40SM 23/09 A3007 RMK AO1 T02330094
PLAINS      |KS34 280255Z AUTO 00000KT 3 1/2SM HZ 35/10 A2995 RMK AO1 T03500100






000
SXUS55 KMSO 280303
OSOMSO
MONTANA AWOS SUMMARY
NATIONAL WEATHER SERVICE MISSOULA MT
903 PM MDT SAT JUN 27 2015

Montana AWOS Reports

TWIN BRIDGES|K7S1 280255Z AUTO 34004KT 40SM 32/04 A3007 RMK AO1 T03220039
LAUREL      |K6S8 280255Z AUTO 00000KT 40SM 29/12 A3003 RMK AO1 T02940117
ROUNDUP     |KRPX 280255Z AUTO 00000KT 40SM 31/07 A2996 RMK AO1 T03060067
MALTA       |KM75 280255Z AUTO 00000KT 40SM 29/11 A2994 RMK AO1 T02890111
SCOBEY      |K9S2 280255Z AUTO 00000KT 40SM 24/11 A3002 RMK AO1 T02440111
EKALAKA     |K97M 280255Z AUTO 13004KT 40SM 23/09 A3007 RMK AO1 T02330094
PLAINS      |KS34 280255Z AUTO 00000KT 3 1/2SM HZ 35/10 A2995 RMK AO1 T03500100






000
SXUS55 KMSO 280243
OSOMSO
MONTANA AWOS SUMMARY
NATIONAL WEATHER SERVICE MISSOULA MT
843 PM MDT SAT JUN 27 2015

Montana AWOS Reports

TWIN BRIDGES|K7S1 280235Z AUTO 34007KT 40SM 34/04 A3007 RMK AO1 T03390044
ROUNDUP     |KRPX 280235Z AUTO 00000KT 40SM 31/06 A2996 RMK AO1 T03110061
MALTA       |KM75 280235Z AUTO 00000KT 40SM 31/12 A2994 RMK AO1 T03060117
LAUREL      |K6S8 280235Z AUTO 00000KT 40SM 31/12 A3004 RMK AO1 T03060122






000
SXUS55 KMSO 280223
OSOMSO
MONTANA AWOS SUMMARY
NATIONAL WEATHER SERVICE MISSOULA MT
823 PM MDT SAT JUN 27 2015

Montana AWOS Reports

LAUREL      |K6S8 280215Z AUTO 00000KT 40SM 31/12 A3004 RMK AO1 T03110117
TWIN BRIDGES|K7S1 280215Z AUTO 33006KT 40SM 34/05 A3007 RMK AO1 T03440050
ROUNDUP     |KRPX 280215Z AUTO 00000KT 40SM 32/07 A2996 RMK AO1 T03220067
MALTA       |KM75 280215Z AUTO 00000KT 40SM 32/12 A2994 RMK AO1 T03170117






000
SXUS55 KMSO 280223
OSOMSO
MONTANA AWOS SUMMARY
NATIONAL WEATHER SERVICE MISSOULA MT
823 PM MDT SAT JUN 27 2015

Montana AWOS Reports

LAUREL      |K6S8 280215Z AUTO 00000KT 40SM 31/12 A3004 RMK AO1 T03110117
TWIN BRIDGES|K7S1 280215Z AUTO 33006KT 40SM 34/05 A3007 RMK AO1 T03440050
ROUNDUP     |KRPX 280215Z AUTO 00000KT 40SM 32/07 A2996 RMK AO1 T03220067
MALTA       |KM75 280215Z AUTO 00000KT 40SM 32/12 A2994 RMK AO1 T03170117






000
SXUS55 KMSO 280213
OSOMSO
MONTANA AWOS SUMMARY
NATIONAL WEATHER SERVICE MISSOULA MT
813 PM MDT SAT JUN 27 2015

Montana AWOS Reports

SCOBEY      |K9S2 280155Z AUTO 34005KT 40SM 27/11 A3003 RMK AO1 T02720106






000
SXUS55 KMSO 280213
OSOMSO
MONTANA AWOS SUMMARY
NATIONAL WEATHER SERVICE MISSOULA MT
813 PM MDT SAT JUN 27 2015

Montana AWOS Reports

SCOBEY      |K9S2 280155Z AUTO 34005KT 40SM 27/11 A3003 RMK AO1 T02720106






000
SXUS55 KMSO 280203
OSOMSO
MONTANA AWOS SUMMARY
NATIONAL WEATHER SERVICE MISSOULA MT
803 PM MDT SAT JUN 27 2015

Montana AWOS Reports

LAUREL      |K6S8 280155Z AUTO 00000KT 40SM 32/11 A3004 RMK AO1 T03220111
ROUNDUP     |KRPX 280155Z AUTO 00000KT 40SM 33/07 A2996 RMK AO1 T03330067
MALTA       |KM75 280155Z AUTO 00000KT 40SM 33/11 A2994 RMK AO1 T03280111
PLAINS      |KS34 280155Z AUTO 27007KT 3 1/2SM HZ 37/08 A2994 RMK AO1 T03670083
TWIN BRIDGES|K7S1 280155Z AUTO 33008KT 40SM 36/06 A3006 RMK AO1 T03560061






000
SXUS55 KMSO 280153
OSOMSO
MONTANA AWOS SUMMARY
NATIONAL WEATHER SERVICE MISSOULA MT
753 PM MDT SAT JUN 27 2015

Montana AWOS Reports

LAUREL      |K6S8 280135Z AUTO 00000KT 40SM 33/11 A3004 RMK AO1 T03280111
ROUNDUP     |KRPX 280135Z AUTO 00000KT 40SM 34/07 A2995 RMK AO1 T03390072






000
SXUS55 KMSO 280153
OSOMSO
MONTANA AWOS SUMMARY
NATIONAL WEATHER SERVICE MISSOULA MT
753 PM MDT SAT JUN 27 2015

Montana AWOS Reports

LAUREL      |K6S8 280135Z AUTO 00000KT 40SM 33/11 A3004 RMK AO1 T03280111
ROUNDUP     |KRPX 280135Z AUTO 00000KT 40SM 34/07 A2995 RMK AO1 T03390072






000
SXUS55 KMSO 280143
OSOMSO
MONTANA AWOS SUMMARY
NATIONAL WEATHER SERVICE MISSOULA MT
743 PM MDT SAT JUN 27 2015

Montana AWOS Reports

TWIN BRIDGES|K7S1 280135Z AUTO 34010KT 40SM 36/05 A3006 RMK AO1 T03560050
MALTA       |KM75 280135Z AUTO 05004KT 40SM 33/11 A2994 RMK AO1 T03330111






000
SXUS55 KMSO 280123
OSOMSO
MONTANA AWOS SUMMARY
NATIONAL WEATHER SERVICE MISSOULA MT
722 PM MDT SAT JUN 27 2015

Montana AWOS Reports

TWIN BRIDGES|K7S1 280115Z AUTO 33010KT 40SM 36/06 A3006 RMK AO1 T03610056
MALTA       |KM75 280115Z AUTO 05005KT 40SM 34/12 A2994 RMK AO1 T03440117
LAUREL      |K6S8 280115Z AUTO 00000KT 40SM 33/09 A3003 RMK AO1 T03280094
ROUNDUP     |KRPX 280115Z AUTO 08004KT 40SM 34/07 A2995 RMK AO1 T03440067






000
SXUS55 KMSO 280113
OSOMSO
MONTANA AWOS SUMMARY
NATIONAL WEATHER SERVICE MISSOULA MT
713 PM MDT SAT JUN 27 2015

Montana AWOS Reports

LAUREL      |K6S8 280055Z AUTO 07004KT 40SM 33/09 A3003 RMK AO1 T03330094






000
SXUS55 KMSO 280103
OSOMSO
MONTANA AWOS SUMMARY
NATIONAL WEATHER SERVICE MISSOULA MT
702 PM MDT SAT JUN 27 2015

Montana AWOS Reports

TWIN BRIDGES|K7S1 280055Z AUTO 34009KT 40SM 36/06 A3006 RMK AO1 T03610056
ROUNDUP     |KRPX 280055Z AUTO 00000KT 40SM 34/06 A2995 RMK AO1 T03440061
MALTA       |KM75 280055Z AUTO 00000KT 40SM 35/12 A2994 RMK AO1 T03500117
SCOBEY      |K9S2 280055Z AUTO 34008KT 40SM 29/08 A3003 RMK AO1 T02890083
EKALAKA     |K97M 280055Z AUTO 00000KT 40SM 28/09 A3007 RMK AO1 T02780089
PLAINS      |KS34 280055Z AUTO 30005KT 4SM HZ 37/12 A2994 RMK AO1 T03720117






000
SXUS55 KMSO 280103
OSOMSO
MONTANA AWOS SUMMARY
NATIONAL WEATHER SERVICE MISSOULA MT
702 PM MDT SAT JUN 27 2015

Montana AWOS Reports

TWIN BRIDGES|K7S1 280055Z AUTO 34009KT 40SM 36/06 A3006 RMK AO1 T03610056
ROUNDUP     |KRPX 280055Z AUTO 00000KT 40SM 34/06 A2995 RMK AO1 T03440061
MALTA       |KM75 280055Z AUTO 00000KT 40SM 35/12 A2994 RMK AO1 T03500117
SCOBEY      |K9S2 280055Z AUTO 34008KT 40SM 29/08 A3003 RMK AO1 T02890083
EKALAKA     |K97M 280055Z AUTO 00000KT 40SM 28/09 A3007 RMK AO1 T02780089
PLAINS      |KS34 280055Z AUTO 30005KT 4SM HZ 37/12 A2994 RMK AO1 T03720117






000
SXUS55 KMSO 280043
OSOMSO
MONTANA AWOS SUMMARY
NATIONAL WEATHER SERVICE MISSOULA MT
643 PM MDT SAT JUN 27 2015

Montana AWOS Reports

TWIN BRIDGES|K7S1 280035Z AUTO 22004KT 40SM 34/08 A3006 RMK AO1 T03440078
ROUNDUP     |KRPX 280035Z AUTO 00000KT 40SM 34/06 A2995 RMK AO1 T03440061
MALTA       |KM75 280035Z AUTO 05006KT 40SM 35/10 A2995 RMK AO1 T03500100
LAUREL      |K6S8 280035Z AUTO 09005KT 40SM 34/09 A3003 RMK AO1 T03390094






000
SXUS55 KMSO 280043
OSOMSO
MONTANA AWOS SUMMARY
NATIONAL WEATHER SERVICE MISSOULA MT
643 PM MDT SAT JUN 27 2015

Montana AWOS Reports

TWIN BRIDGES|K7S1 280035Z AUTO 22004KT 40SM 34/08 A3006 RMK AO1 T03440078
ROUNDUP     |KRPX 280035Z AUTO 00000KT 40SM 34/06 A2995 RMK AO1 T03440061
MALTA       |KM75 280035Z AUTO 05006KT 40SM 35/10 A2995 RMK AO1 T03500100
LAUREL      |K6S8 280035Z AUTO 09005KT 40SM 34/09 A3003 RMK AO1 T03390094






000
SXUS55 KMSO 280023
OSOMSO
MONTANA AWOS SUMMARY
NATIONAL WEATHER SERVICE MISSOULA MT
623 PM MDT SAT JUN 27 2015

Montana AWOS Reports

TWIN BRIDGES|K7S1 280015Z AUTO 17006KT 40SM 34/11 A3006 RMK AO1 T03440111
LAUREL      |K6S8 280015Z AUTO 06004KT 40SM 34/08 A3003 RMK AO1 T03390083
ROUNDUP     |KRPX 280015Z AUTO 04006KT 40SM 35/06 A2996 RMK AO1 T03500061
MALTA       |KM75 280015Z AUTO 00000KT 40SM 36/11 A2995 RMK AO1 T03560111






000
SXUS55 KMSO 280003
OSOMSO
MONTANA AWOS SUMMARY
NATIONAL WEATHER SERVICE MISSOULA MT
603 PM MDT SAT JUN 27 2015

Montana AWOS Reports

LAUREL      |K6S8 272355Z AUTO 04005KT 40SM 34/09 A3004 RMK AO1 T03390094
TWIN BRIDGES|K7S1 272355Z AUTO 16006KT 40SM 35/09 A3006 RMK AO1 T03500094
ROUNDUP     |KRPX 272355Z AUTO 09004KT 40SM 35/06 A2996 RMK AO1 T03500061
MALTA       |KM75 272355Z AUTO 06004KT 40SM 36/11 A2995 RMK AO1 T03610106
SCOBEY      |K9S2 272355Z AUTO 33007KT 40SM 29/09 A3003 RMK AO1 T02940089
EKALAKA     |K97M 272355Z AUTO 36005KT 40SM 29/07 A3008 RMK AO1 T02890072
PLAINS      |KS34 272355Z AUTO 00000KT 5SM HZ 38/09 A2995 RMK AO1 T03830089






000
SXUS55 KMSO 280003
OSOMSO
MONTANA AWOS SUMMARY
NATIONAL WEATHER SERVICE MISSOULA MT
603 PM MDT SAT JUN 27 2015

Montana AWOS Reports

LAUREL      |K6S8 272355Z AUTO 04005KT 40SM 34/09 A3004 RMK AO1 T03390094
TWIN BRIDGES|K7S1 272355Z AUTO 16006KT 40SM 35/09 A3006 RMK AO1 T03500094
ROUNDUP     |KRPX 272355Z AUTO 09004KT 40SM 35/06 A2996 RMK AO1 T03500061
MALTA       |KM75 272355Z AUTO 06004KT 40SM 36/11 A2995 RMK AO1 T03610106
SCOBEY      |K9S2 272355Z AUTO 33007KT 40SM 29/09 A3003 RMK AO1 T02940089
EKALAKA     |K97M 272355Z AUTO 36005KT 40SM 29/07 A3008 RMK AO1 T02890072
PLAINS      |KS34 272355Z AUTO 00000KT 5SM HZ 38/09 A2995 RMK AO1 T03830089






    US Dept of Commerce
    National Oceanic and Atmospheric Administration
    National Weather Service
    1325 East West Highway
    Silver Spring, MD 20910
    Page Author: NWS Internet Services Team
Disclaimer
Information Quality
Credits
Glossary
Privacy Policy
Freedom of Information Act (FOIA)
About Us
Career Opportunities